<?xml version="1.0" encoding="UTF-8" standalone="no" ?>
<gpx xmlns="http://www.topografix.com/GPX/1/1" xmlns:xsi="http://www.w3.org/2001/XMLSchema-instance" xsi:schemaLocation="http://www.topografix.com/GPX/1/1 http://www.topografix.com/GPX/1/1/gpx.xsd" version="1.1" creator="VisuGPX - https://www.visugpx.com">
  <metadata>
    <name>mare du souci</name>
  </metadata>
  <trk>
    <name><![CDATA[mare du souci_1]]></name>
    <trkseg>
      <trkpt lat="48.51098" lon="3.10074">
        <ele>108.8</ele>
        <time>2021-04-04T12:07:59Z</time>
      </trkpt>
      <trkpt lat="48.51102" lon="3.10079">
        <ele>108.3</ele>
        <time>2021-04-04T12:08:05Z</time>
      </trkpt>
      <trkpt lat="48.51107" lon="3.10082">
        <ele>107.6</ele>
        <time>2021-04-04T12:08:12Z</time>
      </trkpt>
      <trkpt lat="48.5111" lon="3.10088">
        <ele>107.2</ele>
        <time>2021-04-04T12:08:21Z</time>
      </trkpt>
      <trkpt lat="48.51115" lon="3.10092">
        <ele>106.7</ele>
        <time>2021-04-04T12:08:27Z</time>
      </trkpt>
      <trkpt lat="48.5112" lon="3.10095">
        <ele>106.3</ele>
        <time>2021-04-04T12:08:32Z</time>
      </trkpt>
      <trkpt lat="48.51125" lon="3.10096">
        <ele>106</ele>
        <time>2021-04-04T12:08:36Z</time>
      </trkpt>
      <trkpt lat="48.51131" lon="3.10098">
        <ele>106</ele>
        <time>2021-04-04T12:08:41Z</time>
      </trkpt>
      <trkpt lat="48.51136" lon="3.101">
        <ele>106</ele>
        <time>2021-04-04T12:08:46Z</time>
      </trkpt>
      <trkpt lat="48.5114" lon="3.10103">
        <ele>105.9</ele>
        <time>2021-04-04T12:08:50Z</time>
      </trkpt>
      <trkpt lat="48.51143" lon="3.10107">
        <ele>105.9</ele>
        <time>2021-04-04T12:08:54Z</time>
      </trkpt>
      <trkpt lat="48.51148" lon="3.10112">
        <ele>106</ele>
        <time>2021-04-04T12:08:59Z</time>
      </trkpt>
      <trkpt lat="48.51152" lon="3.10116">
        <ele>106.2</ele>
        <time>2021-04-04T12:09:03Z</time>
      </trkpt>
      <trkpt lat="48.51155" lon="3.10122">
        <ele>106.4</ele>
        <time>2021-04-04T12:09:07Z</time>
      </trkpt>
      <trkpt lat="48.51159" lon="3.10126">
        <ele>106.6</ele>
        <time>2021-04-04T12:09:11Z</time>
      </trkpt>
      <trkpt lat="48.51163" lon="3.1013">
        <ele>106.7</ele>
        <time>2021-04-04T12:09:16Z</time>
      </trkpt>
      <trkpt lat="48.51167" lon="3.10135">
        <ele>107.1</ele>
        <time>2021-04-04T12:09:21Z</time>
      </trkpt>
      <trkpt lat="48.51171" lon="3.1014">
        <ele>107.3</ele>
        <time>2021-04-04T12:09:27Z</time>
      </trkpt>
      <trkpt lat="48.51173" lon="3.10146">
        <ele>107.5</ele>
        <time>2021-04-04T12:09:32Z</time>
      </trkpt>
      <trkpt lat="48.51176" lon="3.10152">
        <ele>107.9</ele>
        <time>2021-04-04T12:09:37Z</time>
      </trkpt>
      <trkpt lat="48.51179" lon="3.10157">
        <ele>108.4</ele>
        <time>2021-04-04T12:09:43Z</time>
      </trkpt>
      <trkpt lat="48.51183" lon="3.10162">
        <ele>108.9</ele>
        <time>2021-04-04T12:09:49Z</time>
      </trkpt>
      <trkpt lat="48.51188" lon="3.10165">
        <ele>109.1</ele>
        <time>2021-04-04T12:09:53Z</time>
      </trkpt>
      <trkpt lat="48.51191" lon="3.10171">
        <ele>109.5</ele>
        <time>2021-04-04T12:09:57Z</time>
      </trkpt>
      <trkpt lat="48.51194" lon="3.10176">
        <ele>109.9</ele>
        <time>2021-04-04T12:10:01Z</time>
      </trkpt>
      <trkpt lat="48.51198" lon="3.10182">
        <ele>110.4</ele>
        <time>2021-04-04T12:10:06Z</time>
      </trkpt>
      <trkpt lat="48.51201" lon="3.10188">
        <ele>110.9</ele>
        <time>2021-04-04T12:10:11Z</time>
      </trkpt>
      <trkpt lat="48.51203" lon="3.10195">
        <ele>111.1</ele>
        <time>2021-04-04T12:10:15Z</time>
      </trkpt>
      <trkpt lat="48.51201" lon="3.10202">
        <ele>111.2</ele>
        <time>2021-04-04T12:10:19Z</time>
      </trkpt>
      <trkpt lat="48.51199" lon="3.10209">
        <ele>111.1</ele>
        <time>2021-04-04T12:10:23Z</time>
      </trkpt>
      <trkpt lat="48.51199" lon="3.10216">
        <ele>111.2</ele>
        <time>2021-04-04T12:10:27Z</time>
      </trkpt>
      <trkpt lat="48.51199" lon="3.10223">
        <ele>111.6</ele>
        <time>2021-04-04T12:10:31Z</time>
      </trkpt>
      <trkpt lat="48.51199" lon="3.1023">
        <ele>111.9</ele>
        <time>2021-04-04T12:10:36Z</time>
      </trkpt>
      <trkpt lat="48.51197" lon="3.10237">
        <ele>111.9</ele>
        <time>2021-04-04T12:10:41Z</time>
      </trkpt>
      <trkpt lat="48.51193" lon="3.10241">
        <ele>111.9</ele>
        <time>2021-04-04T12:10:46Z</time>
      </trkpt>
      <trkpt lat="48.5119" lon="3.10248">
        <ele>111.8</ele>
        <time>2021-04-04T12:10:51Z</time>
      </trkpt>
      <trkpt lat="48.51188" lon="3.10254">
        <ele>111.9</ele>
        <time>2021-04-04T12:10:55Z</time>
      </trkpt>
      <trkpt lat="48.51185" lon="3.1026">
        <ele>111.9</ele>
        <time>2021-04-04T12:10:59Z</time>
      </trkpt>
      <trkpt lat="48.51183" lon="3.10267">
        <ele>112</ele>
        <time>2021-04-04T12:11:03Z</time>
      </trkpt>
      <trkpt lat="48.51179" lon="3.10275">
        <ele>112.2</ele>
        <time>2021-04-04T12:11:07Z</time>
      </trkpt>
      <trkpt lat="48.51176" lon="3.10281">
        <ele>112.4</ele>
        <time>2021-04-04T12:11:11Z</time>
      </trkpt>
      <trkpt lat="48.51174" lon="3.10288">
        <ele>112.9</ele>
        <time>2021-04-04T12:11:16Z</time>
      </trkpt>
      <trkpt lat="48.51171" lon="3.10295">
        <ele>113.3</ele>
        <time>2021-04-04T12:11:21Z</time>
      </trkpt>
      <trkpt lat="48.51168" lon="3.10301">
        <ele>113.5</ele>
        <time>2021-04-04T12:11:25Z</time>
      </trkpt>
      <trkpt lat="48.51166" lon="3.10307">
        <ele>113.6</ele>
        <time>2021-04-04T12:11:29Z</time>
      </trkpt>
      <trkpt lat="48.51163" lon="3.10313">
        <ele>113.7</ele>
        <time>2021-04-04T12:11:33Z</time>
      </trkpt>
      <trkpt lat="48.51162" lon="3.1032">
        <ele>114</ele>
        <time>2021-04-04T12:11:38Z</time>
      </trkpt>
      <trkpt lat="48.51159" lon="3.10326">
        <ele>114.2</ele>
        <time>2021-04-04T12:11:42Z</time>
      </trkpt>
      <trkpt lat="48.51156" lon="3.10332">
        <ele>114.3</ele>
        <time>2021-04-04T12:11:47Z</time>
      </trkpt>
      <trkpt lat="48.51152" lon="3.10338">
        <ele>114.3</ele>
        <time>2021-04-04T12:11:52Z</time>
      </trkpt>
      <trkpt lat="48.51147" lon="3.10341">
        <ele>114.5</ele>
        <time>2021-04-04T12:11:55Z</time>
      </trkpt>
      <trkpt lat="48.51142" lon="3.10341">
        <ele>115</ele>
        <time>2021-04-04T12:11:59Z</time>
      </trkpt>
      <trkpt lat="48.51137" lon="3.10339">
        <ele>115.7</ele>
        <time>2021-04-04T12:12:03Z</time>
      </trkpt>
      <trkpt lat="48.51133" lon="3.10337">
        <ele>116.4</ele>
        <time>2021-04-04T12:12:07Z</time>
      </trkpt>
      <trkpt lat="48.51128" lon="3.10333">
        <ele>117.3</ele>
        <time>2021-04-04T12:12:12Z</time>
      </trkpt>
      <trkpt lat="48.51125" lon="3.10329">
        <ele>118.2</ele>
        <time>2021-04-04T12:12:17Z</time>
      </trkpt>
      <trkpt lat="48.51121" lon="3.10324">
        <ele>119.3</ele>
        <time>2021-04-04T12:12:22Z</time>
      </trkpt>
      <trkpt lat="48.51116" lon="3.1032">
        <ele>120.3</ele>
        <time>2021-04-04T12:12:27Z</time>
      </trkpt>
      <trkpt lat="48.51112" lon="3.10315">
        <ele>121</ele>
        <time>2021-04-04T12:12:32Z</time>
      </trkpt>
      <trkpt lat="48.51108" lon="3.10311">
        <ele>121.5</ele>
        <time>2021-04-04T12:12:37Z</time>
      </trkpt>
      <trkpt lat="48.51104" lon="3.10307">
        <ele>121.9</ele>
        <time>2021-04-04T12:12:41Z</time>
      </trkpt>
      <trkpt lat="48.51099" lon="3.10304">
        <ele>122.4</ele>
        <time>2021-04-04T12:12:45Z</time>
      </trkpt>
      <trkpt lat="48.51095" lon="3.10301">
        <ele>122.8</ele>
        <time>2021-04-04T12:12:49Z</time>
      </trkpt>
      <trkpt lat="48.5109" lon="3.10298">
        <ele>122.9</ele>
        <time>2021-04-04T12:12:54Z</time>
      </trkpt>
      <trkpt lat="48.51085" lon="3.10294">
        <ele>123.2</ele>
        <time>2021-04-04T12:12:59Z</time>
      </trkpt>
      <trkpt lat="48.51081" lon="3.10289">
        <ele>124</ele>
        <time>2021-04-04T12:13:04Z</time>
      </trkpt>
      <trkpt lat="48.51076" lon="3.10287">
        <ele>124.7</ele>
        <time>2021-04-04T12:13:09Z</time>
      </trkpt>
      <trkpt lat="48.51073" lon="3.10292">
        <ele>125.6</ele>
        <time>2021-04-04T12:13:16Z</time>
      </trkpt>
      <trkpt lat="48.51071" lon="3.103">
        <ele>125.8</ele>
        <time>2021-04-04T12:13:22Z</time>
      </trkpt>
      <trkpt lat="48.51069" lon="3.10307">
        <ele>125.6</ele>
        <time>2021-04-04T12:13:27Z</time>
      </trkpt>
      <trkpt lat="48.51066" lon="3.10313">
        <ele>125.5</ele>
        <time>2021-04-04T12:13:31Z</time>
      </trkpt>
      <trkpt lat="48.51064" lon="3.10318">
        <ele>125.3</ele>
        <time>2021-04-04T12:13:35Z</time>
      </trkpt>
      <trkpt lat="48.51062" lon="3.10325">
        <ele>125.2</ele>
        <time>2021-04-04T12:13:39Z</time>
      </trkpt>
      <trkpt lat="48.5106" lon="3.10332">
        <ele>125.1</ele>
        <time>2021-04-04T12:13:43Z</time>
      </trkpt>
      <trkpt lat="48.51058" lon="3.10339">
        <ele>125</ele>
        <time>2021-04-04T12:13:47Z</time>
      </trkpt>
      <trkpt lat="48.51057" lon="3.10347">
        <ele>125</ele>
        <time>2021-04-04T12:13:52Z</time>
      </trkpt>
      <trkpt lat="48.51056" lon="3.10355">
        <ele>123.9</ele>
        <time>2021-04-04T12:13:55Z</time>
      </trkpt>
      <trkpt lat="48.51054" lon="3.10363">
        <ele>122.2</ele>
        <time>2021-04-04T12:13:59Z</time>
      </trkpt>
      <trkpt lat="48.51052" lon="3.10369">
        <ele>121.1</ele>
        <time>2021-04-04T12:14:03Z</time>
      </trkpt>
      <trkpt lat="48.5105" lon="3.10376">
        <ele>121</ele>
        <time>2021-04-04T12:14:08Z</time>
      </trkpt>
      <trkpt lat="48.51048" lon="3.10383">
        <ele>122</ele>
        <time>2021-04-04T12:14:12Z</time>
      </trkpt>
      <trkpt lat="48.51045" lon="3.1039">
        <ele>123.2</ele>
        <time>2021-04-04T12:14:16Z</time>
      </trkpt>
      <trkpt lat="48.51043" lon="3.10397">
        <ele>124.7</ele>
        <time>2021-04-04T12:14:19Z</time>
      </trkpt>
      <trkpt lat="48.51041" lon="3.10404">
        <ele>126.5</ele>
        <time>2021-04-04T12:14:23Z</time>
      </trkpt>
      <trkpt lat="48.51043" lon="3.10411">
        <ele>128.6</ele>
        <time>2021-04-04T12:14:31Z</time>
      </trkpt>
      <trkpt lat="48.51041" lon="3.10418">
        <ele>128.7</ele>
        <time>2021-04-04T12:14:35Z</time>
      </trkpt>
      <trkpt lat="48.5104" lon="3.10425">
        <ele>128.7</ele>
        <time>2021-04-04T12:14:39Z</time>
      </trkpt>
      <trkpt lat="48.51039" lon="3.10433">
        <ele>128.8</ele>
        <time>2021-04-04T12:14:43Z</time>
      </trkpt>
      <trkpt lat="48.51036" lon="3.10439">
        <ele>128.8</ele>
        <time>2021-04-04T12:14:47Z</time>
      </trkpt>
      <trkpt lat="48.51035" lon="3.10446">
        <ele>128.7</ele>
        <time>2021-04-04T12:14:52Z</time>
      </trkpt>
      <trkpt lat="48.51032" lon="3.10453">
        <ele>128.4</ele>
        <time>2021-04-04T12:14:57Z</time>
      </trkpt>
      <trkpt lat="48.5103" lon="3.10459">
        <ele>128.4</ele>
        <time>2021-04-04T12:15:01Z</time>
      </trkpt>
      <trkpt lat="48.51028" lon="3.10466">
        <ele>128.4</ele>
        <time>2021-04-04T12:15:05Z</time>
      </trkpt>
      <trkpt lat="48.51026" lon="3.10473">
        <ele>128.5</ele>
        <time>2021-04-04T12:15:10Z</time>
      </trkpt>
      <trkpt lat="48.51025" lon="3.1048">
        <ele>128.4</ele>
        <time>2021-04-04T12:15:14Z</time>
      </trkpt>
      <trkpt lat="48.51025" lon="3.10487">
        <ele>128.2</ele>
        <time>2021-04-04T12:15:18Z</time>
      </trkpt>
      <trkpt lat="48.51024" lon="3.10494">
        <ele>128</ele>
        <time>2021-04-04T12:15:23Z</time>
      </trkpt>
      <trkpt lat="48.51021" lon="3.105">
        <ele>127.8</ele>
        <time>2021-04-04T12:15:27Z</time>
      </trkpt>
      <trkpt lat="48.51018" lon="3.10507">
        <ele>127.6</ele>
        <time>2021-04-04T12:15:31Z</time>
      </trkpt>
      <trkpt lat="48.51015" lon="3.10512">
        <ele>127.4</ele>
        <time>2021-04-04T12:15:35Z</time>
      </trkpt>
      <trkpt lat="48.51013" lon="3.10518">
        <ele>127.1</ele>
        <time>2021-04-04T12:15:40Z</time>
      </trkpt>
      <trkpt lat="48.51011" lon="3.10526">
        <ele>126.8</ele>
        <time>2021-04-04T12:15:45Z</time>
      </trkpt>
      <trkpt lat="48.5101" lon="3.10533">
        <ele>126.5</ele>
        <time>2021-04-04T12:15:49Z</time>
      </trkpt>
      <trkpt lat="48.51009" lon="3.1054">
        <ele>125.8</ele>
        <time>2021-04-04T12:15:54Z</time>
      </trkpt>
      <trkpt lat="48.51007" lon="3.10547">
        <ele>125</ele>
        <time>2021-04-04T12:15:59Z</time>
      </trkpt>
      <trkpt lat="48.51005" lon="3.10554">
        <ele>124.3</ele>
        <time>2021-04-04T12:16:03Z</time>
      </trkpt>
      <trkpt lat="48.51003" lon="3.1056">
        <ele>123.7</ele>
        <time>2021-04-04T12:16:06Z</time>
      </trkpt>
      <trkpt lat="48.50999" lon="3.10565">
        <ele>123.3</ele>
        <time>2021-04-04T12:16:09Z</time>
      </trkpt>
      <trkpt lat="48.50997" lon="3.10572">
        <ele>122.9</ele>
        <time>2021-04-04T12:16:12Z</time>
      </trkpt>
      <trkpt lat="48.50994" lon="3.10578">
        <ele>122.6</ele>
        <time>2021-04-04T12:16:15Z</time>
      </trkpt>
      <trkpt lat="48.50992" lon="3.10585">
        <ele>122.1</ele>
        <time>2021-04-04T12:16:19Z</time>
      </trkpt>
      <trkpt lat="48.50989" lon="3.10593">
        <ele>121.8</ele>
        <time>2021-04-04T12:16:23Z</time>
      </trkpt>
      <trkpt lat="48.50988" lon="3.10601">
        <ele>121.6</ele>
        <time>2021-04-04T12:16:27Z</time>
      </trkpt>
      <trkpt lat="48.50987" lon="3.10608">
        <ele>121.6</ele>
        <time>2021-04-04T12:16:31Z</time>
      </trkpt>
      <trkpt lat="48.50986" lon="3.10616">
        <ele>121.7</ele>
        <time>2021-04-04T12:16:36Z</time>
      </trkpt>
      <trkpt lat="48.50986" lon="3.10624">
        <ele>121.9</ele>
        <time>2021-04-04T12:16:41Z</time>
      </trkpt>
      <trkpt lat="48.50984" lon="3.10632">
        <ele>122.2</ele>
        <time>2021-04-04T12:16:46Z</time>
      </trkpt>
      <trkpt lat="48.50981" lon="3.10638">
        <ele>122.6</ele>
        <time>2021-04-04T12:16:50Z</time>
      </trkpt>
      <trkpt lat="48.50978" lon="3.10644">
        <ele>122.7</ele>
        <time>2021-04-04T12:16:55Z</time>
      </trkpt>
      <trkpt lat="48.50976" lon="3.10651">
        <ele>123.1</ele>
        <time>2021-04-04T12:17:00Z</time>
      </trkpt>
      <trkpt lat="48.50973" lon="3.10658">
        <ele>123.4</ele>
        <time>2021-04-04T12:17:04Z</time>
      </trkpt>
      <trkpt lat="48.5097" lon="3.10665">
        <ele>123.5</ele>
        <time>2021-04-04T12:17:08Z</time>
      </trkpt>
      <trkpt lat="48.50968" lon="3.10672">
        <ele>123.7</ele>
        <time>2021-04-04T12:17:12Z</time>
      </trkpt>
      <trkpt lat="48.50965" lon="3.10679">
        <ele>124.1</ele>
        <time>2021-04-04T12:17:17Z</time>
      </trkpt>
      <trkpt lat="48.50962" lon="3.10684">
        <ele>125.1</ele>
        <time>2021-04-04T12:17:26Z</time>
      </trkpt>
      <trkpt lat="48.5096" lon="3.10692">
        <ele>125.2</ele>
        <time>2021-04-04T12:17:33Z</time>
      </trkpt>
      <trkpt lat="48.50957" lon="3.10697">
        <ele>125.4</ele>
        <time>2021-04-04T12:17:37Z</time>
      </trkpt>
      <trkpt lat="48.50953" lon="3.10703">
        <ele>125.3</ele>
        <time>2021-04-04T12:17:42Z</time>
      </trkpt>
      <trkpt lat="48.5095" lon="3.10708">
        <ele>125.3</ele>
        <time>2021-04-04T12:17:47Z</time>
      </trkpt>
      <trkpt lat="48.50946" lon="3.10712">
        <ele>125.5</ele>
        <time>2021-04-04T12:17:52Z</time>
      </trkpt>
      <trkpt lat="48.50942" lon="3.10718">
        <ele>125.8</ele>
        <time>2021-04-04T12:17:57Z</time>
      </trkpt>
      <trkpt lat="48.5094" lon="3.10724">
        <ele>125.9</ele>
        <time>2021-04-04T12:18:02Z</time>
      </trkpt>
      <trkpt lat="48.50937" lon="3.1073">
        <ele>126.1</ele>
        <time>2021-04-04T12:18:06Z</time>
      </trkpt>
      <trkpt lat="48.50932" lon="3.10735">
        <ele>126.4</ele>
        <time>2021-04-04T12:18:10Z</time>
      </trkpt>
      <trkpt lat="48.50928" lon="3.1074">
        <ele>126.7</ele>
        <time>2021-04-04T12:18:14Z</time>
      </trkpt>
      <trkpt lat="48.50924" lon="3.10745">
        <ele>127.1</ele>
        <time>2021-04-04T12:18:18Z</time>
      </trkpt>
      <trkpt lat="48.50921" lon="3.10751">
        <ele>127.4</ele>
        <time>2021-04-04T12:18:22Z</time>
      </trkpt>
      <trkpt lat="48.50917" lon="3.10757">
        <ele>127.7</ele>
        <time>2021-04-04T12:18:26Z</time>
      </trkpt>
      <trkpt lat="48.50913" lon="3.10763">
        <ele>127.8</ele>
        <time>2021-04-04T12:18:30Z</time>
      </trkpt>
      <trkpt lat="48.5091" lon="3.10769">
        <ele>127.7</ele>
        <time>2021-04-04T12:18:35Z</time>
      </trkpt>
      <trkpt lat="48.50907" lon="3.10774">
        <ele>127.8</ele>
        <time>2021-04-04T12:18:39Z</time>
      </trkpt>
      <trkpt lat="48.50903" lon="3.1078">
        <ele>127.8</ele>
        <time>2021-04-04T12:18:43Z</time>
      </trkpt>
      <trkpt lat="48.509" lon="3.10785">
        <ele>127.6</ele>
        <time>2021-04-04T12:18:47Z</time>
      </trkpt>
      <trkpt lat="48.50896" lon="3.1079">
        <ele>127.3</ele>
        <time>2021-04-04T12:18:51Z</time>
      </trkpt>
      <trkpt lat="48.50893" lon="3.10797">
        <ele>126.9</ele>
        <time>2021-04-04T12:18:55Z</time>
      </trkpt>
      <trkpt lat="48.50889" lon="3.10801">
        <ele>126.4</ele>
        <time>2021-04-04T12:18:59Z</time>
      </trkpt>
      <trkpt lat="48.50885" lon="3.10806">
        <ele>125.9</ele>
        <time>2021-04-04T12:19:03Z</time>
      </trkpt>
      <trkpt lat="48.50881" lon="3.10811">
        <ele>125.4</ele>
        <time>2021-04-04T12:19:08Z</time>
      </trkpt>
      <trkpt lat="48.50878" lon="3.10815">
        <ele>124.9</ele>
        <time>2021-04-04T12:19:12Z</time>
      </trkpt>
      <trkpt lat="48.50874" lon="3.1082">
        <ele>124.4</ele>
        <time>2021-04-04T12:19:16Z</time>
      </trkpt>
      <trkpt lat="48.50871" lon="3.10824">
        <ele>124.1</ele>
        <time>2021-04-04T12:19:20Z</time>
      </trkpt>
      <trkpt lat="48.50866" lon="3.10831">
        <ele>123.8</ele>
        <time>2021-04-04T12:19:24Z</time>
      </trkpt>
      <trkpt lat="48.50863" lon="3.10835">
        <ele>123.4</ele>
        <time>2021-04-04T12:19:28Z</time>
      </trkpt>
      <trkpt lat="48.50858" lon="3.1084">
        <ele>123.1</ele>
        <time>2021-04-04T12:19:32Z</time>
      </trkpt>
      <trkpt lat="48.50855" lon="3.10845">
        <ele>122.6</ele>
        <time>2021-04-04T12:19:36Z</time>
      </trkpt>
      <trkpt lat="48.50851" lon="3.1085">
        <ele>122.1</ele>
        <time>2021-04-04T12:19:40Z</time>
      </trkpt>
      <trkpt lat="48.50847" lon="3.10857">
        <ele>121.7</ele>
        <time>2021-04-04T12:19:44Z</time>
      </trkpt>
      <trkpt lat="48.50843" lon="3.10863">
        <ele>121.5</ele>
        <time>2021-04-04T12:19:48Z</time>
      </trkpt>
      <trkpt lat="48.50839" lon="3.10869">
        <ele>121.6</ele>
        <time>2021-04-04T12:19:52Z</time>
      </trkpt>
      <trkpt lat="48.50836" lon="3.10875">
        <ele>122</ele>
        <time>2021-04-04T12:19:56Z</time>
      </trkpt>
      <trkpt lat="48.50833" lon="3.1088">
        <ele>122.3</ele>
        <time>2021-04-04T12:20:00Z</time>
      </trkpt>
      <trkpt lat="48.50829" lon="3.10885">
        <ele>122.6</ele>
        <time>2021-04-04T12:20:04Z</time>
      </trkpt>
      <trkpt lat="48.50825" lon="3.10889">
        <ele>122.9</ele>
        <time>2021-04-04T12:20:08Z</time>
      </trkpt>
      <trkpt lat="48.50822" lon="3.10894">
        <ele>123.6</ele>
        <time>2021-04-04T12:20:13Z</time>
      </trkpt>
      <trkpt lat="48.50818" lon="3.109">
        <ele>124.5</ele>
        <time>2021-04-04T12:20:19Z</time>
      </trkpt>
      <trkpt lat="48.50815" lon="3.10905">
        <ele>125.3</ele>
        <time>2021-04-04T12:20:24Z</time>
      </trkpt>
      <trkpt lat="48.50811" lon="3.10909">
        <ele>126.4</ele>
        <time>2021-04-04T12:20:36Z</time>
      </trkpt>
      <trkpt lat="48.50808" lon="3.10916">
        <ele>126.6</ele>
        <time>2021-04-04T12:20:41Z</time>
      </trkpt>
      <trkpt lat="48.50805" lon="3.10922">
        <ele>126.6</ele>
        <time>2021-04-04T12:20:45Z</time>
      </trkpt>
      <trkpt lat="48.50802" lon="3.10927">
        <ele>126.8</ele>
        <time>2021-04-04T12:20:50Z</time>
      </trkpt>
      <trkpt lat="48.50798" lon="3.10931">
        <ele>127.1</ele>
        <time>2021-04-04T12:20:55Z</time>
      </trkpt>
      <trkpt lat="48.50793" lon="3.10935">
        <ele>127.3</ele>
        <time>2021-04-04T12:20:59Z</time>
      </trkpt>
      <trkpt lat="48.5079" lon="3.1094">
        <ele>127.4</ele>
        <time>2021-04-04T12:21:03Z</time>
      </trkpt>
      <trkpt lat="48.50786" lon="3.10946">
        <ele>127.5</ele>
        <time>2021-04-04T12:21:07Z</time>
      </trkpt>
      <trkpt lat="48.50782" lon="3.10951">
        <ele>127.7</ele>
        <time>2021-04-04T12:21:11Z</time>
      </trkpt>
      <trkpt lat="48.50779" lon="3.10958">
        <ele>128</ele>
        <time>2021-04-04T12:21:15Z</time>
      </trkpt>
      <trkpt lat="48.50775" lon="3.10964">
        <ele>128</ele>
        <time>2021-04-04T12:21:19Z</time>
      </trkpt>
      <trkpt lat="48.50772" lon="3.1097">
        <ele>128.2</ele>
        <time>2021-04-04T12:21:23Z</time>
      </trkpt>
      <trkpt lat="48.50768" lon="3.10974">
        <ele>127.8</ele>
        <time>2021-04-04T12:21:36Z</time>
      </trkpt>
      <trkpt lat="48.50764" lon="3.10979">
        <ele>127.3</ele>
        <time>2021-04-04T12:21:41Z</time>
      </trkpt>
      <trkpt lat="48.5076" lon="3.10985">
        <ele>126.7</ele>
        <time>2021-04-04T12:21:45Z</time>
      </trkpt>
      <trkpt lat="48.50757" lon="3.10991">
        <ele>126.2</ele>
        <time>2021-04-04T12:21:49Z</time>
      </trkpt>
      <trkpt lat="48.50752" lon="3.10997">
        <ele>125.6</ele>
        <time>2021-04-04T12:21:54Z</time>
      </trkpt>
      <trkpt lat="48.50748" lon="3.11002">
        <ele>125.1</ele>
        <time>2021-04-04T12:21:58Z</time>
      </trkpt>
      <trkpt lat="48.50744" lon="3.11008">
        <ele>124.4</ele>
        <time>2021-04-04T12:22:02Z</time>
      </trkpt>
      <trkpt lat="48.5074" lon="3.11013">
        <ele>123.5</ele>
        <time>2021-04-04T12:22:06Z</time>
      </trkpt>
      <trkpt lat="48.50736" lon="3.11019">
        <ele>122.6</ele>
        <time>2021-04-04T12:22:10Z</time>
      </trkpt>
      <trkpt lat="48.50731" lon="3.11023">
        <ele>121.9</ele>
        <time>2021-04-04T12:22:14Z</time>
      </trkpt>
      <trkpt lat="48.50727" lon="3.11028">
        <ele>121.4</ele>
        <time>2021-04-04T12:22:18Z</time>
      </trkpt>
      <trkpt lat="48.50724" lon="3.11033">
        <ele>121</ele>
        <time>2021-04-04T12:22:22Z</time>
      </trkpt>
      <trkpt lat="48.5072" lon="3.11039">
        <ele>120.8</ele>
        <time>2021-04-04T12:22:26Z</time>
      </trkpt>
      <trkpt lat="48.50716" lon="3.11044">
        <ele>120.8</ele>
        <time>2021-04-04T12:22:30Z</time>
      </trkpt>
      <trkpt lat="48.50713" lon="3.1105">
        <ele>120.7</ele>
        <time>2021-04-04T12:22:34Z</time>
      </trkpt>
      <trkpt lat="48.50708" lon="3.11055">
        <ele>120.6</ele>
        <time>2021-04-04T12:22:39Z</time>
      </trkpt>
      <trkpt lat="48.50704" lon="3.1106">
        <ele>120.5</ele>
        <time>2021-04-04T12:22:44Z</time>
      </trkpt>
      <trkpt lat="48.50702" lon="3.11065">
        <ele>120.6</ele>
        <time>2021-04-04T12:22:48Z</time>
      </trkpt>
      <trkpt lat="48.50698" lon="3.11072">
        <ele>120.9</ele>
        <time>2021-04-04T12:22:52Z</time>
      </trkpt>
      <trkpt lat="48.50695" lon="3.11079">
        <ele>121.3</ele>
        <time>2021-04-04T12:22:56Z</time>
      </trkpt>
      <trkpt lat="48.50692" lon="3.11085">
        <ele>121.5</ele>
        <time>2021-04-04T12:23:00Z</time>
      </trkpt>
      <trkpt lat="48.50688" lon="3.1109">
        <ele>121.7</ele>
        <time>2021-04-04T12:23:04Z</time>
      </trkpt>
      <trkpt lat="48.50684" lon="3.11096">
        <ele>122</ele>
        <time>2021-04-04T12:23:08Z</time>
      </trkpt>
      <trkpt lat="48.5068" lon="3.11102">
        <ele>122.8</ele>
        <time>2021-04-04T12:23:12Z</time>
      </trkpt>
      <trkpt lat="48.50678" lon="3.11108">
        <ele>123.8</ele>
        <time>2021-04-04T12:23:16Z</time>
      </trkpt>
      <trkpt lat="48.50675" lon="3.11113">
        <ele>124.8</ele>
        <time>2021-04-04T12:23:20Z</time>
      </trkpt>
      <trkpt lat="48.50671" lon="3.11119">
        <ele>125.6</ele>
        <time>2021-04-04T12:23:24Z</time>
      </trkpt>
      <trkpt lat="48.50668" lon="3.11125">
        <ele>126.2</ele>
        <time>2021-04-04T12:23:28Z</time>
      </trkpt>
      <trkpt lat="48.50664" lon="3.1113">
        <ele>126.5</ele>
        <time>2021-04-04T12:23:32Z</time>
      </trkpt>
      <trkpt lat="48.5066" lon="3.11135">
        <ele>126.8</ele>
        <time>2021-04-04T12:23:36Z</time>
      </trkpt>
      <trkpt lat="48.50657" lon="3.1114">
        <ele>126.8</ele>
        <time>2021-04-04T12:23:41Z</time>
      </trkpt>
      <trkpt lat="48.50653" lon="3.11144">
        <ele>126.7</ele>
        <time>2021-04-04T12:23:46Z</time>
      </trkpt>
      <trkpt lat="48.50648" lon="3.11149">
        <ele>125.9</ele>
        <time>2021-04-04T12:23:51Z</time>
      </trkpt>
      <trkpt lat="48.50645" lon="3.11153">
        <ele>125.3</ele>
        <time>2021-04-04T12:23:55Z</time>
      </trkpt>
      <trkpt lat="48.50641" lon="3.11159">
        <ele>124.6</ele>
        <time>2021-04-04T12:24:00Z</time>
      </trkpt>
      <trkpt lat="48.50637" lon="3.11165">
        <ele>124.1</ele>
        <time>2021-04-04T12:24:04Z</time>
      </trkpt>
      <trkpt lat="48.50634" lon="3.11171">
        <ele>123.6</ele>
        <time>2021-04-04T12:24:08Z</time>
      </trkpt>
      <trkpt lat="48.5063" lon="3.11177">
        <ele>123.5</ele>
        <time>2021-04-04T12:24:12Z</time>
      </trkpt>
      <trkpt lat="48.50626" lon="3.11182">
        <ele>123.6</ele>
        <time>2021-04-04T12:24:16Z</time>
      </trkpt>
      <trkpt lat="48.50622" lon="3.11187">
        <ele>123.8</ele>
        <time>2021-04-04T12:24:20Z</time>
      </trkpt>
      <trkpt lat="48.50618" lon="3.11193">
        <ele>123.9</ele>
        <time>2021-04-04T12:24:25Z</time>
      </trkpt>
      <trkpt lat="48.50615" lon="3.11198">
        <ele>123.9</ele>
        <time>2021-04-04T12:24:29Z</time>
      </trkpt>
      <trkpt lat="48.50611" lon="3.11204">
        <ele>123.9</ele>
        <time>2021-04-04T12:24:33Z</time>
      </trkpt>
      <trkpt lat="48.50607" lon="3.11209">
        <ele>124.1</ele>
        <time>2021-04-04T12:24:37Z</time>
      </trkpt>
      <trkpt lat="48.50602" lon="3.11213">
        <ele>124.3</ele>
        <time>2021-04-04T12:24:41Z</time>
      </trkpt>
      <trkpt lat="48.50598" lon="3.11217">
        <ele>124.3</ele>
        <time>2021-04-04T12:24:45Z</time>
      </trkpt>
      <trkpt lat="48.50594" lon="3.11221">
        <ele>124.2</ele>
        <time>2021-04-04T12:24:49Z</time>
      </trkpt>
      <trkpt lat="48.50592" lon="3.11227">
        <ele>123.6</ele>
        <time>2021-04-04T12:24:54Z</time>
      </trkpt>
      <trkpt lat="48.50588" lon="3.1123">
        <ele>122.9</ele>
        <time>2021-04-04T12:25:00Z</time>
      </trkpt>
      <trkpt lat="48.50584" lon="3.11236">
        <ele>122.4</ele>
        <time>2021-04-04T12:25:06Z</time>
      </trkpt>
      <trkpt lat="48.50581" lon="3.11241">
        <ele>122.1</ele>
        <time>2021-04-04T12:25:11Z</time>
      </trkpt>
      <trkpt lat="48.50577" lon="3.11246">
        <ele>121.6</ele>
        <time>2021-04-04T12:25:17Z</time>
      </trkpt>
      <trkpt lat="48.50572" lon="3.1125">
        <ele>121.2</ele>
        <time>2021-04-04T12:25:21Z</time>
      </trkpt>
      <trkpt lat="48.50567" lon="3.11255">
        <ele>120.7</ele>
        <time>2021-04-04T12:25:25Z</time>
      </trkpt>
      <trkpt lat="48.50562" lon="3.11258">
        <ele>120.1</ele>
        <time>2021-04-04T12:25:30Z</time>
      </trkpt>
      <trkpt lat="48.50558" lon="3.11263">
        <ele>119.6</ele>
        <time>2021-04-04T12:25:35Z</time>
      </trkpt>
      <trkpt lat="48.50554" lon="3.11268">
        <ele>119.1</ele>
        <time>2021-04-04T12:25:39Z</time>
      </trkpt>
      <trkpt lat="48.5055" lon="3.11274">
        <ele>118.4</ele>
        <time>2021-04-04T12:25:44Z</time>
      </trkpt>
      <trkpt lat="48.50546" lon="3.11279">
        <ele>117.6</ele>
        <time>2021-04-04T12:25:49Z</time>
      </trkpt>
      <trkpt lat="48.50543" lon="3.11285">
        <ele>116.6</ele>
        <time>2021-04-04T12:25:54Z</time>
      </trkpt>
      <trkpt lat="48.50539" lon="3.1129">
        <ele>115.6</ele>
        <time>2021-04-04T12:25:59Z</time>
      </trkpt>
      <trkpt lat="48.50535" lon="3.11297">
        <ele>114.6</ele>
        <time>2021-04-04T12:26:04Z</time>
      </trkpt>
      <trkpt lat="48.50532" lon="3.11303">
        <ele>113.9</ele>
        <time>2021-04-04T12:26:08Z</time>
      </trkpt>
      <trkpt lat="48.50528" lon="3.11308">
        <ele>113.2</ele>
        <time>2021-04-04T12:26:12Z</time>
      </trkpt>
      <trkpt lat="48.50524" lon="3.11313">
        <ele>112.2</ele>
        <time>2021-04-04T12:26:18Z</time>
      </trkpt>
      <trkpt lat="48.50519" lon="3.11317">
        <ele>111.4</ele>
        <time>2021-04-04T12:26:23Z</time>
      </trkpt>
      <trkpt lat="48.50515" lon="3.11322">
        <ele>110.8</ele>
        <time>2021-04-04T12:26:27Z</time>
      </trkpt>
      <trkpt lat="48.50512" lon="3.11327">
        <ele>110.3</ele>
        <time>2021-04-04T12:26:30Z</time>
      </trkpt>
      <trkpt lat="48.50508" lon="3.11332">
        <ele>109.6</ele>
        <time>2021-04-04T12:26:34Z</time>
      </trkpt>
      <trkpt lat="48.50505" lon="3.11339">
        <ele>109.1</ele>
        <time>2021-04-04T12:26:38Z</time>
      </trkpt>
      <trkpt lat="48.50501" lon="3.11344">
        <ele>108.7</ele>
        <time>2021-04-04T12:26:42Z</time>
      </trkpt>
      <trkpt lat="48.50498" lon="3.11351">
        <ele>108.9</ele>
        <time>2021-04-04T12:26:46Z</time>
      </trkpt>
      <trkpt lat="48.50496" lon="3.11357">
        <ele>110.5</ele>
        <time>2021-04-04T12:26:58Z</time>
      </trkpt>
      <trkpt lat="48.50495" lon="3.11364">
        <ele>112.4</ele>
        <time>2021-04-04T12:27:05Z</time>
      </trkpt>
      <trkpt lat="48.50493" lon="3.11372">
        <ele>114.5</ele>
        <time>2021-04-04T12:27:10Z</time>
      </trkpt>
      <trkpt lat="48.50495" lon="3.11379">
        <ele>117.7</ele>
        <time>2021-04-04T12:27:19Z</time>
      </trkpt>
      <trkpt lat="48.5049" lon="3.11381">
        <ele>122.5</ele>
        <time>2021-04-04T12:27:35Z</time>
      </trkpt>
      <trkpt lat="48.50486" lon="3.11384">
        <ele>123.2</ele>
        <time>2021-04-04T12:27:40Z</time>
      </trkpt>
      <trkpt lat="48.50482" lon="3.11389">
        <ele>123.5</ele>
        <time>2021-04-04T12:27:44Z</time>
      </trkpt>
      <trkpt lat="48.50478" lon="3.11394">
        <ele>123.5</ele>
        <time>2021-04-04T12:27:48Z</time>
      </trkpt>
      <trkpt lat="48.50474" lon="3.11399">
        <ele>123.6</ele>
        <time>2021-04-04T12:27:52Z</time>
      </trkpt>
      <trkpt lat="48.50469" lon="3.11404">
        <ele>123.3</ele>
        <time>2021-04-04T12:27:56Z</time>
      </trkpt>
      <trkpt lat="48.50465" lon="3.11408">
        <ele>123.1</ele>
        <time>2021-04-04T12:28:00Z</time>
      </trkpt>
      <trkpt lat="48.50461" lon="3.11414">
        <ele>122.9</ele>
        <time>2021-04-04T12:28:04Z</time>
      </trkpt>
      <trkpt lat="48.50458" lon="3.11419">
        <ele>122.8</ele>
        <time>2021-04-04T12:28:07Z</time>
      </trkpt>
      <trkpt lat="48.50454" lon="3.11426">
        <ele>122.9</ele>
        <time>2021-04-04T12:28:11Z</time>
      </trkpt>
      <trkpt lat="48.50452" lon="3.11433">
        <ele>123.2</ele>
        <time>2021-04-04T12:28:15Z</time>
      </trkpt>
      <trkpt lat="48.50448" lon="3.1144">
        <ele>123.8</ele>
        <time>2021-04-04T12:28:20Z</time>
      </trkpt>
      <trkpt lat="48.50445" lon="3.11445">
        <ele>124.4</ele>
        <time>2021-04-04T12:28:24Z</time>
      </trkpt>
      <trkpt lat="48.50443" lon="3.11452">
        <ele>125.3</ele>
        <time>2021-04-04T12:28:28Z</time>
      </trkpt>
      <trkpt lat="48.50441" lon="3.11458">
        <ele>126.3</ele>
        <time>2021-04-04T12:28:32Z</time>
      </trkpt>
      <trkpt lat="48.50439" lon="3.11465">
        <ele>127.3</ele>
        <time>2021-04-04T12:28:36Z</time>
      </trkpt>
      <trkpt lat="48.50437" lon="3.11472">
        <ele>128</ele>
        <time>2021-04-04T12:28:40Z</time>
      </trkpt>
      <trkpt lat="48.50434" lon="3.11479">
        <ele>129</ele>
        <time>2021-04-04T12:28:45Z</time>
      </trkpt>
      <trkpt lat="48.50431" lon="3.11486">
        <ele>129.6</ele>
        <time>2021-04-04T12:28:49Z</time>
      </trkpt>
      <trkpt lat="48.50428" lon="3.11492">
        <ele>129.5</ele>
        <time>2021-04-04T12:28:54Z</time>
      </trkpt>
      <trkpt lat="48.50425" lon="3.11498">
        <ele>129.5</ele>
        <time>2021-04-04T12:28:59Z</time>
      </trkpt>
      <trkpt lat="48.50422" lon="3.11504">
        <ele>129.3</ele>
        <time>2021-04-04T12:29:04Z</time>
      </trkpt>
      <trkpt lat="48.50419" lon="3.1151">
        <ele>129.3</ele>
        <time>2021-04-04T12:29:09Z</time>
      </trkpt>
      <trkpt lat="48.50415" lon="3.11517">
        <ele>129.2</ele>
        <time>2021-04-04T12:29:14Z</time>
      </trkpt>
      <trkpt lat="48.50413" lon="3.11522">
        <ele>129.2</ele>
        <time>2021-04-04T12:29:18Z</time>
      </trkpt>
      <trkpt lat="48.5041" lon="3.11528">
        <ele>129.4</ele>
        <time>2021-04-04T12:29:22Z</time>
      </trkpt>
      <trkpt lat="48.50408" lon="3.11535">
        <ele>129.6</ele>
        <time>2021-04-04T12:29:26Z</time>
      </trkpt>
      <trkpt lat="48.50405" lon="3.1154">
        <ele>129.5</ele>
        <time>2021-04-04T12:29:30Z</time>
      </trkpt>
      <trkpt lat="48.50402" lon="3.11546">
        <ele>129.2</ele>
        <time>2021-04-04T12:29:34Z</time>
      </trkpt>
      <trkpt lat="48.50399" lon="3.11551">
        <ele>128.8</ele>
        <time>2021-04-04T12:29:38Z</time>
      </trkpt>
      <trkpt lat="48.50396" lon="3.11557">
        <ele>128.4</ele>
        <time>2021-04-04T12:29:43Z</time>
      </trkpt>
      <trkpt lat="48.50392" lon="3.11563">
        <ele>128</ele>
        <time>2021-04-04T12:29:48Z</time>
      </trkpt>
      <trkpt lat="48.5039" lon="3.11569">
        <ele>127.7</ele>
        <time>2021-04-04T12:29:53Z</time>
      </trkpt>
      <trkpt lat="48.50388" lon="3.11576">
        <ele>127.8</ele>
        <time>2021-04-04T12:29:58Z</time>
      </trkpt>
      <trkpt lat="48.50384" lon="3.11582">
        <ele>127.7</ele>
        <time>2021-04-04T12:30:03Z</time>
      </trkpt>
      <trkpt lat="48.50381" lon="3.11587">
        <ele>127.3</ele>
        <time>2021-04-04T12:30:08Z</time>
      </trkpt>
      <trkpt lat="48.50378" lon="3.11593">
        <ele>126.8</ele>
        <time>2021-04-04T12:30:12Z</time>
      </trkpt>
      <trkpt lat="48.50374" lon="3.11599">
        <ele>126.6</ele>
        <time>2021-04-04T12:30:16Z</time>
      </trkpt>
      <trkpt lat="48.50373" lon="3.11606">
        <ele>126.9</ele>
        <time>2021-04-04T12:30:20Z</time>
      </trkpt>
      <trkpt lat="48.50371" lon="3.11613">
        <ele>127.1</ele>
        <time>2021-04-04T12:30:24Z</time>
      </trkpt>
      <trkpt lat="48.50371" lon="3.1162">
        <ele>129.8</ele>
        <time>2021-04-04T12:30:40Z</time>
      </trkpt>
      <trkpt lat="48.50368" lon="3.11627">
        <ele>130</ele>
        <time>2021-04-04T12:30:44Z</time>
      </trkpt>
      <trkpt lat="48.50364" lon="3.11633">
        <ele>130</ele>
        <time>2021-04-04T12:30:48Z</time>
      </trkpt>
      <trkpt lat="48.5036" lon="3.11639">
        <ele>130.1</ele>
        <time>2021-04-04T12:30:52Z</time>
      </trkpt>
      <trkpt lat="48.50357" lon="3.11645">
        <ele>130.1</ele>
        <time>2021-04-04T12:30:56Z</time>
      </trkpt>
      <trkpt lat="48.50354" lon="3.11651">
        <ele>130</ele>
        <time>2021-04-04T12:31:00Z</time>
      </trkpt>
      <trkpt lat="48.5035" lon="3.11657">
        <ele>129.7</ele>
        <time>2021-04-04T12:31:04Z</time>
      </trkpt>
      <trkpt lat="48.50347" lon="3.11663">
        <ele>129.2</ele>
        <time>2021-04-04T12:31:08Z</time>
      </trkpt>
      <trkpt lat="48.50345" lon="3.1167">
        <ele>128.6</ele>
        <time>2021-04-04T12:31:13Z</time>
      </trkpt>
      <trkpt lat="48.50343" lon="3.11676">
        <ele>128.4</ele>
        <time>2021-04-04T12:31:18Z</time>
      </trkpt>
      <trkpt lat="48.5034" lon="3.11682">
        <ele>128.3</ele>
        <time>2021-04-04T12:31:22Z</time>
      </trkpt>
      <trkpt lat="48.50336" lon="3.11689">
        <ele>128.3</ele>
        <time>2021-04-04T12:31:26Z</time>
      </trkpt>
      <trkpt lat="48.50333" lon="3.11695">
        <ele>128.4</ele>
        <time>2021-04-04T12:31:30Z</time>
      </trkpt>
      <trkpt lat="48.50329" lon="3.11701">
        <ele>128.4</ele>
        <time>2021-04-04T12:31:34Z</time>
      </trkpt>
      <trkpt lat="48.50326" lon="3.11707">
        <ele>128.5</ele>
        <time>2021-04-04T12:31:38Z</time>
      </trkpt>
      <trkpt lat="48.50324" lon="3.11714">
        <ele>128.7</ele>
        <time>2021-04-04T12:31:42Z</time>
      </trkpt>
      <trkpt lat="48.50321" lon="3.1172">
        <ele>129</ele>
        <time>2021-04-04T12:31:46Z</time>
      </trkpt>
      <trkpt lat="48.50319" lon="3.11726">
        <ele>129.2</ele>
        <time>2021-04-04T12:31:50Z</time>
      </trkpt>
      <trkpt lat="48.50315" lon="3.11732">
        <ele>129.3</ele>
        <time>2021-04-04T12:31:54Z</time>
      </trkpt>
      <trkpt lat="48.50312" lon="3.11738">
        <ele>129.2</ele>
        <time>2021-04-04T12:31:58Z</time>
      </trkpt>
      <trkpt lat="48.50309" lon="3.11745">
        <ele>129</ele>
        <time>2021-04-04T12:32:02Z</time>
      </trkpt>
      <trkpt lat="48.50306" lon="3.11752">
        <ele>129.1</ele>
        <time>2021-04-04T12:32:06Z</time>
      </trkpt>
      <trkpt lat="48.50303" lon="3.11758">
        <ele>129.4</ele>
        <time>2021-04-04T12:32:10Z</time>
      </trkpt>
      <trkpt lat="48.50301" lon="3.11765">
        <ele>129.9</ele>
        <time>2021-04-04T12:32:15Z</time>
      </trkpt>
      <trkpt lat="48.50298" lon="3.11772">
        <ele>130.3</ele>
        <time>2021-04-04T12:32:20Z</time>
      </trkpt>
      <trkpt lat="48.50295" lon="3.11778">
        <ele>130.5</ele>
        <time>2021-04-04T12:32:25Z</time>
      </trkpt>
      <trkpt lat="48.50292" lon="3.11784">
        <ele>130.4</ele>
        <time>2021-04-04T12:32:29Z</time>
      </trkpt>
      <trkpt lat="48.50291" lon="3.1179">
        <ele>130.2</ele>
        <time>2021-04-04T12:32:33Z</time>
      </trkpt>
      <trkpt lat="48.50287" lon="3.11796">
        <ele>130.1</ele>
        <time>2021-04-04T12:32:37Z</time>
      </trkpt>
      <trkpt lat="48.50283" lon="3.11801">
        <ele>129.8</ele>
        <time>2021-04-04T12:32:41Z</time>
      </trkpt>
      <trkpt lat="48.50281" lon="3.11807">
        <ele>130</ele>
        <time>2021-04-04T12:32:45Z</time>
      </trkpt>
      <trkpt lat="48.50278" lon="3.11812">
        <ele>130.4</ele>
        <time>2021-04-04T12:32:49Z</time>
      </trkpt>
      <trkpt lat="48.50275" lon="3.11818">
        <ele>131</ele>
        <time>2021-04-04T12:32:53Z</time>
      </trkpt>
      <trkpt lat="48.50272" lon="3.11824">
        <ele>131.7</ele>
        <time>2021-04-04T12:32:57Z</time>
      </trkpt>
      <trkpt lat="48.5027" lon="3.11831">
        <ele>132.2</ele>
        <time>2021-04-04T12:33:01Z</time>
      </trkpt>
      <trkpt lat="48.50267" lon="3.11837">
        <ele>132.5</ele>
        <time>2021-04-04T12:33:05Z</time>
      </trkpt>
      <trkpt lat="48.50264" lon="3.11844">
        <ele>132.9</ele>
        <time>2021-04-04T12:33:09Z</time>
      </trkpt>
      <trkpt lat="48.50262" lon="3.1185">
        <ele>133.1</ele>
        <time>2021-04-04T12:33:13Z</time>
      </trkpt>
      <trkpt lat="48.5026" lon="3.11856">
        <ele>133.7</ele>
        <time>2021-04-04T12:33:17Z</time>
      </trkpt>
      <trkpt lat="48.50256" lon="3.11861">
        <ele>134.2</ele>
        <time>2021-04-04T12:33:21Z</time>
      </trkpt>
      <trkpt lat="48.50254" lon="3.11867">
        <ele>134.2</ele>
        <time>2021-04-04T12:33:25Z</time>
      </trkpt>
      <trkpt lat="48.50251" lon="3.11873">
        <ele>134</ele>
        <time>2021-04-04T12:33:30Z</time>
      </trkpt>
      <trkpt lat="48.50248" lon="3.11879">
        <ele>133.5</ele>
        <time>2021-04-04T12:33:34Z</time>
      </trkpt>
      <trkpt lat="48.50246" lon="3.11886">
        <ele>133.5</ele>
        <time>2021-04-04T12:33:39Z</time>
      </trkpt>
      <trkpt lat="48.50243" lon="3.11892">
        <ele>133.2</ele>
        <time>2021-04-04T12:33:44Z</time>
      </trkpt>
      <trkpt lat="48.5024" lon="3.11898">
        <ele>132.9</ele>
        <time>2021-04-04T12:33:48Z</time>
      </trkpt>
      <trkpt lat="48.50237" lon="3.11905">
        <ele>132.6</ele>
        <time>2021-04-04T12:33:52Z</time>
      </trkpt>
      <trkpt lat="48.50234" lon="3.11912">
        <ele>132.1</ele>
        <time>2021-04-04T12:33:56Z</time>
      </trkpt>
      <trkpt lat="48.50231" lon="3.11919">
        <ele>131.8</ele>
        <time>2021-04-04T12:34:00Z</time>
      </trkpt>
      <trkpt lat="48.50229" lon="3.11925">
        <ele>131.6</ele>
        <time>2021-04-04T12:34:04Z</time>
      </trkpt>
      <trkpt lat="48.50226" lon="3.11932">
        <ele>131.7</ele>
        <time>2021-04-04T12:34:09Z</time>
      </trkpt>
      <trkpt lat="48.50224" lon="3.11939">
        <ele>131.6</ele>
        <time>2021-04-04T12:34:13Z</time>
      </trkpt>
      <trkpt lat="48.50221" lon="3.11944">
        <ele>131.5</ele>
        <time>2021-04-04T12:34:17Z</time>
      </trkpt>
      <trkpt lat="48.50218" lon="3.1195">
        <ele>131.5</ele>
        <time>2021-04-04T12:34:21Z</time>
      </trkpt>
      <trkpt lat="48.50214" lon="3.11956">
        <ele>131.3</ele>
        <time>2021-04-04T12:34:26Z</time>
      </trkpt>
      <trkpt lat="48.50212" lon="3.11962">
        <ele>131.2</ele>
        <time>2021-04-04T12:34:30Z</time>
      </trkpt>
      <trkpt lat="48.50209" lon="3.11968">
        <ele>131.1</ele>
        <time>2021-04-04T12:34:34Z</time>
      </trkpt>
      <trkpt lat="48.50206" lon="3.11974">
        <ele>131.1</ele>
        <time>2021-04-04T12:34:38Z</time>
      </trkpt>
      <trkpt lat="48.50203" lon="3.11981">
        <ele>130.9</ele>
        <time>2021-04-04T12:34:43Z</time>
      </trkpt>
      <trkpt lat="48.50199" lon="3.11986">
        <ele>130</ele>
        <time>2021-04-04T12:34:48Z</time>
      </trkpt>
      <trkpt lat="48.50196" lon="3.11992">
        <ele>129.1</ele>
        <time>2021-04-04T12:34:52Z</time>
      </trkpt>
      <trkpt lat="48.50194" lon="3.12">
        <ele>128.2</ele>
        <time>2021-04-04T12:34:57Z</time>
      </trkpt>
      <trkpt lat="48.50191" lon="3.12005">
        <ele>127.8</ele>
        <time>2021-04-04T12:35:01Z</time>
      </trkpt>
      <trkpt lat="48.50188" lon="3.12012">
        <ele>127.5</ele>
        <time>2021-04-04T12:35:05Z</time>
      </trkpt>
      <trkpt lat="48.50186" lon="3.12018">
        <ele>127.1</ele>
        <time>2021-04-04T12:35:09Z</time>
      </trkpt>
      <trkpt lat="48.50183" lon="3.12024">
        <ele>126.6</ele>
        <time>2021-04-04T12:35:13Z</time>
      </trkpt>
      <trkpt lat="48.50179" lon="3.12029">
        <ele>126</ele>
        <time>2021-04-04T12:35:18Z</time>
      </trkpt>
      <trkpt lat="48.50176" lon="3.12035">
        <ele>125.7</ele>
        <time>2021-04-04T12:35:23Z</time>
      </trkpt>
      <trkpt lat="48.50174" lon="3.12042">
        <ele>126</ele>
        <time>2021-04-04T12:35:27Z</time>
      </trkpt>
      <trkpt lat="48.50171" lon="3.1205">
        <ele>126.7</ele>
        <time>2021-04-04T12:35:31Z</time>
      </trkpt>
      <trkpt lat="48.50168" lon="3.12057">
        <ele>127.7</ele>
        <time>2021-04-04T12:35:35Z</time>
      </trkpt>
      <trkpt lat="48.50165" lon="3.12063">
        <ele>128.6</ele>
        <time>2021-04-04T12:35:39Z</time>
      </trkpt>
      <trkpt lat="48.50162" lon="3.12068">
        <ele>129.4</ele>
        <time>2021-04-04T12:35:43Z</time>
      </trkpt>
      <trkpt lat="48.5016" lon="3.12075">
        <ele>131</ele>
        <time>2021-04-04T12:35:48Z</time>
      </trkpt>
      <trkpt lat="48.50157" lon="3.12081">
        <ele>132.3</ele>
        <time>2021-04-04T12:35:52Z</time>
      </trkpt>
      <trkpt lat="48.50154" lon="3.12087">
        <ele>133.4</ele>
        <time>2021-04-04T12:35:56Z</time>
      </trkpt>
      <trkpt lat="48.50149" lon="3.12091">
        <ele>134.5</ele>
        <time>2021-04-04T12:36:01Z</time>
      </trkpt>
      <trkpt lat="48.50146" lon="3.12096">
        <ele>135.6</ele>
        <time>2021-04-04T12:36:11Z</time>
      </trkpt>
      <trkpt lat="48.50143" lon="3.12102">
        <ele>135.9</ele>
        <time>2021-04-04T12:36:16Z</time>
      </trkpt>
      <trkpt lat="48.5014" lon="3.12108">
        <ele>135.9</ele>
        <time>2021-04-04T12:36:20Z</time>
      </trkpt>
      <trkpt lat="48.50137" lon="3.12114">
        <ele>135.7</ele>
        <time>2021-04-04T12:36:24Z</time>
      </trkpt>
      <trkpt lat="48.50133" lon="3.12119">
        <ele>135.3</ele>
        <time>2021-04-04T12:36:28Z</time>
      </trkpt>
      <trkpt lat="48.50129" lon="3.12126">
        <ele>134.7</ele>
        <time>2021-04-04T12:36:33Z</time>
      </trkpt>
      <trkpt lat="48.50126" lon="3.12131">
        <ele>134.1</ele>
        <time>2021-04-04T12:36:37Z</time>
      </trkpt>
      <trkpt lat="48.50123" lon="3.12138">
        <ele>133.7</ele>
        <time>2021-04-04T12:36:42Z</time>
      </trkpt>
      <trkpt lat="48.50121" lon="3.12144">
        <ele>133.7</ele>
        <time>2021-04-04T12:36:46Z</time>
      </trkpt>
      <trkpt lat="48.50118" lon="3.12151">
        <ele>133.8</ele>
        <time>2021-04-04T12:36:51Z</time>
      </trkpt>
      <trkpt lat="48.50115" lon="3.12156">
        <ele>133.6</ele>
        <time>2021-04-04T12:36:55Z</time>
      </trkpt>
      <trkpt lat="48.50111" lon="3.12161">
        <ele>133.6</ele>
        <time>2021-04-04T12:36:59Z</time>
      </trkpt>
      <trkpt lat="48.50108" lon="3.12168">
        <ele>133.8</ele>
        <time>2021-04-04T12:37:03Z</time>
      </trkpt>
      <trkpt lat="48.50105" lon="3.12175">
        <ele>134</ele>
        <time>2021-04-04T12:37:07Z</time>
      </trkpt>
      <trkpt lat="48.50102" lon="3.12181">
        <ele>134.2</ele>
        <time>2021-04-04T12:37:11Z</time>
      </trkpt>
      <trkpt lat="48.50099" lon="3.12187">
        <ele>134.2</ele>
        <time>2021-04-04T12:37:16Z</time>
      </trkpt>
      <trkpt lat="48.50095" lon="3.12192">
        <ele>134.1</ele>
        <time>2021-04-04T12:37:20Z</time>
      </trkpt>
      <trkpt lat="48.50092" lon="3.12197">
        <ele>134</ele>
        <time>2021-04-04T12:37:24Z</time>
      </trkpt>
      <trkpt lat="48.50089" lon="3.12203">
        <ele>133.8</ele>
        <time>2021-04-04T12:37:28Z</time>
      </trkpt>
      <trkpt lat="48.50087" lon="3.1221">
        <ele>133.7</ele>
        <time>2021-04-04T12:37:32Z</time>
      </trkpt>
      <trkpt lat="48.50085" lon="3.12217">
        <ele>133.5</ele>
        <time>2021-04-04T12:37:36Z</time>
      </trkpt>
      <trkpt lat="48.50082" lon="3.12223">
        <ele>133.1</ele>
        <time>2021-04-04T12:37:40Z</time>
      </trkpt>
      <trkpt lat="48.5008" lon="3.12229">
        <ele>132.7</ele>
        <time>2021-04-04T12:37:44Z</time>
      </trkpt>
      <trkpt lat="48.50077" lon="3.12235">
        <ele>132.4</ele>
        <time>2021-04-04T12:37:49Z</time>
      </trkpt>
      <trkpt lat="48.50073" lon="3.12242">
        <ele>132.2</ele>
        <time>2021-04-04T12:37:54Z</time>
      </trkpt>
      <trkpt lat="48.5007" lon="3.12248">
        <ele>132.2</ele>
        <time>2021-04-04T12:37:58Z</time>
      </trkpt>
      <trkpt lat="48.50067" lon="3.12253">
        <ele>132.4</ele>
        <time>2021-04-04T12:38:02Z</time>
      </trkpt>
      <trkpt lat="48.50064" lon="3.12259">
        <ele>132.6</ele>
        <time>2021-04-04T12:38:06Z</time>
      </trkpt>
      <trkpt lat="48.50061" lon="3.12266">
        <ele>132.6</ele>
        <time>2021-04-04T12:38:10Z</time>
      </trkpt>
      <trkpt lat="48.50058" lon="3.12272">
        <ele>132.7</ele>
        <time>2021-04-04T12:38:14Z</time>
      </trkpt>
      <trkpt lat="48.50056" lon="3.12278">
        <ele>132.8</ele>
        <time>2021-04-04T12:38:18Z</time>
      </trkpt>
      <trkpt lat="48.50054" lon="3.12285">
        <ele>133</ele>
        <time>2021-04-04T12:38:22Z</time>
      </trkpt>
      <trkpt lat="48.50051" lon="3.12292">
        <ele>132.5</ele>
        <time>2021-04-04T12:38:27Z</time>
      </trkpt>
      <trkpt lat="48.50048" lon="3.12299">
        <ele>132</ele>
        <time>2021-04-04T12:38:31Z</time>
      </trkpt>
      <trkpt lat="48.50046" lon="3.12306">
        <ele>131.6</ele>
        <time>2021-04-04T12:38:35Z</time>
      </trkpt>
      <trkpt lat="48.50043" lon="3.12313">
        <ele>131.2</ele>
        <time>2021-04-04T12:38:39Z</time>
      </trkpt>
      <trkpt lat="48.50041" lon="3.1232">
        <ele>131</ele>
        <time>2021-04-04T12:38:43Z</time>
      </trkpt>
      <trkpt lat="48.50039" lon="3.12327">
        <ele>131.1</ele>
        <time>2021-04-04T12:38:47Z</time>
      </trkpt>
      <trkpt lat="48.50037" lon="3.12335">
        <ele>131.3</ele>
        <time>2021-04-04T12:38:51Z</time>
      </trkpt>
      <trkpt lat="48.50036" lon="3.12342">
        <ele>131.6</ele>
        <time>2021-04-04T12:38:55Z</time>
      </trkpt>
      <trkpt lat="48.50034" lon="3.12349">
        <ele>131.8</ele>
        <time>2021-04-04T12:39:00Z</time>
      </trkpt>
      <trkpt lat="48.50032" lon="3.12356">
        <ele>131.7</ele>
        <time>2021-04-04T12:39:04Z</time>
      </trkpt>
      <trkpt lat="48.50031" lon="3.12365">
        <ele>131.6</ele>
        <time>2021-04-04T12:39:08Z</time>
      </trkpt>
      <trkpt lat="48.5003" lon="3.12372">
        <ele>131.5</ele>
        <time>2021-04-04T12:39:12Z</time>
      </trkpt>
      <trkpt lat="48.5003" lon="3.12379">
        <ele>131.3</ele>
        <time>2021-04-04T12:39:16Z</time>
      </trkpt>
      <trkpt lat="48.50028" lon="3.12386">
        <ele>131.3</ele>
        <time>2021-04-04T12:39:20Z</time>
      </trkpt>
      <trkpt lat="48.50027" lon="3.12393">
        <ele>131.2</ele>
        <time>2021-04-04T12:39:24Z</time>
      </trkpt>
      <trkpt lat="48.50026" lon="3.124">
        <ele>130.9</ele>
        <time>2021-04-04T12:39:28Z</time>
      </trkpt>
      <trkpt lat="48.50025" lon="3.12407">
        <ele>130.5</ele>
        <time>2021-04-04T12:39:32Z</time>
      </trkpt>
      <trkpt lat="48.50024" lon="3.12416">
        <ele>130.3</ele>
        <time>2021-04-04T12:39:37Z</time>
      </trkpt>
      <trkpt lat="48.50024" lon="3.12423">
        <ele>130.2</ele>
        <time>2021-04-04T12:39:42Z</time>
      </trkpt>
      <trkpt lat="48.50023" lon="3.12431">
        <ele>129.7</ele>
        <time>2021-04-04T12:39:48Z</time>
      </trkpt>
      <trkpt lat="48.50022" lon="3.12438">
        <ele>129.3</ele>
        <time>2021-04-04T12:39:52Z</time>
      </trkpt>
      <trkpt lat="48.50022" lon="3.12445">
        <ele>128.6</ele>
        <time>2021-04-04T12:39:57Z</time>
      </trkpt>
      <trkpt lat="48.50022" lon="3.12453">
        <ele>127.8</ele>
        <time>2021-04-04T12:40:02Z</time>
      </trkpt>
      <trkpt lat="48.50021" lon="3.12462">
        <ele>127.1</ele>
        <time>2021-04-04T12:40:06Z</time>
      </trkpt>
      <trkpt lat="48.5002" lon="3.1247">
        <ele>126.5</ele>
        <time>2021-04-04T12:40:10Z</time>
      </trkpt>
      <trkpt lat="48.50019" lon="3.12477">
        <ele>125.9</ele>
        <time>2021-04-04T12:40:14Z</time>
      </trkpt>
      <trkpt lat="48.50019" lon="3.12484">
        <ele>125.3</ele>
        <time>2021-04-04T12:40:18Z</time>
      </trkpt>
      <trkpt lat="48.50019" lon="3.12491">
        <ele>124.9</ele>
        <time>2021-04-04T12:40:22Z</time>
      </trkpt>
      <trkpt lat="48.5002" lon="3.12499">
        <ele>124.3</ele>
        <time>2021-04-04T12:40:27Z</time>
      </trkpt>
      <trkpt lat="48.50021" lon="3.12506">
        <ele>124.1</ele>
        <time>2021-04-04T12:40:32Z</time>
      </trkpt>
      <trkpt lat="48.50022" lon="3.12514">
        <ele>123.9</ele>
        <time>2021-04-04T12:40:37Z</time>
      </trkpt>
      <trkpt lat="48.50021" lon="3.12522">
        <ele>123.7</ele>
        <time>2021-04-04T12:40:41Z</time>
      </trkpt>
      <trkpt lat="48.50021" lon="3.12529">
        <ele>123.4</ele>
        <time>2021-04-04T12:40:45Z</time>
      </trkpt>
      <trkpt lat="48.5002" lon="3.12537">
        <ele>123.1</ele>
        <time>2021-04-04T12:40:49Z</time>
      </trkpt>
      <trkpt lat="48.5002" lon="3.12545">
        <ele>122.9</ele>
        <time>2021-04-04T12:40:53Z</time>
      </trkpt>
      <trkpt lat="48.50019" lon="3.12551">
        <ele>122.4</ele>
        <time>2021-04-04T12:40:57Z</time>
      </trkpt>
      <trkpt lat="48.50018" lon="3.12559">
        <ele>121.6</ele>
        <time>2021-04-04T12:41:02Z</time>
      </trkpt>
      <trkpt lat="48.50019" lon="3.12566">
        <ele>120.8</ele>
        <time>2021-04-04T12:41:07Z</time>
      </trkpt>
      <trkpt lat="48.50018" lon="3.12573">
        <ele>120.1</ele>
        <time>2021-04-04T12:41:11Z</time>
      </trkpt>
      <trkpt lat="48.5002" lon="3.12581">
        <ele>119.9</ele>
        <time>2021-04-04T12:41:17Z</time>
      </trkpt>
      <trkpt lat="48.50022" lon="3.12587">
        <ele>120.2</ele>
        <time>2021-04-04T12:41:23Z</time>
      </trkpt>
      <trkpt lat="48.50023" lon="3.12594">
        <ele>120.5</ele>
        <time>2021-04-04T12:41:27Z</time>
      </trkpt>
      <trkpt lat="48.50022" lon="3.12602">
        <ele>120.8</ele>
        <time>2021-04-04T12:41:31Z</time>
      </trkpt>
      <trkpt lat="48.50021" lon="3.1261">
        <ele>121.3</ele>
        <time>2021-04-04T12:41:35Z</time>
      </trkpt>
      <trkpt lat="48.5002" lon="3.12617">
        <ele>122</ele>
        <time>2021-04-04T12:41:40Z</time>
      </trkpt>
      <trkpt lat="48.5002" lon="3.12624">
        <ele>122.6</ele>
        <time>2021-04-04T12:41:44Z</time>
      </trkpt>
      <trkpt lat="48.5002" lon="3.12633">
        <ele>123.7</ele>
        <time>2021-04-04T12:41:50Z</time>
      </trkpt>
      <trkpt lat="48.50019" lon="3.12639">
        <ele>124.6</ele>
        <time>2021-04-04T12:41:54Z</time>
      </trkpt>
      <trkpt lat="48.50018" lon="3.12647">
        <ele>125.2</ele>
        <time>2021-04-04T12:41:58Z</time>
      </trkpt>
      <trkpt lat="48.50017" lon="3.12654">
        <ele>125.7</ele>
        <time>2021-04-04T12:42:02Z</time>
      </trkpt>
      <trkpt lat="48.50016" lon="3.12662">
        <ele>125.9</ele>
        <time>2021-04-04T12:42:06Z</time>
      </trkpt>
      <trkpt lat="48.50014" lon="3.1267">
        <ele>126.1</ele>
        <time>2021-04-04T12:42:10Z</time>
      </trkpt>
      <trkpt lat="48.50012" lon="3.12678">
        <ele>126.5</ele>
        <time>2021-04-04T12:42:14Z</time>
      </trkpt>
      <trkpt lat="48.50011" lon="3.12686">
        <ele>127</ele>
        <time>2021-04-04T12:42:18Z</time>
      </trkpt>
      <trkpt lat="48.5001" lon="3.12694">
        <ele>127.1</ele>
        <time>2021-04-04T12:42:22Z</time>
      </trkpt>
      <trkpt lat="48.50008" lon="3.12701">
        <ele>127.3</ele>
        <time>2021-04-04T12:42:26Z</time>
      </trkpt>
      <trkpt lat="48.50007" lon="3.12708">
        <ele>127.7</ele>
        <time>2021-04-04T12:42:30Z</time>
      </trkpt>
      <trkpt lat="48.50006" lon="3.12715">
        <ele>128.3</ele>
        <time>2021-04-04T12:42:34Z</time>
      </trkpt>
      <trkpt lat="48.50005" lon="3.12722">
        <ele>128.8</ele>
        <time>2021-04-04T12:42:38Z</time>
      </trkpt>
      <trkpt lat="48.50003" lon="3.12729">
        <ele>128.8</ele>
        <time>2021-04-04T12:42:42Z</time>
      </trkpt>
      <trkpt lat="48.50001" lon="3.12736">
        <ele>128.8</ele>
        <time>2021-04-04T12:42:47Z</time>
      </trkpt>
      <trkpt lat="48.5" lon="3.12743">
        <ele>129.3</ele>
        <time>2021-04-04T12:42:51Z</time>
      </trkpt>
      <trkpt lat="48.49998" lon="3.12751">
        <ele>129.7</ele>
        <time>2021-04-04T12:42:56Z</time>
      </trkpt>
      <trkpt lat="48.49998" lon="3.12759">
        <ele>129.9</ele>
        <time>2021-04-04T12:43:00Z</time>
      </trkpt>
      <trkpt lat="48.49998" lon="3.12767">
        <ele>129.9</ele>
        <time>2021-04-04T12:43:04Z</time>
      </trkpt>
      <trkpt lat="48.49998" lon="3.12774">
        <ele>131.6</ele>
        <time>2021-04-04T12:43:14Z</time>
      </trkpt>
      <trkpt lat="48.50002" lon="3.1278">
        <ele>132.9</ele>
        <time>2021-04-04T12:43:19Z</time>
      </trkpt>
      <trkpt lat="48.50007" lon="3.12784">
        <ele>134.2</ele>
        <time>2021-04-04T12:43:24Z</time>
      </trkpt>
      <trkpt lat="48.50011" lon="3.12784">
        <ele>135.1</ele>
        <time>2021-04-04T12:43:28Z</time>
      </trkpt>
      <trkpt lat="48.50016" lon="3.12781">
        <ele>135.8</ele>
        <time>2021-04-04T12:43:33Z</time>
      </trkpt>
      <trkpt lat="48.5002" lon="3.12778">
        <ele>136.2</ele>
        <time>2021-04-04T12:43:37Z</time>
      </trkpt>
      <trkpt lat="48.50025" lon="3.12774">
        <ele>136.9</ele>
        <time>2021-04-04T12:43:42Z</time>
      </trkpt>
      <trkpt lat="48.5003" lon="3.12769">
        <ele>137.9</ele>
        <time>2021-04-04T12:43:47Z</time>
      </trkpt>
      <trkpt lat="48.50033" lon="3.12765">
        <ele>139</ele>
        <time>2021-04-04T12:43:51Z</time>
      </trkpt>
      <trkpt lat="48.50037" lon="3.12761">
        <ele>139.9</ele>
        <time>2021-04-04T12:43:55Z</time>
      </trkpt>
      <trkpt lat="48.50042" lon="3.12758">
        <ele>140.9</ele>
        <time>2021-04-04T12:43:59Z</time>
      </trkpt>
      <trkpt lat="48.50047" lon="3.12756">
        <ele>141.2</ele>
        <time>2021-04-04T12:44:14Z</time>
      </trkpt>
      <trkpt lat="48.50051" lon="3.12753">
        <ele>141.4</ele>
        <time>2021-04-04T12:44:18Z</time>
      </trkpt>
      <trkpt lat="48.50055" lon="3.1275">
        <ele>141.8</ele>
        <time>2021-04-04T12:44:21Z</time>
      </trkpt>
      <trkpt lat="48.50059" lon="3.12746">
        <ele>142.5</ele>
        <time>2021-04-04T12:44:24Z</time>
      </trkpt>
      <trkpt lat="48.50063" lon="3.12741">
        <ele>143</ele>
        <time>2021-04-04T12:44:27Z</time>
      </trkpt>
      <trkpt lat="48.50067" lon="3.12738">
        <ele>143.6</ele>
        <time>2021-04-04T12:44:30Z</time>
      </trkpt>
      <trkpt lat="48.50072" lon="3.12734">
        <ele>144.3</ele>
        <time>2021-04-04T12:44:34Z</time>
      </trkpt>
      <trkpt lat="48.50077" lon="3.1273">
        <ele>145</ele>
        <time>2021-04-04T12:44:38Z</time>
      </trkpt>
      <trkpt lat="48.50081" lon="3.12726">
        <ele>145.6</ele>
        <time>2021-04-04T12:44:42Z</time>
      </trkpt>
      <trkpt lat="48.50087" lon="3.12724">
        <ele>146</ele>
        <time>2021-04-04T12:44:47Z</time>
      </trkpt>
      <trkpt lat="48.50091" lon="3.12722">
        <ele>146.3</ele>
        <time>2021-04-04T12:44:51Z</time>
      </trkpt>
      <trkpt lat="48.50095" lon="3.12719">
        <ele>146.5</ele>
        <time>2021-04-04T12:44:55Z</time>
      </trkpt>
      <trkpt lat="48.501" lon="3.12715">
        <ele>147</ele>
        <time>2021-04-04T12:44:59Z</time>
      </trkpt>
      <trkpt lat="48.50105" lon="3.12711">
        <ele>147.4</ele>
        <time>2021-04-04T12:45:03Z</time>
      </trkpt>
      <trkpt lat="48.50109" lon="3.12708">
        <ele>147.6</ele>
        <time>2021-04-04T12:45:07Z</time>
      </trkpt>
      <trkpt lat="48.50114" lon="3.12705">
        <ele>147.5</ele>
        <time>2021-04-04T12:45:11Z</time>
      </trkpt>
      <trkpt lat="48.50119" lon="3.12703">
        <ele>147.4</ele>
        <time>2021-04-04T12:45:15Z</time>
      </trkpt>
      <trkpt lat="48.50123" lon="3.12699">
        <ele>147.4</ele>
        <time>2021-04-04T12:45:19Z</time>
      </trkpt>
      <trkpt lat="48.50128" lon="3.12697">
        <ele>147.4</ele>
        <time>2021-04-04T12:45:24Z</time>
      </trkpt>
      <trkpt lat="48.50133" lon="3.12694">
        <ele>147.3</ele>
        <time>2021-04-04T12:45:29Z</time>
      </trkpt>
      <trkpt lat="48.50138" lon="3.12693">
        <ele>147.3</ele>
        <time>2021-04-04T12:45:33Z</time>
      </trkpt>
      <trkpt lat="48.50142" lon="3.12691">
        <ele>147.2</ele>
        <time>2021-04-04T12:45:37Z</time>
      </trkpt>
      <trkpt lat="48.50148" lon="3.12691">
        <ele>147</ele>
        <time>2021-04-04T12:45:42Z</time>
      </trkpt>
      <trkpt lat="48.50153" lon="3.12689">
        <ele>146.5</ele>
        <time>2021-04-04T12:45:47Z</time>
      </trkpt>
      <trkpt lat="48.50159" lon="3.12687">
        <ele>146</ele>
        <time>2021-04-04T12:45:52Z</time>
      </trkpt>
      <trkpt lat="48.50163" lon="3.12685">
        <ele>146</ele>
        <time>2021-04-04T12:45:56Z</time>
      </trkpt>
      <trkpt lat="48.50168" lon="3.12681">
        <ele>146.4</ele>
        <time>2021-04-04T12:46:00Z</time>
      </trkpt>
      <trkpt lat="48.50172" lon="3.12679">
        <ele>146.7</ele>
        <time>2021-04-04T12:46:04Z</time>
      </trkpt>
      <trkpt lat="48.50177" lon="3.12677">
        <ele>146.8</ele>
        <time>2021-04-04T12:46:08Z</time>
      </trkpt>
      <trkpt lat="48.50182" lon="3.12674">
        <ele>147.1</ele>
        <time>2021-04-04T12:46:12Z</time>
      </trkpt>
      <trkpt lat="48.50187" lon="3.12671">
        <ele>147.3</ele>
        <time>2021-04-04T12:46:16Z</time>
      </trkpt>
      <trkpt lat="48.50191" lon="3.12666">
        <ele>147.5</ele>
        <time>2021-04-04T12:46:20Z</time>
      </trkpt>
      <trkpt lat="48.50195" lon="3.12663">
        <ele>147.6</ele>
        <time>2021-04-04T12:46:24Z</time>
      </trkpt>
      <trkpt lat="48.502" lon="3.12659">
        <ele>147.4</ele>
        <time>2021-04-04T12:46:29Z</time>
      </trkpt>
      <trkpt lat="48.50204" lon="3.12656">
        <ele>147.3</ele>
        <time>2021-04-04T12:46:33Z</time>
      </trkpt>
      <trkpt lat="48.50209" lon="3.12653">
        <ele>147.2</ele>
        <time>2021-04-04T12:46:37Z</time>
      </trkpt>
      <trkpt lat="48.50213" lon="3.12649">
        <ele>147.5</ele>
        <time>2021-04-04T12:46:42Z</time>
      </trkpt>
      <trkpt lat="48.50218" lon="3.12647">
        <ele>147.6</ele>
        <time>2021-04-04T12:46:47Z</time>
      </trkpt>
      <trkpt lat="48.50224" lon="3.12647">
        <ele>147</ele>
        <time>2021-04-04T12:46:52Z</time>
      </trkpt>
      <trkpt lat="48.50229" lon="3.12649">
        <ele>146.6</ele>
        <time>2021-04-04T12:46:56Z</time>
      </trkpt>
      <trkpt lat="48.50234" lon="3.12652">
        <ele>146.2</ele>
        <time>2021-04-04T12:47:00Z</time>
      </trkpt>
      <trkpt lat="48.50239" lon="3.12655">
        <ele>145.8</ele>
        <time>2021-04-04T12:47:04Z</time>
      </trkpt>
      <trkpt lat="48.50242" lon="3.12661">
        <ele>145.1</ele>
        <time>2021-04-04T12:47:09Z</time>
      </trkpt>
      <trkpt lat="48.50245" lon="3.12669">
        <ele>144</ele>
        <time>2021-04-04T12:47:14Z</time>
      </trkpt>
      <trkpt lat="48.50247" lon="3.12675">
        <ele>142.8</ele>
        <time>2021-04-04T12:47:17Z</time>
      </trkpt>
      <trkpt lat="48.5025" lon="3.12681">
        <ele>141.5</ele>
        <time>2021-04-04T12:47:20Z</time>
      </trkpt>
      <trkpt lat="48.50252" lon="3.12688">
        <ele>140.2</ele>
        <time>2021-04-04T12:47:24Z</time>
      </trkpt>
      <trkpt lat="48.50255" lon="3.12695">
        <ele>139.4</ele>
        <time>2021-04-04T12:47:28Z</time>
      </trkpt>
      <trkpt lat="48.50257" lon="3.12703">
        <ele>138.8</ele>
        <time>2021-04-04T12:47:32Z</time>
      </trkpt>
      <trkpt lat="48.5026" lon="3.12709">
        <ele>138.5</ele>
        <time>2021-04-04T12:47:36Z</time>
      </trkpt>
      <trkpt lat="48.50263" lon="3.12715">
        <ele>138.1</ele>
        <time>2021-04-04T12:47:40Z</time>
      </trkpt>
      <trkpt lat="48.50265" lon="3.12721">
        <ele>138</ele>
        <time>2021-04-04T12:47:44Z</time>
      </trkpt>
      <trkpt lat="48.50267" lon="3.12729">
        <ele>138.1</ele>
        <time>2021-04-04T12:47:49Z</time>
      </trkpt>
      <trkpt lat="48.50269" lon="3.12735">
        <ele>138.2</ele>
        <time>2021-04-04T12:47:53Z</time>
      </trkpt>
      <trkpt lat="48.50272" lon="3.12742">
        <ele>138.6</ele>
        <time>2021-04-04T12:47:58Z</time>
      </trkpt>
      <trkpt lat="48.50274" lon="3.12748">
        <ele>138.9</ele>
        <time>2021-04-04T12:48:02Z</time>
      </trkpt>
      <trkpt lat="48.50277" lon="3.12754">
        <ele>139</ele>
        <time>2021-04-04T12:48:06Z</time>
      </trkpt>
      <trkpt lat="48.5028" lon="3.1276">
        <ele>139.4</ele>
        <time>2021-04-04T12:48:10Z</time>
      </trkpt>
      <trkpt lat="48.50284" lon="3.12766">
        <ele>139.9</ele>
        <time>2021-04-04T12:48:14Z</time>
      </trkpt>
      <trkpt lat="48.50287" lon="3.12772">
        <ele>140.6</ele>
        <time>2021-04-04T12:48:18Z</time>
      </trkpt>
      <trkpt lat="48.50289" lon="3.12778">
        <ele>141.1</ele>
        <time>2021-04-04T12:48:22Z</time>
      </trkpt>
      <trkpt lat="48.50292" lon="3.12784">
        <ele>141.3</ele>
        <time>2021-04-04T12:48:26Z</time>
      </trkpt>
      <trkpt lat="48.50296" lon="3.1279">
        <ele>141.6</ele>
        <time>2021-04-04T12:48:30Z</time>
      </trkpt>
      <trkpt lat="48.50298" lon="3.12797">
        <ele>141.4</ele>
        <time>2021-04-04T12:48:34Z</time>
      </trkpt>
      <trkpt lat="48.50298" lon="3.12804">
        <ele>138.5</ele>
        <time>2021-04-04T12:48:43Z</time>
      </trkpt>
      <trkpt lat="48.50299" lon="3.1281">
        <ele>137.8</ele>
        <time>2021-04-04T12:48:48Z</time>
      </trkpt>
      <trkpt lat="48.50302" lon="3.12817">
        <ele>137.4</ele>
        <time>2021-04-04T12:48:53Z</time>
      </trkpt>
      <trkpt lat="48.50305" lon="3.12822">
        <ele>137</ele>
        <time>2021-04-04T12:48:57Z</time>
      </trkpt>
      <trkpt lat="48.50308" lon="3.12828">
        <ele>136.6</ele>
        <time>2021-04-04T12:49:02Z</time>
      </trkpt>
      <trkpt lat="48.50311" lon="3.12835">
        <ele>136.9</ele>
        <time>2021-04-04T12:49:08Z</time>
      </trkpt>
      <trkpt lat="48.50313" lon="3.12841">
        <ele>137.5</ele>
        <time>2021-04-04T12:49:13Z</time>
      </trkpt>
      <trkpt lat="48.50317" lon="3.12848">
        <ele>138.6</ele>
        <time>2021-04-04T12:49:18Z</time>
      </trkpt>
      <trkpt lat="48.5032" lon="3.12854">
        <ele>139.4</ele>
        <time>2021-04-04T12:49:22Z</time>
      </trkpt>
      <trkpt lat="48.50324" lon="3.12858">
        <ele>140.1</ele>
        <time>2021-04-04T12:49:26Z</time>
      </trkpt>
      <trkpt lat="48.50328" lon="3.12864">
        <ele>140.7</ele>
        <time>2021-04-04T12:49:30Z</time>
      </trkpt>
      <trkpt lat="48.50331" lon="3.12868">
        <ele>140.9</ele>
        <time>2021-04-04T12:49:35Z</time>
      </trkpt>
      <trkpt lat="48.50334" lon="3.12874">
        <ele>140.9</ele>
        <time>2021-04-04T12:49:42Z</time>
      </trkpt>
      <trkpt lat="48.50338" lon="3.12879">
        <ele>141.1</ele>
        <time>2021-04-04T12:49:47Z</time>
      </trkpt>
      <trkpt lat="48.50342" lon="3.12883">
        <ele>141.4</ele>
        <time>2021-04-04T12:49:51Z</time>
      </trkpt>
      <trkpt lat="48.50345" lon="3.12888">
        <ele>141.9</ele>
        <time>2021-04-04T12:49:55Z</time>
      </trkpt>
      <trkpt lat="48.50349" lon="3.12893">
        <ele>142.8</ele>
        <time>2021-04-04T12:50:00Z</time>
      </trkpt>
      <trkpt lat="48.50353" lon="3.12898">
        <ele>143.4</ele>
        <time>2021-04-04T12:50:04Z</time>
      </trkpt>
      <trkpt lat="48.50356" lon="3.12904">
        <ele>144</ele>
        <time>2021-04-04T12:50:08Z</time>
      </trkpt>
      <trkpt lat="48.50358" lon="3.1291">
        <ele>144.4</ele>
        <time>2021-04-04T12:50:12Z</time>
      </trkpt>
      <trkpt lat="48.5036" lon="3.12917">
        <ele>144.6</ele>
        <time>2021-04-04T12:50:16Z</time>
      </trkpt>
      <trkpt lat="48.50363" lon="3.12924">
        <ele>144.4</ele>
        <time>2021-04-04T12:50:21Z</time>
      </trkpt>
      <trkpt lat="48.50363" lon="3.12931">
        <ele>143.7</ele>
        <time>2021-04-04T12:50:25Z</time>
      </trkpt>
      <trkpt lat="48.50364" lon="3.12938">
        <ele>142.9</ele>
        <time>2021-04-04T12:50:29Z</time>
      </trkpt>
      <trkpt lat="48.50364" lon="3.12945">
        <ele>142</ele>
        <time>2021-04-04T12:50:33Z</time>
      </trkpt>
      <trkpt lat="48.50365" lon="3.12952">
        <ele>141.1</ele>
        <time>2021-04-04T12:50:37Z</time>
      </trkpt>
      <trkpt lat="48.50365" lon="3.12959">
        <ele>140.7</ele>
        <time>2021-04-04T12:50:41Z</time>
      </trkpt>
      <trkpt lat="48.50365" lon="3.12966">
        <ele>140.7</ele>
        <time>2021-04-04T12:50:45Z</time>
      </trkpt>
      <trkpt lat="48.50367" lon="3.12973">
        <ele>141.1</ele>
        <time>2021-04-04T12:50:49Z</time>
      </trkpt>
      <trkpt lat="48.50369" lon="3.1298">
        <ele>141.7</ele>
        <time>2021-04-04T12:50:53Z</time>
      </trkpt>
      <trkpt lat="48.50372" lon="3.12986">
        <ele>142.5</ele>
        <time>2021-04-04T12:50:57Z</time>
      </trkpt>
      <trkpt lat="48.50373" lon="3.12993">
        <ele>143.3</ele>
        <time>2021-04-04T12:51:01Z</time>
      </trkpt>
      <trkpt lat="48.50375" lon="3.13001">
        <ele>144.1</ele>
        <time>2021-04-04T12:51:06Z</time>
      </trkpt>
      <trkpt lat="48.50377" lon="3.13008">
        <ele>144.5</ele>
        <time>2021-04-04T12:51:11Z</time>
      </trkpt>
      <trkpt lat="48.50378" lon="3.13015">
        <ele>144.6</ele>
        <time>2021-04-04T12:51:15Z</time>
      </trkpt>
      <trkpt lat="48.5038" lon="3.13021">
        <ele>144.3</ele>
        <time>2021-04-04T12:51:19Z</time>
      </trkpt>
      <trkpt lat="48.50383" lon="3.13026">
        <ele>144</ele>
        <time>2021-04-04T12:51:23Z</time>
      </trkpt>
      <trkpt lat="48.50386" lon="3.13033">
        <ele>143.9</ele>
        <time>2021-04-04T12:51:28Z</time>
      </trkpt>
      <trkpt lat="48.50388" lon="3.13039">
        <ele>143.8</ele>
        <time>2021-04-04T12:51:32Z</time>
      </trkpt>
      <trkpt lat="48.50391" lon="3.13046">
        <ele>144</ele>
        <time>2021-04-04T12:51:36Z</time>
      </trkpt>
      <trkpt lat="48.50393" lon="3.13052">
        <ele>144.5</ele>
        <time>2021-04-04T12:51:40Z</time>
      </trkpt>
      <trkpt lat="48.50394" lon="3.13061">
        <ele>145.2</ele>
        <time>2021-04-04T12:51:45Z</time>
      </trkpt>
      <trkpt lat="48.50395" lon="3.13068">
        <ele>144.8</ele>
        <time>2021-04-04T12:51:51Z</time>
      </trkpt>
      <trkpt lat="48.50395" lon="3.13075">
        <ele>142.9</ele>
        <time>2021-04-04T12:51:59Z</time>
      </trkpt>
      <trkpt lat="48.50397" lon="3.13082">
        <ele>142.2</ele>
        <time>2021-04-04T12:52:04Z</time>
      </trkpt>
      <trkpt lat="48.50398" lon="3.13088">
        <ele>142.8</ele>
        <time>2021-04-04T12:52:12Z</time>
      </trkpt>
      <trkpt lat="48.504" lon="3.13095">
        <ele>144</ele>
        <time>2021-04-04T12:52:27Z</time>
      </trkpt>
      <trkpt lat="48.50401" lon="3.13102">
        <ele>144.5</ele>
        <time>2021-04-04T12:52:32Z</time>
      </trkpt>
      <trkpt lat="48.50403" lon="3.13108">
        <ele>144.6</ele>
        <time>2021-04-04T12:52:37Z</time>
      </trkpt>
      <trkpt lat="48.50405" lon="3.13114">
        <ele>144.6</ele>
        <time>2021-04-04T12:52:42Z</time>
      </trkpt>
      <trkpt lat="48.50407" lon="3.13122">
        <ele>144.1</ele>
        <time>2021-04-04T12:52:48Z</time>
      </trkpt>
      <trkpt lat="48.50409" lon="3.13128">
        <ele>143.5</ele>
        <time>2021-04-04T12:52:52Z</time>
      </trkpt>
      <trkpt lat="48.5041" lon="3.13135">
        <ele>142.1</ele>
        <time>2021-04-04T12:52:57Z</time>
      </trkpt>
      <trkpt lat="48.50412" lon="3.13143">
        <ele>139.9</ele>
        <time>2021-04-04T12:53:02Z</time>
      </trkpt>
      <trkpt lat="48.50414" lon="3.13151">
        <ele>138.5</ele>
        <time>2021-04-04T12:53:06Z</time>
      </trkpt>
      <trkpt lat="48.50416" lon="3.13158">
        <ele>137.7</ele>
        <time>2021-04-04T12:53:11Z</time>
      </trkpt>
      <trkpt lat="48.50417" lon="3.13165">
        <ele>137.2</ele>
        <time>2021-04-04T12:53:16Z</time>
      </trkpt>
      <trkpt lat="48.50418" lon="3.13172">
        <ele>136.4</ele>
        <time>2021-04-04T12:53:20Z</time>
      </trkpt>
      <trkpt lat="48.50418" lon="3.1318">
        <ele>135.2</ele>
        <time>2021-04-04T12:53:25Z</time>
      </trkpt>
      <trkpt lat="48.50419" lon="3.13187">
        <ele>133.9</ele>
        <time>2021-04-04T12:53:29Z</time>
      </trkpt>
      <trkpt lat="48.50419" lon="3.13194">
        <ele>132</ele>
        <time>2021-04-04T12:53:34Z</time>
      </trkpt>
      <trkpt lat="48.5042" lon="3.13202">
        <ele>130.3</ele>
        <time>2021-04-04T12:53:39Z</time>
      </trkpt>
      <trkpt lat="48.5042" lon="3.13209">
        <ele>129.1</ele>
        <time>2021-04-04T12:53:43Z</time>
      </trkpt>
      <trkpt lat="48.50421" lon="3.13217">
        <ele>127.9</ele>
        <time>2021-04-04T12:53:48Z</time>
      </trkpt>
      <trkpt lat="48.50422" lon="3.13223">
        <ele>126.8</ele>
        <time>2021-04-04T12:53:52Z</time>
      </trkpt>
      <trkpt lat="48.50423" lon="3.13231">
        <ele>125.6</ele>
        <time>2021-04-04T12:53:57Z</time>
      </trkpt>
      <trkpt lat="48.50423" lon="3.13238">
        <ele>124.5</ele>
        <time>2021-04-04T12:54:02Z</time>
      </trkpt>
      <trkpt lat="48.50424" lon="3.13246">
        <ele>123.6</ele>
        <time>2021-04-04T12:54:07Z</time>
      </trkpt>
      <trkpt lat="48.50425" lon="3.13254">
        <ele>122.7</ele>
        <time>2021-04-04T12:54:12Z</time>
      </trkpt>
      <trkpt lat="48.50425" lon="3.13261">
        <ele>121.9</ele>
        <time>2021-04-04T12:54:17Z</time>
      </trkpt>
      <trkpt lat="48.50425" lon="3.13269">
        <ele>121.3</ele>
        <time>2021-04-04T12:54:22Z</time>
      </trkpt>
      <trkpt lat="48.50425" lon="3.13276">
        <ele>120.4</ele>
        <time>2021-04-04T12:54:27Z</time>
      </trkpt>
      <trkpt lat="48.50425" lon="3.13284">
        <ele>118.6</ele>
        <time>2021-04-04T12:54:34Z</time>
      </trkpt>
      <trkpt lat="48.50426" lon="3.13291">
        <ele>116.9</ele>
        <time>2021-04-04T12:54:41Z</time>
      </trkpt>
      <trkpt lat="48.50429" lon="3.13299">
        <ele>115.7</ele>
        <time>2021-04-04T12:54:46Z</time>
      </trkpt>
      <trkpt lat="48.5043" lon="3.13307">
        <ele>114.8</ele>
        <time>2021-04-04T12:54:50Z</time>
      </trkpt>
      <trkpt lat="48.50432" lon="3.13314">
        <ele>114.6</ele>
        <time>2021-04-04T12:54:54Z</time>
      </trkpt>
      <trkpt lat="48.50435" lon="3.13321">
        <ele>114.5</ele>
        <time>2021-04-04T12:54:58Z</time>
      </trkpt>
      <trkpt lat="48.50437" lon="3.13328">
        <ele>114</ele>
        <time>2021-04-04T12:55:03Z</time>
      </trkpt>
      <trkpt lat="48.50439" lon="3.13334">
        <ele>113.1</ele>
        <time>2021-04-04T12:55:08Z</time>
      </trkpt>
      <trkpt lat="48.5044" lon="3.13341">
        <ele>112.3</ele>
        <time>2021-04-04T12:55:12Z</time>
      </trkpt>
      <trkpt lat="48.50442" lon="3.13348">
        <ele>111.7</ele>
        <time>2021-04-04T12:55:16Z</time>
      </trkpt>
      <trkpt lat="48.50444" lon="3.13357">
        <ele>111.1</ele>
        <time>2021-04-04T12:55:20Z</time>
      </trkpt>
      <trkpt lat="48.50445" lon="3.13363">
        <ele>111</ele>
        <time>2021-04-04T12:55:23Z</time>
      </trkpt>
      <trkpt lat="48.50447" lon="3.1337">
        <ele>111.5</ele>
        <time>2021-04-04T12:55:26Z</time>
      </trkpt>
      <trkpt lat="48.50449" lon="3.13376">
        <ele>112.5</ele>
        <time>2021-04-04T12:55:29Z</time>
      </trkpt>
      <trkpt lat="48.50451" lon="3.13382">
        <ele>113.7</ele>
        <time>2021-04-04T12:55:32Z</time>
      </trkpt>
      <trkpt lat="48.50454" lon="3.13387">
        <ele>115.2</ele>
        <time>2021-04-04T12:55:35Z</time>
      </trkpt>
      <trkpt lat="48.50457" lon="3.13395">
        <ele>117.5</ele>
        <time>2021-04-04T12:55:39Z</time>
      </trkpt>
      <trkpt lat="48.50459" lon="3.134">
        <ele>119</ele>
        <time>2021-04-04T12:55:42Z</time>
      </trkpt>
      <trkpt lat="48.50462" lon="3.13408">
        <ele>120.9</ele>
        <time>2021-04-04T12:55:46Z</time>
      </trkpt>
      <trkpt lat="48.50465" lon="3.13415">
        <ele>122.9</ele>
        <time>2021-04-04T12:55:50Z</time>
      </trkpt>
      <trkpt lat="48.50468" lon="3.13422">
        <ele>124.9</ele>
        <time>2021-04-04T12:55:54Z</time>
      </trkpt>
      <trkpt lat="48.50472" lon="3.13428">
        <ele>128.1</ele>
        <time>2021-04-04T12:55:59Z</time>
      </trkpt>
      <trkpt lat="48.50475" lon="3.13433">
        <ele>130.2</ele>
        <time>2021-04-04T12:56:03Z</time>
      </trkpt>
      <trkpt lat="48.50477" lon="3.13439">
        <ele>131.8</ele>
        <time>2021-04-04T12:56:07Z</time>
      </trkpt>
      <trkpt lat="48.50479" lon="3.13445">
        <ele>133.2</ele>
        <time>2021-04-04T12:56:11Z</time>
      </trkpt>
      <trkpt lat="48.50482" lon="3.13453">
        <ele>134.4</ele>
        <time>2021-04-04T12:56:16Z</time>
      </trkpt>
      <trkpt lat="48.50484" lon="3.13459">
        <ele>135.2</ele>
        <time>2021-04-04T12:56:20Z</time>
      </trkpt>
      <trkpt lat="48.50487" lon="3.13465">
        <ele>136</ele>
        <time>2021-04-04T12:56:24Z</time>
      </trkpt>
      <trkpt lat="48.5049" lon="3.13471">
        <ele>136.7</ele>
        <time>2021-04-04T12:56:29Z</time>
      </trkpt>
      <trkpt lat="48.50492" lon="3.13478">
        <ele>137.2</ele>
        <time>2021-04-04T12:56:34Z</time>
      </trkpt>
      <trkpt lat="48.50495" lon="3.13484">
        <ele>137.6</ele>
        <time>2021-04-04T12:56:38Z</time>
      </trkpt>
      <trkpt lat="48.50498" lon="3.13491">
        <ele>138.2</ele>
        <time>2021-04-04T12:56:42Z</time>
      </trkpt>
      <trkpt lat="48.50501" lon="3.13497">
        <ele>138.9</ele>
        <time>2021-04-04T12:56:46Z</time>
      </trkpt>
      <trkpt lat="48.50504" lon="3.13503">
        <ele>139.3</ele>
        <time>2021-04-04T12:56:50Z</time>
      </trkpt>
      <trkpt lat="48.50507" lon="3.13509">
        <ele>139.6</ele>
        <time>2021-04-04T12:56:54Z</time>
      </trkpt>
      <trkpt lat="48.5051" lon="3.13515">
        <ele>140.1</ele>
        <time>2021-04-04T12:56:58Z</time>
      </trkpt>
      <trkpt lat="48.50513" lon="3.13522">
        <ele>140.6</ele>
        <time>2021-04-04T12:57:03Z</time>
      </trkpt>
      <trkpt lat="48.50515" lon="3.13528">
        <ele>141.1</ele>
        <time>2021-04-04T12:57:07Z</time>
      </trkpt>
      <trkpt lat="48.50517" lon="3.13534">
        <ele>141</ele>
        <time>2021-04-04T12:57:11Z</time>
      </trkpt>
      <trkpt lat="48.5052" lon="3.13541">
        <ele>141.1</ele>
        <time>2021-04-04T12:57:16Z</time>
      </trkpt>
      <trkpt lat="48.50523" lon="3.13548">
        <ele>141.2</ele>
        <time>2021-04-04T12:57:21Z</time>
      </trkpt>
      <trkpt lat="48.50527" lon="3.13554">
        <ele>141.2</ele>
        <time>2021-04-04T12:57:26Z</time>
      </trkpt>
      <trkpt lat="48.5053" lon="3.1356">
        <ele>141</ele>
        <time>2021-04-04T12:57:30Z</time>
      </trkpt>
      <trkpt lat="48.50533" lon="3.13565">
        <ele>140.8</ele>
        <time>2021-04-04T12:57:34Z</time>
      </trkpt>
      <trkpt lat="48.50535" lon="3.13572">
        <ele>140.7</ele>
        <time>2021-04-04T12:57:38Z</time>
      </trkpt>
      <trkpt lat="48.50538" lon="3.13577">
        <ele>140.5</ele>
        <time>2021-04-04T12:57:42Z</time>
      </trkpt>
      <trkpt lat="48.5054" lon="3.13583">
        <ele>140.3</ele>
        <time>2021-04-04T12:57:46Z</time>
      </trkpt>
      <trkpt lat="48.50543" lon="3.1359">
        <ele>140.1</ele>
        <time>2021-04-04T12:57:51Z</time>
      </trkpt>
      <trkpt lat="48.50545" lon="3.13597">
        <ele>139.8</ele>
        <time>2021-04-04T12:57:56Z</time>
      </trkpt>
      <trkpt lat="48.50547" lon="3.13604">
        <ele>139</ele>
        <time>2021-04-04T12:58:01Z</time>
      </trkpt>
      <trkpt lat="48.5055" lon="3.13611">
        <ele>138.3</ele>
        <time>2021-04-04T12:58:06Z</time>
      </trkpt>
      <trkpt lat="48.50553" lon="3.13617">
        <ele>138.3</ele>
        <time>2021-04-04T12:58:10Z</time>
      </trkpt>
      <trkpt lat="48.50555" lon="3.13625">
        <ele>138.3</ele>
        <time>2021-04-04T12:58:15Z</time>
      </trkpt>
      <trkpt lat="48.50558" lon="3.13632">
        <ele>138.5</ele>
        <time>2021-04-04T12:58:19Z</time>
      </trkpt>
      <trkpt lat="48.50561" lon="3.13638">
        <ele>138.7</ele>
        <time>2021-04-04T12:58:23Z</time>
      </trkpt>
      <trkpt lat="48.50564" lon="3.13644">
        <ele>139</ele>
        <time>2021-04-04T12:58:27Z</time>
      </trkpt>
      <trkpt lat="48.50565" lon="3.13651">
        <ele>139.2</ele>
        <time>2021-04-04T12:58:31Z</time>
      </trkpt>
      <trkpt lat="48.50567" lon="3.13657">
        <ele>139.1</ele>
        <time>2021-04-04T12:58:35Z</time>
      </trkpt>
      <trkpt lat="48.5057" lon="3.13664">
        <ele>139</ele>
        <time>2021-04-04T12:58:40Z</time>
      </trkpt>
      <trkpt lat="48.50572" lon="3.1367">
        <ele>139.4</ele>
        <time>2021-04-04T12:58:44Z</time>
      </trkpt>
      <trkpt lat="48.50574" lon="3.13676">
        <ele>139.7</ele>
        <time>2021-04-04T12:58:48Z</time>
      </trkpt>
      <trkpt lat="48.50576" lon="3.13683">
        <ele>139.9</ele>
        <time>2021-04-04T12:58:52Z</time>
      </trkpt>
      <trkpt lat="48.50578" lon="3.13689">
        <ele>140.1</ele>
        <time>2021-04-04T12:58:57Z</time>
      </trkpt>
      <trkpt lat="48.50581" lon="3.13696">
        <ele>139.9</ele>
        <time>2021-04-04T12:59:02Z</time>
      </trkpt>
      <trkpt lat="48.50583" lon="3.13703">
        <ele>139.6</ele>
        <time>2021-04-04T12:59:06Z</time>
      </trkpt>
      <trkpt lat="48.50584" lon="3.13709">
        <ele>139</ele>
        <time>2021-04-04T12:59:10Z</time>
      </trkpt>
      <trkpt lat="48.50586" lon="3.13717">
        <ele>138.4</ele>
        <time>2021-04-04T12:59:14Z</time>
      </trkpt>
      <trkpt lat="48.50588" lon="3.13724">
        <ele>137.8</ele>
        <time>2021-04-04T12:59:18Z</time>
      </trkpt>
      <trkpt lat="48.50591" lon="3.13731">
        <ele>137.5</ele>
        <time>2021-04-04T12:59:22Z</time>
      </trkpt>
      <trkpt lat="48.50592" lon="3.13738">
        <ele>137.6</ele>
        <time>2021-04-04T12:59:27Z</time>
      </trkpt>
      <trkpt lat="48.50594" lon="3.13746">
        <ele>137.7</ele>
        <time>2021-04-04T12:59:32Z</time>
      </trkpt>
      <trkpt lat="48.50597" lon="3.13752">
        <ele>138.3</ele>
        <time>2021-04-04T12:59:37Z</time>
      </trkpt>
      <trkpt lat="48.50599" lon="3.1376">
        <ele>138.8</ele>
        <time>2021-04-04T12:59:42Z</time>
      </trkpt>
      <trkpt lat="48.50601" lon="3.13767">
        <ele>138.5</ele>
        <time>2021-04-04T12:59:46Z</time>
      </trkpt>
      <trkpt lat="48.50602" lon="3.13774">
        <ele>138.1</ele>
        <time>2021-04-04T12:59:50Z</time>
      </trkpt>
      <trkpt lat="48.50604" lon="3.13782">
        <ele>137.8</ele>
        <time>2021-04-04T12:59:55Z</time>
      </trkpt>
      <trkpt lat="48.50605" lon="3.13789">
        <ele>137.7</ele>
        <time>2021-04-04T13:00:00Z</time>
      </trkpt>
      <trkpt lat="48.50607" lon="3.13796">
        <ele>138</ele>
        <time>2021-04-04T13:00:04Z</time>
      </trkpt>
      <trkpt lat="48.50608" lon="3.13803">
        <ele>138.7</ele>
        <time>2021-04-04T13:00:09Z</time>
      </trkpt>
      <trkpt lat="48.50611" lon="3.13809">
        <ele>140</ele>
        <time>2021-04-04T13:00:15Z</time>
      </trkpt>
      <trkpt lat="48.50614" lon="3.13815">
        <ele>141.3</ele>
        <time>2021-04-04T13:00:19Z</time>
      </trkpt>
      <trkpt lat="48.50618" lon="3.13819">
        <ele>145.5</ele>
        <time>2021-04-04T13:00:34Z</time>
      </trkpt>
      <trkpt lat="48.50619" lon="3.13827">
        <ele>146</ele>
        <time>2021-04-04T13:00:39Z</time>
      </trkpt>
      <trkpt lat="48.50621" lon="3.13834">
        <ele>146.2</ele>
        <time>2021-04-04T13:00:43Z</time>
      </trkpt>
      <trkpt lat="48.50622" lon="3.13841">
        <ele>146</ele>
        <time>2021-04-04T13:00:48Z</time>
      </trkpt>
      <trkpt lat="48.50624" lon="3.13848">
        <ele>145.7</ele>
        <time>2021-04-04T13:00:54Z</time>
      </trkpt>
      <trkpt lat="48.50627" lon="3.13854">
        <ele>145.5</ele>
        <time>2021-04-04T13:00:59Z</time>
      </trkpt>
      <trkpt lat="48.50631" lon="3.13856">
        <ele>145</ele>
        <time>2021-04-04T13:01:25Z</time>
      </trkpt>
      <trkpt lat="48.50636" lon="3.13856">
        <ele>144.6</ele>
        <time>2021-04-04T13:01:32Z</time>
      </trkpt>
      <trkpt lat="48.50641" lon="3.13854">
        <ele>144.4</ele>
        <time>2021-04-04T13:01:38Z</time>
      </trkpt>
      <trkpt lat="48.50647" lon="3.13852">
        <ele>144</ele>
        <time>2021-04-04T13:01:42Z</time>
      </trkpt>
      <trkpt lat="48.50652" lon="3.1385">
        <ele>143.2</ele>
        <time>2021-04-04T13:01:46Z</time>
      </trkpt>
      <trkpt lat="48.50657" lon="3.13847">
        <ele>141.9</ele>
        <time>2021-04-04T13:01:51Z</time>
      </trkpt>
      <trkpt lat="48.50662" lon="3.13844">
        <ele>140.6</ele>
        <time>2021-04-04T13:01:56Z</time>
      </trkpt>
      <trkpt lat="48.50665" lon="3.1384">
        <ele>140</ele>
        <time>2021-04-04T13:02:00Z</time>
      </trkpt>
      <trkpt lat="48.5067" lon="3.13837">
        <ele>139.3</ele>
        <time>2021-04-04T13:02:05Z</time>
      </trkpt>
      <trkpt lat="48.50675" lon="3.13834">
        <ele>138.5</ele>
        <time>2021-04-04T13:02:11Z</time>
      </trkpt>
      <trkpt lat="48.50679" lon="3.13831">
        <ele>138.3</ele>
        <time>2021-04-04T13:02:16Z</time>
      </trkpt>
      <trkpt lat="48.50683" lon="3.13828">
        <ele>138.2</ele>
        <time>2021-04-04T13:02:20Z</time>
      </trkpt>
      <trkpt lat="48.50689" lon="3.13825">
        <ele>138.4</ele>
        <time>2021-04-04T13:02:24Z</time>
      </trkpt>
      <trkpt lat="48.50694" lon="3.13825">
        <ele>139</ele>
        <time>2021-04-04T13:02:28Z</time>
      </trkpt>
      <trkpt lat="48.50699" lon="3.13824">
        <ele>139.5</ele>
        <time>2021-04-04T13:02:31Z</time>
      </trkpt>
      <trkpt lat="48.50704" lon="3.13824">
        <ele>140.1</ele>
        <time>2021-04-04T13:02:35Z</time>
      </trkpt>
      <trkpt lat="48.5071" lon="3.13823">
        <ele>140.7</ele>
        <time>2021-04-04T13:02:40Z</time>
      </trkpt>
      <trkpt lat="48.50714" lon="3.13821">
        <ele>141.1</ele>
        <time>2021-04-04T13:02:44Z</time>
      </trkpt>
      <trkpt lat="48.50719" lon="3.1382">
        <ele>141.2</ele>
        <time>2021-04-04T13:02:48Z</time>
      </trkpt>
      <trkpt lat="48.50724" lon="3.1382">
        <ele>141.3</ele>
        <time>2021-04-04T13:02:52Z</time>
      </trkpt>
      <trkpt lat="48.50729" lon="3.13819">
        <ele>141.3</ele>
        <time>2021-04-04T13:02:56Z</time>
      </trkpt>
      <trkpt lat="48.50734" lon="3.13818">
        <ele>141.6</ele>
        <time>2021-04-04T13:03:00Z</time>
      </trkpt>
      <trkpt lat="48.50739" lon="3.13816">
        <ele>141.8</ele>
        <time>2021-04-04T13:03:04Z</time>
      </trkpt>
      <trkpt lat="48.50744" lon="3.13815">
        <ele>141.9</ele>
        <time>2021-04-04T13:03:08Z</time>
      </trkpt>
      <trkpt lat="48.50749" lon="3.13814">
        <ele>142.1</ele>
        <time>2021-04-04T13:03:13Z</time>
      </trkpt>
      <trkpt lat="48.50754" lon="3.13813">
        <ele>142.5</ele>
        <time>2021-04-04T13:03:18Z</time>
      </trkpt>
      <trkpt lat="48.50759" lon="3.13812">
        <ele>142.8</ele>
        <time>2021-04-04T13:03:22Z</time>
      </trkpt>
      <trkpt lat="48.50764" lon="3.13811">
        <ele>143.2</ele>
        <time>2021-04-04T13:03:27Z</time>
      </trkpt>
      <trkpt lat="48.5077" lon="3.1381">
        <ele>143.4</ele>
        <time>2021-04-04T13:03:31Z</time>
      </trkpt>
      <trkpt lat="48.50775" lon="3.13809">
        <ele>143.5</ele>
        <time>2021-04-04T13:03:35Z</time>
      </trkpt>
      <trkpt lat="48.50779" lon="3.1381">
        <ele>143.5</ele>
        <time>2021-04-04T13:03:39Z</time>
      </trkpt>
      <trkpt lat="48.50785" lon="3.13808">
        <ele>143.3</ele>
        <time>2021-04-04T13:03:44Z</time>
      </trkpt>
      <trkpt lat="48.5079" lon="3.13808">
        <ele>142.9</ele>
        <time>2021-04-04T13:03:49Z</time>
      </trkpt>
      <trkpt lat="48.50794" lon="3.13808">
        <ele>142.5</ele>
        <time>2021-04-04T13:03:53Z</time>
      </trkpt>
      <trkpt lat="48.50799" lon="3.13808">
        <ele>142.4</ele>
        <time>2021-04-04T13:03:57Z</time>
      </trkpt>
      <trkpt lat="48.50805" lon="3.13807">
        <ele>142.8</ele>
        <time>2021-04-04T13:04:01Z</time>
      </trkpt>
      <trkpt lat="48.50809" lon="3.13805">
        <ele>143.3</ele>
        <time>2021-04-04T13:04:05Z</time>
      </trkpt>
      <trkpt lat="48.50814" lon="3.13804">
        <ele>144</ele>
        <time>2021-04-04T13:04:10Z</time>
      </trkpt>
      <trkpt lat="48.50819" lon="3.13802">
        <ele>144.6</ele>
        <time>2021-04-04T13:04:15Z</time>
      </trkpt>
      <trkpt lat="48.50824" lon="3.13799">
        <ele>145</ele>
        <time>2021-04-04T13:04:20Z</time>
      </trkpt>
      <trkpt lat="48.50829" lon="3.13796">
        <ele>145.5</ele>
        <time>2021-04-04T13:04:25Z</time>
      </trkpt>
      <trkpt lat="48.50834" lon="3.13792">
        <ele>145.9</ele>
        <time>2021-04-04T13:04:30Z</time>
      </trkpt>
      <trkpt lat="48.50839" lon="3.1379">
        <ele>146.6</ele>
        <time>2021-04-04T13:04:35Z</time>
      </trkpt>
      <trkpt lat="48.50843" lon="3.13788">
        <ele>147.1</ele>
        <time>2021-04-04T13:04:39Z</time>
      </trkpt>
      <trkpt lat="48.50848" lon="3.13786">
        <ele>147.4</ele>
        <time>2021-04-04T13:04:43Z</time>
      </trkpt>
      <trkpt lat="48.50853" lon="3.13784">
        <ele>147.5</ele>
        <time>2021-04-04T13:04:47Z</time>
      </trkpt>
      <trkpt lat="48.50858" lon="3.13781">
        <ele>147.4</ele>
        <time>2021-04-04T13:04:52Z</time>
      </trkpt>
      <trkpt lat="48.50863" lon="3.13779">
        <ele>147</ele>
        <time>2021-04-04T13:04:56Z</time>
      </trkpt>
      <trkpt lat="48.50869" lon="3.13778">
        <ele>146.1</ele>
        <time>2021-04-04T13:05:01Z</time>
      </trkpt>
      <trkpt lat="48.50874" lon="3.13776">
        <ele>145.3</ele>
        <time>2021-04-04T13:05:06Z</time>
      </trkpt>
      <trkpt lat="48.50879" lon="3.13775">
        <ele>144.3</ele>
        <time>2021-04-04T13:05:11Z</time>
      </trkpt>
      <trkpt lat="48.50885" lon="3.13774">
        <ele>143.3</ele>
        <time>2021-04-04T13:05:16Z</time>
      </trkpt>
      <trkpt lat="48.5089" lon="3.13773">
        <ele>142.3</ele>
        <time>2021-04-04T13:05:21Z</time>
      </trkpt>
      <trkpt lat="48.50895" lon="3.13772">
        <ele>141.6</ele>
        <time>2021-04-04T13:05:25Z</time>
      </trkpt>
      <trkpt lat="48.50899" lon="3.1377">
        <ele>140.9</ele>
        <time>2021-04-04T13:05:29Z</time>
      </trkpt>
      <trkpt lat="48.50904" lon="3.13768">
        <ele>140.4</ele>
        <time>2021-04-04T13:05:34Z</time>
      </trkpt>
      <trkpt lat="48.50909" lon="3.13767">
        <ele>140.4</ele>
        <time>2021-04-04T13:05:39Z</time>
      </trkpt>
      <trkpt lat="48.50914" lon="3.13765">
        <ele>140.5</ele>
        <time>2021-04-04T13:05:43Z</time>
      </trkpt>
      <trkpt lat="48.50919" lon="3.13764">
        <ele>140.6</ele>
        <time>2021-04-04T13:05:47Z</time>
      </trkpt>
      <trkpt lat="48.50923" lon="3.13763">
        <ele>140.6</ele>
        <time>2021-04-04T13:05:51Z</time>
      </trkpt>
      <trkpt lat="48.50928" lon="3.13762">
        <ele>140.5</ele>
        <time>2021-04-04T13:05:56Z</time>
      </trkpt>
      <trkpt lat="48.50933" lon="3.13761">
        <ele>140.2</ele>
        <time>2021-04-04T13:06:01Z</time>
      </trkpt>
      <trkpt lat="48.50938" lon="3.13759">
        <ele>140.4</ele>
        <time>2021-04-04T13:06:05Z</time>
      </trkpt>
      <trkpt lat="48.50943" lon="3.13757">
        <ele>140.8</ele>
        <time>2021-04-04T13:06:09Z</time>
      </trkpt>
      <trkpt lat="48.50949" lon="3.13755">
        <ele>141.1</ele>
        <time>2021-04-04T13:06:13Z</time>
      </trkpt>
      <trkpt lat="48.50953" lon="3.13755">
        <ele>141.2</ele>
        <time>2021-04-04T13:06:17Z</time>
      </trkpt>
      <trkpt lat="48.50958" lon="3.13755">
        <ele>141.4</ele>
        <time>2021-04-04T13:06:21Z</time>
      </trkpt>
      <trkpt lat="48.50963" lon="3.13754">
        <ele>141.6</ele>
        <time>2021-04-04T13:06:25Z</time>
      </trkpt>
      <trkpt lat="48.50968" lon="3.13753">
        <ele>141.8</ele>
        <time>2021-04-04T13:06:30Z</time>
      </trkpt>
      <trkpt lat="48.50974" lon="3.13751">
        <ele>141.7</ele>
        <time>2021-04-04T13:06:35Z</time>
      </trkpt>
      <trkpt lat="48.50978" lon="3.1375">
        <ele>141.7</ele>
        <time>2021-04-04T13:06:39Z</time>
      </trkpt>
      <trkpt lat="48.50983" lon="3.13748">
        <ele>141.9</ele>
        <time>2021-04-04T13:06:43Z</time>
      </trkpt>
      <trkpt lat="48.50988" lon="3.13747">
        <ele>142</ele>
        <time>2021-04-04T13:06:48Z</time>
      </trkpt>
      <trkpt lat="48.50993" lon="3.13745">
        <ele>142</ele>
        <time>2021-04-04T13:06:53Z</time>
      </trkpt>
      <trkpt lat="48.50998" lon="3.13743">
        <ele>142</ele>
        <time>2021-04-04T13:06:57Z</time>
      </trkpt>
      <trkpt lat="48.51003" lon="3.13742">
        <ele>141.9</ele>
        <time>2021-04-04T13:07:02Z</time>
      </trkpt>
      <trkpt lat="48.51008" lon="3.1374">
        <ele>141.6</ele>
        <time>2021-04-04T13:07:06Z</time>
      </trkpt>
      <trkpt lat="48.51012" lon="3.13738">
        <ele>141.6</ele>
        <time>2021-04-04T13:07:10Z</time>
      </trkpt>
      <trkpt lat="48.51017" lon="3.13736">
        <ele>141.4</ele>
        <time>2021-04-04T13:07:14Z</time>
      </trkpt>
      <trkpt lat="48.51022" lon="3.13734">
        <ele>141.1</ele>
        <time>2021-04-04T13:07:18Z</time>
      </trkpt>
      <trkpt lat="48.51027" lon="3.13732">
        <ele>140.7</ele>
        <time>2021-04-04T13:07:23Z</time>
      </trkpt>
      <trkpt lat="48.51032" lon="3.13731">
        <ele>140.4</ele>
        <time>2021-04-04T13:07:28Z</time>
      </trkpt>
      <trkpt lat="48.51037" lon="3.13731">
        <ele>140</ele>
        <time>2021-04-04T13:07:33Z</time>
      </trkpt>
      <trkpt lat="48.51042" lon="3.13728">
        <ele>139.9</ele>
        <time>2021-04-04T13:07:37Z</time>
      </trkpt>
      <trkpt lat="48.51046" lon="3.13726">
        <ele>139.9</ele>
        <time>2021-04-04T13:07:41Z</time>
      </trkpt>
      <trkpt lat="48.51051" lon="3.13724">
        <ele>140.3</ele>
        <time>2021-04-04T13:07:45Z</time>
      </trkpt>
      <trkpt lat="48.51056" lon="3.13722">
        <ele>140.5</ele>
        <time>2021-04-04T13:07:49Z</time>
      </trkpt>
      <trkpt lat="48.51061" lon="3.1372">
        <ele>140.6</ele>
        <time>2021-04-04T13:07:53Z</time>
      </trkpt>
      <trkpt lat="48.51066" lon="3.13719">
        <ele>141</ele>
        <time>2021-04-04T13:07:57Z</time>
      </trkpt>
      <trkpt lat="48.51071" lon="3.13718">
        <ele>141.3</ele>
        <time>2021-04-04T13:08:01Z</time>
      </trkpt>
      <trkpt lat="48.51076" lon="3.13717">
        <ele>141.6</ele>
        <time>2021-04-04T13:08:05Z</time>
      </trkpt>
      <trkpt lat="48.51081" lon="3.13716">
        <ele>141.9</ele>
        <time>2021-04-04T13:08:09Z</time>
      </trkpt>
      <trkpt lat="48.51085" lon="3.13714">
        <ele>141.8</ele>
        <time>2021-04-04T13:08:13Z</time>
      </trkpt>
      <trkpt lat="48.5109" lon="3.13713">
        <ele>141.6</ele>
        <time>2021-04-04T13:08:17Z</time>
      </trkpt>
      <trkpt lat="48.51095" lon="3.13712">
        <ele>141.2</ele>
        <time>2021-04-04T13:08:22Z</time>
      </trkpt>
      <trkpt lat="48.511" lon="3.13712">
        <ele>140.9</ele>
        <time>2021-04-04T13:08:26Z</time>
      </trkpt>
      <trkpt lat="48.51105" lon="3.1371">
        <ele>140.7</ele>
        <time>2021-04-04T13:08:30Z</time>
      </trkpt>
      <trkpt lat="48.51109" lon="3.13709">
        <ele>140.2</ele>
        <time>2021-04-04T13:08:35Z</time>
      </trkpt>
      <trkpt lat="48.51114" lon="3.13708">
        <ele>139.2</ele>
        <time>2021-04-04T13:08:41Z</time>
      </trkpt>
      <trkpt lat="48.51119" lon="3.13706">
        <ele>137.8</ele>
        <time>2021-04-04T13:08:47Z</time>
      </trkpt>
      <trkpt lat="48.51125" lon="3.13705">
        <ele>136.7</ele>
        <time>2021-04-04T13:08:52Z</time>
      </trkpt>
      <trkpt lat="48.51129" lon="3.13704">
        <ele>136</ele>
        <time>2021-04-04T13:08:56Z</time>
      </trkpt>
      <trkpt lat="48.51134" lon="3.13703">
        <ele>135.7</ele>
        <time>2021-04-04T13:09:00Z</time>
      </trkpt>
      <trkpt lat="48.51139" lon="3.13701">
        <ele>135.9</ele>
        <time>2021-04-04T13:09:04Z</time>
      </trkpt>
      <trkpt lat="48.51145" lon="3.13699">
        <ele>136.1</ele>
        <time>2021-04-04T13:09:08Z</time>
      </trkpt>
      <trkpt lat="48.5115" lon="3.13697">
        <ele>136.4</ele>
        <time>2021-04-04T13:09:12Z</time>
      </trkpt>
      <trkpt lat="48.51154" lon="3.13694">
        <ele>136.7</ele>
        <time>2021-04-04T13:09:16Z</time>
      </trkpt>
      <trkpt lat="48.51159" lon="3.13693">
        <ele>136.8</ele>
        <time>2021-04-04T13:09:20Z</time>
      </trkpt>
      <trkpt lat="48.51163" lon="3.13693">
        <ele>136.9</ele>
        <time>2021-04-04T13:09:24Z</time>
      </trkpt>
      <trkpt lat="48.51168" lon="3.13692">
        <ele>137</ele>
        <time>2021-04-04T13:09:28Z</time>
      </trkpt>
      <trkpt lat="48.51174" lon="3.13691">
        <ele>137</ele>
        <time>2021-04-04T13:09:33Z</time>
      </trkpt>
      <trkpt lat="48.51179" lon="3.13689">
        <ele>137.2</ele>
        <time>2021-04-04T13:09:38Z</time>
      </trkpt>
      <trkpt lat="48.51183" lon="3.13688">
        <ele>137.5</ele>
        <time>2021-04-04T13:09:43Z</time>
      </trkpt>
      <trkpt lat="48.51188" lon="3.13688">
        <ele>137.8</ele>
        <time>2021-04-04T13:09:48Z</time>
      </trkpt>
      <trkpt lat="48.51193" lon="3.13687">
        <ele>138.1</ele>
        <time>2021-04-04T13:09:52Z</time>
      </trkpt>
      <trkpt lat="48.51198" lon="3.13687">
        <ele>138.4</ele>
        <time>2021-04-04T13:09:56Z</time>
      </trkpt>
      <trkpt lat="48.51204" lon="3.13686">
        <ele>138.5</ele>
        <time>2021-04-04T13:10:00Z</time>
      </trkpt>
      <trkpt lat="48.51209" lon="3.13684">
        <ele>138.5</ele>
        <time>2021-04-04T13:10:05Z</time>
      </trkpt>
      <trkpt lat="48.51213" lon="3.13683">
        <ele>138.6</ele>
        <time>2021-04-04T13:10:09Z</time>
      </trkpt>
      <trkpt lat="48.51218" lon="3.13681">
        <ele>138.9</ele>
        <time>2021-04-04T13:10:13Z</time>
      </trkpt>
      <trkpt lat="48.51223" lon="3.13679">
        <ele>139.4</ele>
        <time>2021-04-04T13:10:21Z</time>
      </trkpt>
      <trkpt lat="48.51228" lon="3.13677">
        <ele>139.6</ele>
        <time>2021-04-04T13:10:25Z</time>
      </trkpt>
      <trkpt lat="48.51232" lon="3.13676">
        <ele>139.4</ele>
        <time>2021-04-04T13:10:29Z</time>
      </trkpt>
      <trkpt lat="48.51237" lon="3.13675">
        <ele>139</ele>
        <time>2021-04-04T13:10:33Z</time>
      </trkpt>
      <trkpt lat="48.51242" lon="3.13673">
        <ele>138.7</ele>
        <time>2021-04-04T13:10:37Z</time>
      </trkpt>
      <trkpt lat="48.51246" lon="3.13672">
        <ele>138.5</ele>
        <time>2021-04-04T13:10:41Z</time>
      </trkpt>
      <trkpt lat="48.51252" lon="3.13671">
        <ele>138.4</ele>
        <time>2021-04-04T13:10:46Z</time>
      </trkpt>
      <trkpt lat="48.51257" lon="3.13672">
        <ele>137.9</ele>
        <time>2021-04-04T13:10:51Z</time>
      </trkpt>
      <trkpt lat="48.51262" lon="3.13673">
        <ele>137.2</ele>
        <time>2021-04-04T13:10:56Z</time>
      </trkpt>
      <trkpt lat="48.51267" lon="3.13673">
        <ele>136.8</ele>
        <time>2021-04-04T13:11:00Z</time>
      </trkpt>
      <trkpt lat="48.51272" lon="3.13674">
        <ele>136.6</ele>
        <time>2021-04-04T13:11:04Z</time>
      </trkpt>
      <trkpt lat="48.51277" lon="3.13673">
        <ele>136.3</ele>
        <time>2021-04-04T13:11:08Z</time>
      </trkpt>
      <trkpt lat="48.51282" lon="3.13671">
        <ele>136</ele>
        <time>2021-04-04T13:11:13Z</time>
      </trkpt>
      <trkpt lat="48.51287" lon="3.13669">
        <ele>135.9</ele>
        <time>2021-04-04T13:11:17Z</time>
      </trkpt>
      <trkpt lat="48.51292" lon="3.13667">
        <ele>136</ele>
        <time>2021-04-04T13:11:21Z</time>
      </trkpt>
      <trkpt lat="48.51296" lon="3.13664">
        <ele>136</ele>
        <time>2021-04-04T13:11:25Z</time>
      </trkpt>
      <trkpt lat="48.51301" lon="3.13661">
        <ele>136</ele>
        <time>2021-04-04T13:11:29Z</time>
      </trkpt>
      <trkpt lat="48.51306" lon="3.13658">
        <ele>135.8</ele>
        <time>2021-04-04T13:11:33Z</time>
      </trkpt>
      <trkpt lat="48.51311" lon="3.13658">
        <ele>135.6</ele>
        <time>2021-04-04T13:11:37Z</time>
      </trkpt>
      <trkpt lat="48.51316" lon="3.13657">
        <ele>135.8</ele>
        <time>2021-04-04T13:11:41Z</time>
      </trkpt>
      <trkpt lat="48.51321" lon="3.13654">
        <ele>136.2</ele>
        <time>2021-04-04T13:11:45Z</time>
      </trkpt>
      <trkpt lat="48.51326" lon="3.13651">
        <ele>136.9</ele>
        <time>2021-04-04T13:11:50Z</time>
      </trkpt>
      <trkpt lat="48.5133" lon="3.13649">
        <ele>137.4</ele>
        <time>2021-04-04T13:11:54Z</time>
      </trkpt>
      <trkpt lat="48.51336" lon="3.13648">
        <ele>137.7</ele>
        <time>2021-04-04T13:11:59Z</time>
      </trkpt>
      <trkpt lat="48.5134" lon="3.13646">
        <ele>138.2</ele>
        <time>2021-04-04T13:12:03Z</time>
      </trkpt>
      <trkpt lat="48.51345" lon="3.13644">
        <ele>138.5</ele>
        <time>2021-04-04T13:12:07Z</time>
      </trkpt>
      <trkpt lat="48.51349" lon="3.13641">
        <ele>138.8</ele>
        <time>2021-04-04T13:12:11Z</time>
      </trkpt>
      <trkpt lat="48.51354" lon="3.1364">
        <ele>138.9</ele>
        <time>2021-04-04T13:12:15Z</time>
      </trkpt>
      <trkpt lat="48.51359" lon="3.13637">
        <ele>138.7</ele>
        <time>2021-04-04T13:12:20Z</time>
      </trkpt>
      <trkpt lat="48.51364" lon="3.13634">
        <ele>138.4</ele>
        <time>2021-04-04T13:12:25Z</time>
      </trkpt>
      <trkpt lat="48.51368" lon="3.13632">
        <ele>138.2</ele>
        <time>2021-04-04T13:12:29Z</time>
      </trkpt>
      <trkpt lat="48.51372" lon="3.13629">
        <ele>138</ele>
        <time>2021-04-04T13:12:33Z</time>
      </trkpt>
      <trkpt lat="48.51377" lon="3.13627">
        <ele>137.9</ele>
        <time>2021-04-04T13:12:38Z</time>
      </trkpt>
      <trkpt lat="48.51383" lon="3.13627">
        <ele>137.8</ele>
        <time>2021-04-04T13:12:43Z</time>
      </trkpt>
      <trkpt lat="48.51387" lon="3.13626">
        <ele>136.9</ele>
        <time>2021-04-04T13:12:51Z</time>
      </trkpt>
      <trkpt lat="48.51392" lon="3.13626">
        <ele>136</ele>
        <time>2021-04-04T13:12:56Z</time>
      </trkpt>
      <trkpt lat="48.51397" lon="3.13628">
        <ele>135.4</ele>
        <time>2021-04-04T13:13:00Z</time>
      </trkpt>
      <trkpt lat="48.51402" lon="3.13627">
        <ele>134.8</ele>
        <time>2021-04-04T13:13:05Z</time>
      </trkpt>
      <trkpt lat="48.51407" lon="3.13624">
        <ele>134.4</ele>
        <time>2021-04-04T13:13:10Z</time>
      </trkpt>
      <trkpt lat="48.51411" lon="3.13619">
        <ele>134.2</ele>
        <time>2021-04-04T13:13:15Z</time>
      </trkpt>
      <trkpt lat="48.51416" lon="3.13617">
        <ele>134.4</ele>
        <time>2021-04-04T13:13:20Z</time>
      </trkpt>
      <trkpt lat="48.5142" lon="3.13616">
        <ele>134.4</ele>
        <time>2021-04-04T13:13:24Z</time>
      </trkpt>
      <trkpt lat="48.51425" lon="3.13614">
        <ele>134.4</ele>
        <time>2021-04-04T13:13:28Z</time>
      </trkpt>
      <trkpt lat="48.51431" lon="3.13613">
        <ele>134.5</ele>
        <time>2021-04-04T13:13:32Z</time>
      </trkpt>
      <trkpt lat="48.51437" lon="3.13612">
        <ele>134.8</ele>
        <time>2021-04-04T13:13:36Z</time>
      </trkpt>
      <trkpt lat="48.51442" lon="3.13609">
        <ele>135.3</ele>
        <time>2021-04-04T13:13:40Z</time>
      </trkpt>
      <trkpt lat="48.51447" lon="3.13607">
        <ele>136.1</ele>
        <time>2021-04-04T13:13:44Z</time>
      </trkpt>
      <trkpt lat="48.51451" lon="3.13605">
        <ele>136.8</ele>
        <time>2021-04-04T13:13:48Z</time>
      </trkpt>
      <trkpt lat="48.51456" lon="3.13605">
        <ele>137</ele>
        <time>2021-04-04T13:13:52Z</time>
      </trkpt>
      <trkpt lat="48.51461" lon="3.13605">
        <ele>136.8</ele>
        <time>2021-04-04T13:13:56Z</time>
      </trkpt>
      <trkpt lat="48.51467" lon="3.13605">
        <ele>136.8</ele>
        <time>2021-04-04T13:14:00Z</time>
      </trkpt>
      <trkpt lat="48.51473" lon="3.13603">
        <ele>137</ele>
        <time>2021-04-04T13:14:04Z</time>
      </trkpt>
      <trkpt lat="48.51477" lon="3.136">
        <ele>137.2</ele>
        <time>2021-04-04T13:14:08Z</time>
      </trkpt>
      <trkpt lat="48.51481" lon="3.13596">
        <ele>137.1</ele>
        <time>2021-04-04T13:14:15Z</time>
      </trkpt>
      <trkpt lat="48.51486" lon="3.13595">
        <ele>137</ele>
        <time>2021-04-04T13:14:20Z</time>
      </trkpt>
      <trkpt lat="48.51491" lon="3.13592">
        <ele>137</ele>
        <time>2021-04-04T13:14:24Z</time>
      </trkpt>
      <trkpt lat="48.51495" lon="3.1359">
        <ele>137.1</ele>
        <time>2021-04-04T13:14:28Z</time>
      </trkpt>
      <trkpt lat="48.515" lon="3.13587">
        <ele>137</ele>
        <time>2021-04-04T13:14:32Z</time>
      </trkpt>
      <trkpt lat="48.51505" lon="3.13583">
        <ele>136.4</ele>
        <time>2021-04-04T13:14:37Z</time>
      </trkpt>
      <trkpt lat="48.51508" lon="3.13578">
        <ele>135.9</ele>
        <time>2021-04-04T13:14:42Z</time>
      </trkpt>
      <trkpt lat="48.51511" lon="3.13572">
        <ele>135.3</ele>
        <time>2021-04-04T13:14:47Z</time>
      </trkpt>
      <trkpt lat="48.51515" lon="3.13569">
        <ele>134.8</ele>
        <time>2021-04-04T13:14:52Z</time>
      </trkpt>
      <trkpt lat="48.5152" lon="3.13568">
        <ele>134.3</ele>
        <time>2021-04-04T13:14:56Z</time>
      </trkpt>
      <trkpt lat="48.51525" lon="3.13565">
        <ele>133.7</ele>
        <time>2021-04-04T13:15:01Z</time>
      </trkpt>
      <trkpt lat="48.5153" lon="3.13563">
        <ele>133.2</ele>
        <time>2021-04-04T13:15:06Z</time>
      </trkpt>
      <trkpt lat="48.51535" lon="3.1356">
        <ele>132.3</ele>
        <time>2021-04-04T13:15:12Z</time>
      </trkpt>
      <trkpt lat="48.5154" lon="3.13557">
        <ele>131.2</ele>
        <time>2021-04-04T13:15:18Z</time>
      </trkpt>
      <trkpt lat="48.51544" lon="3.13554">
        <ele>130.3</ele>
        <time>2021-04-04T13:15:23Z</time>
      </trkpt>
      <trkpt lat="48.51549" lon="3.13553">
        <ele>129.6</ele>
        <time>2021-04-04T13:15:27Z</time>
      </trkpt>
      <trkpt lat="48.51553" lon="3.1355">
        <ele>128.8</ele>
        <time>2021-04-04T13:15:31Z</time>
      </trkpt>
      <trkpt lat="48.51558" lon="3.13548">
        <ele>128.1</ele>
        <time>2021-04-04T13:15:35Z</time>
      </trkpt>
      <trkpt lat="48.51564" lon="3.13546">
        <ele>127.7</ele>
        <time>2021-04-04T13:15:39Z</time>
      </trkpt>
      <trkpt lat="48.51568" lon="3.13545">
        <ele>127.4</ele>
        <time>2021-04-04T13:15:43Z</time>
      </trkpt>
      <trkpt lat="48.51573" lon="3.13545">
        <ele>126.4</ele>
        <time>2021-04-04T13:15:49Z</time>
      </trkpt>
      <trkpt lat="48.51577" lon="3.13542">
        <ele>125.3</ele>
        <time>2021-04-04T13:15:55Z</time>
      </trkpt>
      <trkpt lat="48.51582" lon="3.13539">
        <ele>124.5</ele>
        <time>2021-04-04T13:16:00Z</time>
      </trkpt>
      <trkpt lat="48.51587" lon="3.13535">
        <ele>124.3</ele>
        <time>2021-04-04T13:16:04Z</time>
      </trkpt>
      <trkpt lat="48.51593" lon="3.13533">
        <ele>124.2</ele>
        <time>2021-04-04T13:16:08Z</time>
      </trkpt>
      <trkpt lat="48.51597" lon="3.13531">
        <ele>124</ele>
        <time>2021-04-04T13:16:12Z</time>
      </trkpt>
      <trkpt lat="48.51602" lon="3.13529">
        <ele>124</ele>
        <time>2021-04-04T13:16:16Z</time>
      </trkpt>
      <trkpt lat="48.51607" lon="3.13527">
        <ele>124.3</ele>
        <time>2021-04-04T13:16:20Z</time>
      </trkpt>
      <trkpt lat="48.51612" lon="3.13526">
        <ele>124.8</ele>
        <time>2021-04-04T13:16:24Z</time>
      </trkpt>
      <trkpt lat="48.51618" lon="3.13526">
        <ele>125.6</ele>
        <time>2021-04-04T13:16:28Z</time>
      </trkpt>
      <trkpt lat="48.51623" lon="3.13524">
        <ele>127</ele>
        <time>2021-04-04T13:16:32Z</time>
      </trkpt>
      <trkpt lat="48.51629" lon="3.13523">
        <ele>128.4</ele>
        <time>2021-04-04T13:16:36Z</time>
      </trkpt>
      <trkpt lat="48.51634" lon="3.13522">
        <ele>129.8</ele>
        <time>2021-04-04T13:16:40Z</time>
      </trkpt>
      <trkpt lat="48.51639" lon="3.13522">
        <ele>130.8</ele>
        <time>2021-04-04T13:16:44Z</time>
      </trkpt>
      <trkpt lat="48.51644" lon="3.13523">
        <ele>131.6</ele>
        <time>2021-04-04T13:16:48Z</time>
      </trkpt>
      <trkpt lat="48.51649" lon="3.13524">
        <ele>132.2</ele>
        <time>2021-04-04T13:16:52Z</time>
      </trkpt>
      <trkpt lat="48.51654" lon="3.13524">
        <ele>133.2</ele>
        <time>2021-04-04T13:16:56Z</time>
      </trkpt>
      <trkpt lat="48.51659" lon="3.13522">
        <ele>134.3</ele>
        <time>2021-04-04T13:17:01Z</time>
      </trkpt>
      <trkpt lat="48.51664" lon="3.13519">
        <ele>135.1</ele>
        <time>2021-04-04T13:17:06Z</time>
      </trkpt>
      <trkpt lat="48.51669" lon="3.13518">
        <ele>136.3</ele>
        <time>2021-04-04T13:17:11Z</time>
      </trkpt>
      <trkpt lat="48.51673" lon="3.13515">
        <ele>137.6</ele>
        <time>2021-04-04T13:17:16Z</time>
      </trkpt>
      <trkpt lat="48.51678" lon="3.13511">
        <ele>138.7</ele>
        <time>2021-04-04T13:17:20Z</time>
      </trkpt>
      <trkpt lat="48.51682" lon="3.13508">
        <ele>139.2</ele>
        <time>2021-04-04T13:17:25Z</time>
      </trkpt>
      <trkpt lat="48.51687" lon="3.13506">
        <ele>139.4</ele>
        <time>2021-04-04T13:17:29Z</time>
      </trkpt>
      <trkpt lat="48.51691" lon="3.13502">
        <ele>139.7</ele>
        <time>2021-04-04T13:17:33Z</time>
      </trkpt>
      <trkpt lat="48.51694" lon="3.13497">
        <ele>139.8</ele>
        <time>2021-04-04T13:17:37Z</time>
      </trkpt>
      <trkpt lat="48.51695" lon="3.13489">
        <ele>139.9</ele>
        <time>2021-04-04T13:17:41Z</time>
      </trkpt>
      <trkpt lat="48.51695" lon="3.13482">
        <ele>139.9</ele>
        <time>2021-04-04T13:17:46Z</time>
      </trkpt>
      <trkpt lat="48.51694" lon="3.13475">
        <ele>139.5</ele>
        <time>2021-04-04T13:17:53Z</time>
      </trkpt>
      <trkpt lat="48.51695" lon="3.13469">
        <ele>139.2</ele>
        <time>2021-04-04T13:17:58Z</time>
      </trkpt>
      <trkpt lat="48.51695" lon="3.13461">
        <ele>138.9</ele>
        <time>2021-04-04T13:18:02Z</time>
      </trkpt>
      <trkpt lat="48.51692" lon="3.13456">
        <ele>138.1</ele>
        <time>2021-04-04T13:18:09Z</time>
      </trkpt>
      <trkpt lat="48.51696" lon="3.13451">
        <ele>136.4</ele>
        <time>2021-04-04T13:18:56Z</time>
      </trkpt>
      <trkpt lat="48.51698" lon="3.13444">
        <ele>136.3</ele>
        <time>2021-04-04T13:19:01Z</time>
      </trkpt>
      <trkpt lat="48.51699" lon="3.13437">
        <ele>136.3</ele>
        <time>2021-04-04T13:19:06Z</time>
      </trkpt>
      <trkpt lat="48.51698" lon="3.13428">
        <ele>136.6</ele>
        <time>2021-04-04T13:19:11Z</time>
      </trkpt>
      <trkpt lat="48.51698" lon="3.13421">
        <ele>137.1</ele>
        <time>2021-04-04T13:19:15Z</time>
      </trkpt>
      <trkpt lat="48.51698" lon="3.13414">
        <ele>137.5</ele>
        <time>2021-04-04T13:19:19Z</time>
      </trkpt>
      <trkpt lat="48.51699" lon="3.13405">
        <ele>137.9</ele>
        <time>2021-04-04T13:19:24Z</time>
      </trkpt>
      <trkpt lat="48.51699" lon="3.13397">
        <ele>138.2</ele>
        <time>2021-04-04T13:19:28Z</time>
      </trkpt>
      <trkpt lat="48.51698" lon="3.13388">
        <ele>138.5</ele>
        <time>2021-04-04T13:19:32Z</time>
      </trkpt>
      <trkpt lat="48.51698" lon="3.13381">
        <ele>138.7</ele>
        <time>2021-04-04T13:19:36Z</time>
      </trkpt>
      <trkpt lat="48.51697" lon="3.13374">
        <ele>138.8</ele>
        <time>2021-04-04T13:19:40Z</time>
      </trkpt>
      <trkpt lat="48.51696" lon="3.13367">
        <ele>139</ele>
        <time>2021-04-04T13:19:44Z</time>
      </trkpt>
      <trkpt lat="48.51695" lon="3.13359">
        <ele>139.1</ele>
        <time>2021-04-04T13:19:48Z</time>
      </trkpt>
      <trkpt lat="48.51694" lon="3.13352">
        <ele>139.1</ele>
        <time>2021-04-04T13:19:52Z</time>
      </trkpt>
      <trkpt lat="48.51693" lon="3.13344">
        <ele>139.1</ele>
        <time>2021-04-04T13:19:57Z</time>
      </trkpt>
      <trkpt lat="48.51692" lon="3.13337">
        <ele>139.2</ele>
        <time>2021-04-04T13:20:01Z</time>
      </trkpt>
      <trkpt lat="48.51691" lon="3.1333">
        <ele>139.4</ele>
        <time>2021-04-04T13:20:05Z</time>
      </trkpt>
      <trkpt lat="48.51689" lon="3.13323">
        <ele>139.6</ele>
        <time>2021-04-04T13:20:10Z</time>
      </trkpt>
      <trkpt lat="48.51687" lon="3.13315">
        <ele>139.7</ele>
        <time>2021-04-04T13:20:14Z</time>
      </trkpt>
      <trkpt lat="48.51685" lon="3.13308">
        <ele>139.8</ele>
        <time>2021-04-04T13:20:19Z</time>
      </trkpt>
      <trkpt lat="48.51683" lon="3.13301">
        <ele>139.7</ele>
        <time>2021-04-04T13:20:24Z</time>
      </trkpt>
      <trkpt lat="48.51681" lon="3.13293">
        <ele>139.7</ele>
        <time>2021-04-04T13:20:29Z</time>
      </trkpt>
      <trkpt lat="48.5168" lon="3.13286">
        <ele>139.5</ele>
        <time>2021-04-04T13:20:32Z</time>
      </trkpt>
      <trkpt lat="48.51679" lon="3.13279">
        <ele>139.5</ele>
        <time>2021-04-04T13:20:36Z</time>
      </trkpt>
      <trkpt lat="48.51677" lon="3.1327">
        <ele>139.6</ele>
        <time>2021-04-04T13:20:40Z</time>
      </trkpt>
      <trkpt lat="48.51675" lon="3.13263">
        <ele>139.7</ele>
        <time>2021-04-04T13:20:44Z</time>
      </trkpt>
      <trkpt lat="48.51674" lon="3.13255">
        <ele>140</ele>
        <time>2021-04-04T13:20:48Z</time>
      </trkpt>
      <trkpt lat="48.51673" lon="3.13247">
        <ele>140.2</ele>
        <time>2021-04-04T13:20:52Z</time>
      </trkpt>
      <trkpt lat="48.51673" lon="3.1324">
        <ele>140.3</ele>
        <time>2021-04-04T13:20:56Z</time>
      </trkpt>
      <trkpt lat="48.51672" lon="3.13233">
        <ele>140.4</ele>
        <time>2021-04-04T13:21:00Z</time>
      </trkpt>
      <trkpt lat="48.51672" lon="3.13224">
        <ele>140.7</ele>
        <time>2021-04-04T13:21:06Z</time>
      </trkpt>
      <trkpt lat="48.51669" lon="3.13217">
        <ele>141.2</ele>
        <time>2021-04-04T13:21:11Z</time>
      </trkpt>
      <trkpt lat="48.51668" lon="3.1321">
        <ele>141.6</ele>
        <time>2021-04-04T13:21:16Z</time>
      </trkpt>
      <trkpt lat="48.51666" lon="3.13202">
        <ele>141.9</ele>
        <time>2021-04-04T13:21:21Z</time>
      </trkpt>
      <trkpt lat="48.51665" lon="3.13194">
        <ele>142</ele>
        <time>2021-04-04T13:21:25Z</time>
      </trkpt>
      <trkpt lat="48.51663" lon="3.13186">
        <ele>142.1</ele>
        <time>2021-04-04T13:21:29Z</time>
      </trkpt>
      <trkpt lat="48.51662" lon="3.13178">
        <ele>142.2</ele>
        <time>2021-04-04T13:21:33Z</time>
      </trkpt>
      <trkpt lat="48.51661" lon="3.13171">
        <ele>142.3</ele>
        <time>2021-04-04T13:21:37Z</time>
      </trkpt>
      <trkpt lat="48.51659" lon="3.13163">
        <ele>142.4</ele>
        <time>2021-04-04T13:21:41Z</time>
      </trkpt>
      <trkpt lat="48.51659" lon="3.13155">
        <ele>142.4</ele>
        <time>2021-04-04T13:21:46Z</time>
      </trkpt>
      <trkpt lat="48.51658" lon="3.13148">
        <ele>142.7</ele>
        <time>2021-04-04T13:21:50Z</time>
      </trkpt>
      <trkpt lat="48.51658" lon="3.1314">
        <ele>143</ele>
        <time>2021-04-04T13:21:54Z</time>
      </trkpt>
      <trkpt lat="48.51657" lon="3.13133">
        <ele>143.4</ele>
        <time>2021-04-04T13:21:58Z</time>
      </trkpt>
      <trkpt lat="48.51656" lon="3.13126">
        <ele>143.7</ele>
        <time>2021-04-04T13:22:02Z</time>
      </trkpt>
      <trkpt lat="48.51654" lon="3.13119">
        <ele>143.9</ele>
        <time>2021-04-04T13:22:05Z</time>
      </trkpt>
      <trkpt lat="48.51652" lon="3.13112">
        <ele>144</ele>
        <time>2021-04-04T13:22:08Z</time>
      </trkpt>
      <trkpt lat="48.51651" lon="3.13105">
        <ele>144.2</ele>
        <time>2021-04-04T13:22:11Z</time>
      </trkpt>
      <trkpt lat="48.51649" lon="3.13097">
        <ele>144.4</ele>
        <time>2021-04-04T13:22:15Z</time>
      </trkpt>
      <trkpt lat="48.51648" lon="3.1309">
        <ele>144.6</ele>
        <time>2021-04-04T13:22:19Z</time>
      </trkpt>
      <trkpt lat="48.51647" lon="3.13082">
        <ele>144.8</ele>
        <time>2021-04-04T13:22:24Z</time>
      </trkpt>
      <trkpt lat="48.51645" lon="3.13075">
        <ele>144.8</ele>
        <time>2021-04-04T13:22:28Z</time>
      </trkpt>
      <trkpt lat="48.51644" lon="3.13067">
        <ele>144.9</ele>
        <time>2021-04-04T13:22:32Z</time>
      </trkpt>
      <trkpt lat="48.51642" lon="3.13059">
        <ele>144.9</ele>
        <time>2021-04-04T13:22:36Z</time>
      </trkpt>
      <trkpt lat="48.5164" lon="3.1305">
        <ele>145</ele>
        <time>2021-04-04T13:22:40Z</time>
      </trkpt>
      <trkpt lat="48.51638" lon="3.13044">
        <ele>145.2</ele>
        <time>2021-04-04T13:22:43Z</time>
      </trkpt>
      <trkpt lat="48.51635" lon="3.13037">
        <ele>145.4</ele>
        <time>2021-04-04T13:22:47Z</time>
      </trkpt>
      <trkpt lat="48.51633" lon="3.1303">
        <ele>145.4</ele>
        <time>2021-04-04T13:22:50Z</time>
      </trkpt>
      <trkpt lat="48.51631" lon="3.13022">
        <ele>145.5</ele>
        <time>2021-04-04T13:22:54Z</time>
      </trkpt>
      <trkpt lat="48.5163" lon="3.13016">
        <ele>145.4</ele>
        <time>2021-04-04T13:22:57Z</time>
      </trkpt>
      <trkpt lat="48.51628" lon="3.13009">
        <ele>145.3</ele>
        <time>2021-04-04T13:23:00Z</time>
      </trkpt>
      <trkpt lat="48.51626" lon="3.13">
        <ele>144.7</ele>
        <time>2021-04-04T13:23:03Z</time>
      </trkpt>
      <trkpt lat="48.51624" lon="3.12992">
        <ele>144.1</ele>
        <time>2021-04-04T13:23:06Z</time>
      </trkpt>
      <trkpt lat="48.51622" lon="3.12985">
        <ele>142.8</ele>
        <time>2021-04-04T13:23:14Z</time>
      </trkpt>
      <trkpt lat="48.51622" lon="3.12978">
        <ele>141.8</ele>
        <time>2021-04-04T13:23:22Z</time>
      </trkpt>
      <trkpt lat="48.51621" lon="3.12972">
        <ele>141.2</ele>
        <time>2021-04-04T13:23:26Z</time>
      </trkpt>
      <trkpt lat="48.5162" lon="3.12964">
        <ele>140.6</ele>
        <time>2021-04-04T13:23:30Z</time>
      </trkpt>
      <trkpt lat="48.5162" lon="3.12957">
        <ele>139.8</ele>
        <time>2021-04-04T13:23:34Z</time>
      </trkpt>
      <trkpt lat="48.51618" lon="3.12949">
        <ele>138.8</ele>
        <time>2021-04-04T13:23:39Z</time>
      </trkpt>
      <trkpt lat="48.51618" lon="3.12942">
        <ele>138</ele>
        <time>2021-04-04T13:23:44Z</time>
      </trkpt>
      <trkpt lat="48.51618" lon="3.12935">
        <ele>137.2</ele>
        <time>2021-04-04T13:23:49Z</time>
      </trkpt>
      <trkpt lat="48.51616" lon="3.12927">
        <ele>136.5</ele>
        <time>2021-04-04T13:23:53Z</time>
      </trkpt>
      <trkpt lat="48.51615" lon="3.1292">
        <ele>135.9</ele>
        <time>2021-04-04T13:23:57Z</time>
      </trkpt>
      <trkpt lat="48.51614" lon="3.12913">
        <ele>135.4</ele>
        <time>2021-04-04T13:24:01Z</time>
      </trkpt>
      <trkpt lat="48.51614" lon="3.12905">
        <ele>134.8</ele>
        <time>2021-04-04T13:24:07Z</time>
      </trkpt>
      <trkpt lat="48.51613" lon="3.12898">
        <ele>134.4</ele>
        <time>2021-04-04T13:24:11Z</time>
      </trkpt>
      <trkpt lat="48.51611" lon="3.1289">
        <ele>133.9</ele>
        <time>2021-04-04T13:24:15Z</time>
      </trkpt>
      <trkpt lat="48.51611" lon="3.12883">
        <ele>133.4</ele>
        <time>2021-04-04T13:24:18Z</time>
      </trkpt>
      <trkpt lat="48.51609" lon="3.12877">
        <ele>132.6</ele>
        <time>2021-04-04T13:24:25Z</time>
      </trkpt>
      <trkpt lat="48.51607" lon="3.1287">
        <ele>132.1</ele>
        <time>2021-04-04T13:24:31Z</time>
      </trkpt>
      <trkpt lat="48.51605" lon="3.12863">
        <ele>131.8</ele>
        <time>2021-04-04T13:24:35Z</time>
      </trkpt>
      <trkpt lat="48.51604" lon="3.12856">
        <ele>131.5</ele>
        <time>2021-04-04T13:24:40Z</time>
      </trkpt>
      <trkpt lat="48.51603" lon="3.12849">
        <ele>130.8</ele>
        <time>2021-04-04T13:24:55Z</time>
      </trkpt>
      <trkpt lat="48.51603" lon="3.12841">
        <ele>130.9</ele>
        <time>2021-04-04T13:24:59Z</time>
      </trkpt>
      <trkpt lat="48.51602" lon="3.12834">
        <ele>131.1</ele>
        <time>2021-04-04T13:25:03Z</time>
      </trkpt>
      <trkpt lat="48.51601" lon="3.12826">
        <ele>131.3</ele>
        <time>2021-04-04T13:25:07Z</time>
      </trkpt>
      <trkpt lat="48.516" lon="3.12818">
        <ele>131.5</ele>
        <time>2021-04-04T13:25:11Z</time>
      </trkpt>
      <trkpt lat="48.51599" lon="3.1281">
        <ele>131.8</ele>
        <time>2021-04-04T13:25:15Z</time>
      </trkpt>
      <trkpt lat="48.51598" lon="3.12804">
        <ele>131.9</ele>
        <time>2021-04-04T13:25:19Z</time>
      </trkpt>
      <trkpt lat="48.51597" lon="3.12796">
        <ele>131.9</ele>
        <time>2021-04-04T13:25:23Z</time>
      </trkpt>
      <trkpt lat="48.51596" lon="3.12789">
        <ele>131.9</ele>
        <time>2021-04-04T13:25:27Z</time>
      </trkpt>
      <trkpt lat="48.51595" lon="3.12781">
        <ele>131.8</ele>
        <time>2021-04-04T13:25:31Z</time>
      </trkpt>
      <trkpt lat="48.51596" lon="3.12774">
        <ele>131.7</ele>
        <time>2021-04-04T13:25:37Z</time>
      </trkpt>
      <trkpt lat="48.51595" lon="3.12766">
        <ele>131.7</ele>
        <time>2021-04-04T13:25:45Z</time>
      </trkpt>
      <trkpt lat="48.51594" lon="3.12759">
        <ele>131.5</ele>
        <time>2021-04-04T13:25:50Z</time>
      </trkpt>
      <trkpt lat="48.51593" lon="3.12751">
        <ele>131.2</ele>
        <time>2021-04-04T13:25:54Z</time>
      </trkpt>
      <trkpt lat="48.51593" lon="3.12743">
        <ele>130.8</ele>
        <time>2021-04-04T13:25:59Z</time>
      </trkpt>
      <trkpt lat="48.51591" lon="3.12736">
        <ele>130.2</ele>
        <time>2021-04-04T13:26:05Z</time>
      </trkpt>
      <trkpt lat="48.51589" lon="3.12728">
        <ele>129.8</ele>
        <time>2021-04-04T13:26:11Z</time>
      </trkpt>
      <trkpt lat="48.51589" lon="3.1272">
        <ele>129.4</ele>
        <time>2021-04-04T13:26:15Z</time>
      </trkpt>
      <trkpt lat="48.51588" lon="3.12713">
        <ele>129</ele>
        <time>2021-04-04T13:26:19Z</time>
      </trkpt>
      <trkpt lat="48.51588" lon="3.12706">
        <ele>128.6</ele>
        <time>2021-04-04T13:26:23Z</time>
      </trkpt>
      <trkpt lat="48.51588" lon="3.12698">
        <ele>128.2</ele>
        <time>2021-04-04T13:26:27Z</time>
      </trkpt>
      <trkpt lat="48.51588" lon="3.1269">
        <ele>127.6</ele>
        <time>2021-04-04T13:26:31Z</time>
      </trkpt>
      <trkpt lat="48.51587" lon="3.12682">
        <ele>127</ele>
        <time>2021-04-04T13:26:35Z</time>
      </trkpt>
      <trkpt lat="48.51587" lon="3.12674">
        <ele>126.3</ele>
        <time>2021-04-04T13:26:40Z</time>
      </trkpt>
      <trkpt lat="48.51586" lon="3.12667">
        <ele>125.8</ele>
        <time>2021-04-04T13:26:44Z</time>
      </trkpt>
      <trkpt lat="48.51585" lon="3.1266">
        <ele>125.4</ele>
        <time>2021-04-04T13:26:48Z</time>
      </trkpt>
      <trkpt lat="48.51585" lon="3.12652">
        <ele>125</ele>
        <time>2021-04-04T13:26:52Z</time>
      </trkpt>
      <trkpt lat="48.51585" lon="3.12644">
        <ele>124.6</ele>
        <time>2021-04-04T13:26:56Z</time>
      </trkpt>
      <trkpt lat="48.51585" lon="3.12636">
        <ele>124.1</ele>
        <time>2021-04-04T13:27:00Z</time>
      </trkpt>
      <trkpt lat="48.51585" lon="3.12629">
        <ele>123.8</ele>
        <time>2021-04-04T13:27:04Z</time>
      </trkpt>
      <trkpt lat="48.51585" lon="3.12621">
        <ele>123.7</ele>
        <time>2021-04-04T13:27:08Z</time>
      </trkpt>
      <trkpt lat="48.51585" lon="3.12614">
        <ele>123.8</ele>
        <time>2021-04-04T13:27:11Z</time>
      </trkpt>
      <trkpt lat="48.51586" lon="3.12606">
        <ele>123.8</ele>
        <time>2021-04-04T13:27:15Z</time>
      </trkpt>
      <trkpt lat="48.51588" lon="3.12599">
        <ele>123.8</ele>
        <time>2021-04-04T13:27:19Z</time>
      </trkpt>
      <trkpt lat="48.51589" lon="3.12592">
        <ele>123.8</ele>
        <time>2021-04-04T13:27:23Z</time>
      </trkpt>
      <trkpt lat="48.51589" lon="3.12585">
        <ele>123.8</ele>
        <time>2021-04-04T13:27:27Z</time>
      </trkpt>
      <trkpt lat="48.5159" lon="3.12578">
        <ele>123.8</ele>
        <time>2021-04-04T13:27:31Z</time>
      </trkpt>
      <trkpt lat="48.51591" lon="3.12571">
        <ele>124</ele>
        <time>2021-04-04T13:27:35Z</time>
      </trkpt>
      <trkpt lat="48.51592" lon="3.12563">
        <ele>124.2</ele>
        <time>2021-04-04T13:27:39Z</time>
      </trkpt>
      <trkpt lat="48.51594" lon="3.12556">
        <ele>124.5</ele>
        <time>2021-04-04T13:27:44Z</time>
      </trkpt>
      <trkpt lat="48.51595" lon="3.12548">
        <ele>124.8</ele>
        <time>2021-04-04T13:27:49Z</time>
      </trkpt>
      <trkpt lat="48.51595" lon="3.1254">
        <ele>125.1</ele>
        <time>2021-04-04T13:27:54Z</time>
      </trkpt>
      <trkpt lat="48.51595" lon="3.12533">
        <ele>125.3</ele>
        <time>2021-04-04T13:27:58Z</time>
      </trkpt>
      <trkpt lat="48.51595" lon="3.12526">
        <ele>125.4</ele>
        <time>2021-04-04T13:28:02Z</time>
      </trkpt>
      <trkpt lat="48.51595" lon="3.12518">
        <ele>125.3</ele>
        <time>2021-04-04T13:28:06Z</time>
      </trkpt>
      <trkpt lat="48.51595" lon="3.12511">
        <ele>125.1</ele>
        <time>2021-04-04T13:28:10Z</time>
      </trkpt>
      <trkpt lat="48.51594" lon="3.12502">
        <ele>124.7</ele>
        <time>2021-04-04T13:28:15Z</time>
      </trkpt>
      <trkpt lat="48.51594" lon="3.12495">
        <ele>124.2</ele>
        <time>2021-04-04T13:28:22Z</time>
      </trkpt>
      <trkpt lat="48.51596" lon="3.12488">
        <ele>125.1</ele>
        <time>2021-04-04T13:28:57Z</time>
      </trkpt>
      <trkpt lat="48.51597" lon="3.12481">
        <ele>125.5</ele>
        <time>2021-04-04T13:29:01Z</time>
      </trkpt>
      <trkpt lat="48.51598" lon="3.12473">
        <ele>126.2</ele>
        <time>2021-04-04T13:29:05Z</time>
      </trkpt>
      <trkpt lat="48.51598" lon="3.12464">
        <ele>126.8</ele>
        <time>2021-04-04T13:29:09Z</time>
      </trkpt>
      <trkpt lat="48.51599" lon="3.12458">
        <ele>127.4</ele>
        <time>2021-04-04T13:29:13Z</time>
      </trkpt>
      <trkpt lat="48.516" lon="3.12449">
        <ele>128.1</ele>
        <time>2021-04-04T13:29:18Z</time>
      </trkpt>
      <trkpt lat="48.51601" lon="3.12443">
        <ele>128.4</ele>
        <time>2021-04-04T13:29:22Z</time>
      </trkpt>
      <trkpt lat="48.51601" lon="3.12435">
        <ele>128.4</ele>
        <time>2021-04-04T13:29:26Z</time>
      </trkpt>
      <trkpt lat="48.516" lon="3.12426">
        <ele>128.8</ele>
        <time>2021-04-04T13:29:30Z</time>
      </trkpt>
      <trkpt lat="48.516" lon="3.12418">
        <ele>129</ele>
        <time>2021-04-04T13:29:34Z</time>
      </trkpt>
      <trkpt lat="48.516" lon="3.12411">
        <ele>129</ele>
        <time>2021-04-04T13:29:38Z</time>
      </trkpt>
      <trkpt lat="48.516" lon="3.12404">
        <ele>128.8</ele>
        <time>2021-04-04T13:29:42Z</time>
      </trkpt>
      <trkpt lat="48.516" lon="3.12397">
        <ele>128.5</ele>
        <time>2021-04-04T13:29:47Z</time>
      </trkpt>
      <trkpt lat="48.51601" lon="3.12389">
        <ele>127.9</ele>
        <time>2021-04-04T13:29:52Z</time>
      </trkpt>
      <trkpt lat="48.51602" lon="3.12381">
        <ele>127.3</ele>
        <time>2021-04-04T13:29:57Z</time>
      </trkpt>
      <trkpt lat="48.51601" lon="3.12374">
        <ele>126.9</ele>
        <time>2021-04-04T13:30:01Z</time>
      </trkpt>
      <trkpt lat="48.51601" lon="3.12366">
        <ele>126.6</ele>
        <time>2021-04-04T13:30:05Z</time>
      </trkpt>
      <trkpt lat="48.516" lon="3.12357">
        <ele>126.5</ele>
        <time>2021-04-04T13:30:09Z</time>
      </trkpt>
      <trkpt lat="48.516" lon="3.1235">
        <ele>126.4</ele>
        <time>2021-04-04T13:30:13Z</time>
      </trkpt>
      <trkpt lat="48.51601" lon="3.12342">
        <ele>126.3</ele>
        <time>2021-04-04T13:30:18Z</time>
      </trkpt>
      <trkpt lat="48.51601" lon="3.12335">
        <ele>126.2</ele>
        <time>2021-04-04T13:30:22Z</time>
      </trkpt>
      <trkpt lat="48.51601" lon="3.12327">
        <ele>126.3</ele>
        <time>2021-04-04T13:30:26Z</time>
      </trkpt>
      <trkpt lat="48.51601" lon="3.1232">
        <ele>126.6</ele>
        <time>2021-04-04T13:30:30Z</time>
      </trkpt>
      <trkpt lat="48.516" lon="3.12313">
        <ele>127</ele>
        <time>2021-04-04T13:30:34Z</time>
      </trkpt>
      <trkpt lat="48.516" lon="3.12306">
        <ele>127.4</ele>
        <time>2021-04-04T13:30:38Z</time>
      </trkpt>
      <trkpt lat="48.516" lon="3.12298">
        <ele>127.9</ele>
        <time>2021-04-04T13:30:43Z</time>
      </trkpt>
      <trkpt lat="48.516" lon="3.12291">
        <ele>128.3</ele>
        <time>2021-04-04T13:30:47Z</time>
      </trkpt>
      <trkpt lat="48.516" lon="3.12284">
        <ele>128.8</ele>
        <time>2021-04-04T13:30:51Z</time>
      </trkpt>
      <trkpt lat="48.51599" lon="3.12277">
        <ele>129.3</ele>
        <time>2021-04-04T13:30:55Z</time>
      </trkpt>
      <trkpt lat="48.51599" lon="3.12269">
        <ele>129.6</ele>
        <time>2021-04-04T13:30:59Z</time>
      </trkpt>
      <trkpt lat="48.51599" lon="3.1226">
        <ele>129.8</ele>
        <time>2021-04-04T13:31:03Z</time>
      </trkpt>
      <trkpt lat="48.51599" lon="3.12253">
        <ele>129.6</ele>
        <time>2021-04-04T13:31:07Z</time>
      </trkpt>
      <trkpt lat="48.51598" lon="3.12245">
        <ele>129.4</ele>
        <time>2021-04-04T13:31:12Z</time>
      </trkpt>
      <trkpt lat="48.51598" lon="3.12238">
        <ele>129.3</ele>
        <time>2021-04-04T13:31:16Z</time>
      </trkpt>
      <trkpt lat="48.51598" lon="3.1223">
        <ele>129.1</ele>
        <time>2021-04-04T13:31:20Z</time>
      </trkpt>
      <trkpt lat="48.51597" lon="3.12223">
        <ele>129</ele>
        <time>2021-04-04T13:31:24Z</time>
      </trkpt>
      <trkpt lat="48.51597" lon="3.12215">
        <ele>128.6</ele>
        <time>2021-04-04T13:31:28Z</time>
      </trkpt>
      <trkpt lat="48.51597" lon="3.12208">
        <ele>128.3</ele>
        <time>2021-04-04T13:31:32Z</time>
      </trkpt>
      <trkpt lat="48.51596" lon="3.122">
        <ele>128</ele>
        <time>2021-04-04T13:31:36Z</time>
      </trkpt>
      <trkpt lat="48.51596" lon="3.12193">
        <ele>127.9</ele>
        <time>2021-04-04T13:31:40Z</time>
      </trkpt>
      <trkpt lat="48.51596" lon="3.12185">
        <ele>127.7</ele>
        <time>2021-04-04T13:31:44Z</time>
      </trkpt>
      <trkpt lat="48.51595" lon="3.12178">
        <ele>127.4</ele>
        <time>2021-04-04T13:31:48Z</time>
      </trkpt>
      <trkpt lat="48.51594" lon="3.1217">
        <ele>127</ele>
        <time>2021-04-04T13:31:52Z</time>
      </trkpt>
      <trkpt lat="48.51593" lon="3.12164">
        <ele>127</ele>
        <time>2021-04-04T13:31:55Z</time>
      </trkpt>
      <trkpt lat="48.51591" lon="3.12156">
        <ele>127.1</ele>
        <time>2021-04-04T13:31:59Z</time>
      </trkpt>
      <trkpt lat="48.5159" lon="3.12148">
        <ele>127.6</ele>
        <time>2021-04-04T13:32:04Z</time>
      </trkpt>
      <trkpt lat="48.51589" lon="3.12141">
        <ele>128</ele>
        <time>2021-04-04T13:32:09Z</time>
      </trkpt>
      <trkpt lat="48.51587" lon="3.12133">
        <ele>128.5</ele>
        <time>2021-04-04T13:32:13Z</time>
      </trkpt>
      <trkpt lat="48.51585" lon="3.12126">
        <ele>128.6</ele>
        <time>2021-04-04T13:32:17Z</time>
      </trkpt>
      <trkpt lat="48.51584" lon="3.1212">
        <ele>128.5</ele>
        <time>2021-04-04T13:32:22Z</time>
      </trkpt>
      <trkpt lat="48.51582" lon="3.12114">
        <ele>128.8</ele>
        <time>2021-04-04T13:32:37Z</time>
      </trkpt>
      <trkpt lat="48.5158" lon="3.12106">
        <ele>129.1</ele>
        <time>2021-04-04T13:32:45Z</time>
      </trkpt>
      <trkpt lat="48.51578" lon="3.12098">
        <ele>129.3</ele>
        <time>2021-04-04T13:32:49Z</time>
      </trkpt>
      <trkpt lat="48.51577" lon="3.12092">
        <ele>129.4</ele>
        <time>2021-04-04T13:32:52Z</time>
      </trkpt>
      <trkpt lat="48.51575" lon="3.12085">
        <ele>129.5</ele>
        <time>2021-04-04T13:32:55Z</time>
      </trkpt>
      <trkpt lat="48.51574" lon="3.12077">
        <ele>129.6</ele>
        <time>2021-04-04T13:32:59Z</time>
      </trkpt>
      <trkpt lat="48.51572" lon="3.12069">
        <ele>129.8</ele>
        <time>2021-04-04T13:33:02Z</time>
      </trkpt>
      <trkpt lat="48.5157" lon="3.12061">
        <ele>129.9</ele>
        <time>2021-04-04T13:33:06Z</time>
      </trkpt>
      <trkpt lat="48.51569" lon="3.12054">
        <ele>130.2</ele>
        <time>2021-04-04T13:33:10Z</time>
      </trkpt>
      <trkpt lat="48.51568" lon="3.12047">
        <ele>130.5</ele>
        <time>2021-04-04T13:33:14Z</time>
      </trkpt>
      <trkpt lat="48.51565" lon="3.12039">
        <ele>131</ele>
        <time>2021-04-04T13:33:18Z</time>
      </trkpt>
      <trkpt lat="48.51564" lon="3.12031">
        <ele>131.3</ele>
        <time>2021-04-04T13:33:22Z</time>
      </trkpt>
      <trkpt lat="48.51563" lon="3.12025">
        <ele>131.3</ele>
        <time>2021-04-04T13:33:25Z</time>
      </trkpt>
      <trkpt lat="48.51563" lon="3.12017">
        <ele>131.3</ele>
        <time>2021-04-04T13:33:29Z</time>
      </trkpt>
      <trkpt lat="48.51563" lon="3.12009">
        <ele>131.3</ele>
        <time>2021-04-04T13:33:33Z</time>
      </trkpt>
      <trkpt lat="48.51562" lon="3.12001">
        <ele>131.4</ele>
        <time>2021-04-04T13:33:37Z</time>
      </trkpt>
      <trkpt lat="48.51561" lon="3.11994">
        <ele>132.6</ele>
        <time>2021-04-04T13:33:43Z</time>
      </trkpt>
      <trkpt lat="48.5156" lon="3.11987">
        <ele>133.9</ele>
        <time>2021-04-04T13:33:48Z</time>
      </trkpt>
      <trkpt lat="48.5156" lon="3.1198">
        <ele>134.5</ele>
        <time>2021-04-04T13:33:52Z</time>
      </trkpt>
      <trkpt lat="48.51559" lon="3.11972">
        <ele>135</ele>
        <time>2021-04-04T13:33:56Z</time>
      </trkpt>
      <trkpt lat="48.51559" lon="3.11964">
        <ele>135.4</ele>
        <time>2021-04-04T13:34:00Z</time>
      </trkpt>
      <trkpt lat="48.51558" lon="3.11957">
        <ele>135.8</ele>
        <time>2021-04-04T13:34:04Z</time>
      </trkpt>
      <trkpt lat="48.51557" lon="3.11948">
        <ele>136.2</ele>
        <time>2021-04-04T13:34:08Z</time>
      </trkpt>
      <trkpt lat="48.51556" lon="3.11941">
        <ele>136.5</ele>
        <time>2021-04-04T13:34:12Z</time>
      </trkpt>
      <trkpt lat="48.51556" lon="3.11933">
        <ele>136.8</ele>
        <time>2021-04-04T13:34:16Z</time>
      </trkpt>
      <trkpt lat="48.51556" lon="3.11925">
        <ele>137</ele>
        <time>2021-04-04T13:34:21Z</time>
      </trkpt>
      <trkpt lat="48.51555" lon="3.11918">
        <ele>137</ele>
        <time>2021-04-04T13:34:25Z</time>
      </trkpt>
      <trkpt lat="48.51554" lon="3.11911">
        <ele>136.9</ele>
        <time>2021-04-04T13:34:29Z</time>
      </trkpt>
      <trkpt lat="48.51553" lon="3.11903">
        <ele>136.7</ele>
        <time>2021-04-04T13:34:33Z</time>
      </trkpt>
      <trkpt lat="48.51553" lon="3.11895">
        <ele>136.5</ele>
        <time>2021-04-04T13:34:38Z</time>
      </trkpt>
      <trkpt lat="48.51552" lon="3.11888">
        <ele>136.4</ele>
        <time>2021-04-04T13:34:43Z</time>
      </trkpt>
      <trkpt lat="48.51552" lon="3.1188">
        <ele>136.4</ele>
        <time>2021-04-04T13:34:48Z</time>
      </trkpt>
      <trkpt lat="48.51551" lon="3.11871">
        <ele>136.4</ele>
        <time>2021-04-04T13:34:53Z</time>
      </trkpt>
      <trkpt lat="48.5155" lon="3.11864">
        <ele>136.6</ele>
        <time>2021-04-04T13:34:58Z</time>
      </trkpt>
      <trkpt lat="48.51547" lon="3.11858">
        <ele>136.8</ele>
        <time>2021-04-04T13:35:02Z</time>
      </trkpt>
      <trkpt lat="48.51544" lon="3.11851">
        <ele>137.1</ele>
        <time>2021-04-04T13:35:06Z</time>
      </trkpt>
      <trkpt lat="48.51541" lon="3.11844">
        <ele>137.4</ele>
        <time>2021-04-04T13:35:11Z</time>
      </trkpt>
      <trkpt lat="48.51541" lon="3.11837">
        <ele>137.7</ele>
        <time>2021-04-04T13:35:16Z</time>
      </trkpt>
      <trkpt lat="48.5154" lon="3.1183">
        <ele>137.8</ele>
        <time>2021-04-04T13:35:21Z</time>
      </trkpt>
      <trkpt lat="48.51539" lon="3.11823">
        <ele>137.5</ele>
        <time>2021-04-04T13:35:25Z</time>
      </trkpt>
      <trkpt lat="48.51539" lon="3.11816">
        <ele>137.3</ele>
        <time>2021-04-04T13:35:29Z</time>
      </trkpt>
      <trkpt lat="48.51538" lon="3.11809">
        <ele>137.1</ele>
        <time>2021-04-04T13:35:33Z</time>
      </trkpt>
      <trkpt lat="48.51537" lon="3.11802">
        <ele>137.1</ele>
        <time>2021-04-04T13:35:38Z</time>
      </trkpt>
      <trkpt lat="48.51537" lon="3.11795">
        <ele>137.1</ele>
        <time>2021-04-04T13:35:43Z</time>
      </trkpt>
      <trkpt lat="48.51536" lon="3.11788">
        <ele>137</ele>
        <time>2021-04-04T13:35:47Z</time>
      </trkpt>
      <trkpt lat="48.51535" lon="3.1178">
        <ele>136.8</ele>
        <time>2021-04-04T13:35:51Z</time>
      </trkpt>
      <trkpt lat="48.51535" lon="3.11771">
        <ele>136.5</ele>
        <time>2021-04-04T13:35:56Z</time>
      </trkpt>
      <trkpt lat="48.51534" lon="3.11764">
        <ele>136.4</ele>
        <time>2021-04-04T13:36:00Z</time>
      </trkpt>
      <trkpt lat="48.51532" lon="3.11757">
        <ele>136.4</ele>
        <time>2021-04-04T13:36:03Z</time>
      </trkpt>
      <trkpt lat="48.51531" lon="3.1175">
        <ele>136.5</ele>
        <time>2021-04-04T13:36:06Z</time>
      </trkpt>
      <trkpt lat="48.51529" lon="3.11743">
        <ele>136.2</ele>
        <time>2021-04-04T13:36:10Z</time>
      </trkpt>
      <trkpt lat="48.51527" lon="3.11737">
        <ele>135.7</ele>
        <time>2021-04-04T13:36:17Z</time>
      </trkpt>
      <trkpt lat="48.51525" lon="3.11729">
        <ele>135.8</ele>
        <time>2021-04-04T13:36:21Z</time>
      </trkpt>
      <trkpt lat="48.51523" lon="3.11723">
        <ele>136.1</ele>
        <time>2021-04-04T13:36:25Z</time>
      </trkpt>
      <trkpt lat="48.51521" lon="3.11716">
        <ele>136.3</ele>
        <time>2021-04-04T13:36:29Z</time>
      </trkpt>
      <trkpt lat="48.51518" lon="3.11709">
        <ele>136.6</ele>
        <time>2021-04-04T13:36:33Z</time>
      </trkpt>
      <trkpt lat="48.51516" lon="3.11702">
        <ele>136.9</ele>
        <time>2021-04-04T13:36:37Z</time>
      </trkpt>
      <trkpt lat="48.51514" lon="3.11695">
        <ele>137.3</ele>
        <time>2021-04-04T13:36:41Z</time>
      </trkpt>
      <trkpt lat="48.51512" lon="3.11688">
        <ele>137.6</ele>
        <time>2021-04-04T13:36:45Z</time>
      </trkpt>
      <trkpt lat="48.5151" lon="3.11681">
        <ele>137.7</ele>
        <time>2021-04-04T13:36:49Z</time>
      </trkpt>
      <trkpt lat="48.51508" lon="3.11674">
        <ele>137.7</ele>
        <time>2021-04-04T13:36:53Z</time>
      </trkpt>
      <trkpt lat="48.51506" lon="3.11668">
        <ele>137.6</ele>
        <time>2021-04-04T13:36:57Z</time>
      </trkpt>
      <trkpt lat="48.51505" lon="3.11661">
        <ele>137.2</ele>
        <time>2021-04-04T13:37:01Z</time>
      </trkpt>
      <trkpt lat="48.51503" lon="3.11655">
        <ele>136.8</ele>
        <time>2021-04-04T13:37:05Z</time>
      </trkpt>
      <trkpt lat="48.51501" lon="3.11648">
        <ele>136.4</ele>
        <time>2021-04-04T13:37:09Z</time>
      </trkpt>
      <trkpt lat="48.51499" lon="3.1164">
        <ele>135.9</ele>
        <time>2021-04-04T13:37:14Z</time>
      </trkpt>
      <trkpt lat="48.51497" lon="3.11634">
        <ele>135.6</ele>
        <time>2021-04-04T13:37:18Z</time>
      </trkpt>
      <trkpt lat="48.51494" lon="3.11627">
        <ele>135.3</ele>
        <time>2021-04-04T13:37:22Z</time>
      </trkpt>
      <trkpt lat="48.51491" lon="3.11621">
        <ele>135</ele>
        <time>2021-04-04T13:37:26Z</time>
      </trkpt>
      <trkpt lat="48.51489" lon="3.11615">
        <ele>134.6</ele>
        <time>2021-04-04T13:37:30Z</time>
      </trkpt>
      <trkpt lat="48.51487" lon="3.11608">
        <ele>134.3</ele>
        <time>2021-04-04T13:37:34Z</time>
      </trkpt>
      <trkpt lat="48.51484" lon="3.116">
        <ele>134.1</ele>
        <time>2021-04-04T13:37:38Z</time>
      </trkpt>
      <trkpt lat="48.51482" lon="3.11594">
        <ele>134.2</ele>
        <time>2021-04-04T13:37:42Z</time>
      </trkpt>
      <trkpt lat="48.51481" lon="3.11587">
        <ele>134.1</ele>
        <time>2021-04-04T13:37:46Z</time>
      </trkpt>
      <trkpt lat="48.5148" lon="3.1158">
        <ele>133.7</ele>
        <time>2021-04-04T13:37:50Z</time>
      </trkpt>
      <trkpt lat="48.5148" lon="3.11573">
        <ele>133.8</ele>
        <time>2021-04-04T13:37:55Z</time>
      </trkpt>
      <trkpt lat="48.51481" lon="3.11565">
        <ele>133.9</ele>
        <time>2021-04-04T13:38:00Z</time>
      </trkpt>
      <trkpt lat="48.51482" lon="3.11558">
        <ele>133.8</ele>
        <time>2021-04-04T13:38:04Z</time>
      </trkpt>
      <trkpt lat="48.51485" lon="3.11552">
        <ele>133.7</ele>
        <time>2021-04-04T13:38:08Z</time>
      </trkpt>
      <trkpt lat="48.51488" lon="3.11547">
        <ele>133.8</ele>
        <time>2021-04-04T13:38:12Z</time>
      </trkpt>
      <trkpt lat="48.51489" lon="3.11539">
        <ele>134.1</ele>
        <time>2021-04-04T13:38:16Z</time>
      </trkpt>
      <trkpt lat="48.51489" lon="3.11531">
        <ele>134.3</ele>
        <time>2021-04-04T13:38:20Z</time>
      </trkpt>
      <trkpt lat="48.51491" lon="3.11524">
        <ele>134.4</ele>
        <time>2021-04-04T13:38:24Z</time>
      </trkpt>
      <trkpt lat="48.51494" lon="3.11518">
        <ele>134.4</ele>
        <time>2021-04-04T13:38:28Z</time>
      </trkpt>
      <trkpt lat="48.51497" lon="3.11512">
        <ele>134.4</ele>
        <time>2021-04-04T13:38:32Z</time>
      </trkpt>
      <trkpt lat="48.51499" lon="3.11505">
        <ele>134.3</ele>
        <time>2021-04-04T13:38:37Z</time>
      </trkpt>
      <trkpt lat="48.51501" lon="3.11498">
        <ele>134.3</ele>
        <time>2021-04-04T13:38:41Z</time>
      </trkpt>
      <trkpt lat="48.51502" lon="3.1149">
        <ele>134.2</ele>
        <time>2021-04-04T13:38:45Z</time>
      </trkpt>
      <trkpt lat="48.51504" lon="3.11484">
        <ele>134.3</ele>
        <time>2021-04-04T13:38:50Z</time>
      </trkpt>
      <trkpt lat="48.51506" lon="3.11477">
        <ele>134.5</ele>
        <time>2021-04-04T13:38:55Z</time>
      </trkpt>
      <trkpt lat="48.51507" lon="3.11469">
        <ele>134.3</ele>
        <time>2021-04-04T13:38:59Z</time>
      </trkpt>
      <trkpt lat="48.51508" lon="3.11461">
        <ele>134</ele>
        <time>2021-04-04T13:39:03Z</time>
      </trkpt>
      <trkpt lat="48.51508" lon="3.11453">
        <ele>134</ele>
        <time>2021-04-04T13:39:07Z</time>
      </trkpt>
      <trkpt lat="48.51508" lon="3.11446">
        <ele>134.9</ele>
        <time>2021-04-04T13:39:11Z</time>
      </trkpt>
      <trkpt lat="48.51507" lon="3.11438">
        <ele>136.2</ele>
        <time>2021-04-04T13:39:15Z</time>
      </trkpt>
      <trkpt lat="48.51507" lon="3.11432">
        <ele>137.4</ele>
        <time>2021-04-04T13:39:19Z</time>
      </trkpt>
      <trkpt lat="48.51512" lon="3.11427">
        <ele>138.7</ele>
        <time>2021-04-04T13:39:27Z</time>
      </trkpt>
      <trkpt lat="48.51512" lon="3.11419">
        <ele>139</ele>
        <time>2021-04-04T13:39:32Z</time>
      </trkpt>
      <trkpt lat="48.51512" lon="3.11412">
        <ele>138.9</ele>
        <time>2021-04-04T13:39:35Z</time>
      </trkpt>
      <trkpt lat="48.51512" lon="3.11404">
        <ele>138.7</ele>
        <time>2021-04-04T13:39:39Z</time>
      </trkpt>
      <trkpt lat="48.51514" lon="3.11397">
        <ele>138.3</ele>
        <time>2021-04-04T13:39:43Z</time>
      </trkpt>
      <trkpt lat="48.51514" lon="3.11389">
        <ele>138</ele>
        <time>2021-04-04T13:39:47Z</time>
      </trkpt>
      <trkpt lat="48.51515" lon="3.11381">
        <ele>137.6</ele>
        <time>2021-04-04T13:39:51Z</time>
      </trkpt>
      <trkpt lat="48.51516" lon="3.11373">
        <ele>137.2</ele>
        <time>2021-04-04T13:39:55Z</time>
      </trkpt>
      <trkpt lat="48.51515" lon="3.11366">
        <ele>137.1</ele>
        <time>2021-04-04T13:39:59Z</time>
      </trkpt>
      <trkpt lat="48.51515" lon="3.11358">
        <ele>137.2</ele>
        <time>2021-04-04T13:40:03Z</time>
      </trkpt>
      <trkpt lat="48.51516" lon="3.11351">
        <ele>137.4</ele>
        <time>2021-04-04T13:40:07Z</time>
      </trkpt>
      <trkpt lat="48.51516" lon="3.11344">
        <ele>137.6</ele>
        <time>2021-04-04T13:40:11Z</time>
      </trkpt>
      <trkpt lat="48.51517" lon="3.11336">
        <ele>137.7</ele>
        <time>2021-04-04T13:40:15Z</time>
      </trkpt>
      <trkpt lat="48.51518" lon="3.11329">
        <ele>137.6</ele>
        <time>2021-04-04T13:40:19Z</time>
      </trkpt>
      <trkpt lat="48.51518" lon="3.11321">
        <ele>137.4</ele>
        <time>2021-04-04T13:40:23Z</time>
      </trkpt>
      <trkpt lat="48.51518" lon="3.11313">
        <ele>137.2</ele>
        <time>2021-04-04T13:40:27Z</time>
      </trkpt>
      <trkpt lat="48.51519" lon="3.11306">
        <ele>136.8</ele>
        <time>2021-04-04T13:40:31Z</time>
      </trkpt>
      <trkpt lat="48.5152" lon="3.11298">
        <ele>136.3</ele>
        <time>2021-04-04T13:40:36Z</time>
      </trkpt>
      <trkpt lat="48.51519" lon="3.11291">
        <ele>135.9</ele>
        <time>2021-04-04T13:40:40Z</time>
      </trkpt>
      <trkpt lat="48.5152" lon="3.11284">
        <ele>135.7</ele>
        <time>2021-04-04T13:40:44Z</time>
      </trkpt>
      <trkpt lat="48.5152" lon="3.11276">
        <ele>135.6</ele>
        <time>2021-04-04T13:40:48Z</time>
      </trkpt>
      <trkpt lat="48.51522" lon="3.11269">
        <ele>135.4</ele>
        <time>2021-04-04T13:40:52Z</time>
      </trkpt>
      <trkpt lat="48.51524" lon="3.11262">
        <ele>135.2</ele>
        <time>2021-04-04T13:40:56Z</time>
      </trkpt>
      <trkpt lat="48.51524" lon="3.11255">
        <ele>135.1</ele>
        <time>2021-04-04T13:41:00Z</time>
      </trkpt>
      <trkpt lat="48.51524" lon="3.11247">
        <ele>135.1</ele>
        <time>2021-04-04T13:41:05Z</time>
      </trkpt>
      <trkpt lat="48.51523" lon="3.11239">
        <ele>134.9</ele>
        <time>2021-04-04T13:41:10Z</time>
      </trkpt>
      <trkpt lat="48.51523" lon="3.11231">
        <ele>134.9</ele>
        <time>2021-04-04T13:41:14Z</time>
      </trkpt>
      <trkpt lat="48.51522" lon="3.11224">
        <ele>134.8</ele>
        <time>2021-04-04T13:41:17Z</time>
      </trkpt>
      <trkpt lat="48.5152" lon="3.11216">
        <ele>134.7</ele>
        <time>2021-04-04T13:41:20Z</time>
      </trkpt>
      <trkpt lat="48.5152" lon="3.11209">
        <ele>134.5</ele>
        <time>2021-04-04T13:41:23Z</time>
      </trkpt>
      <trkpt lat="48.51518" lon="3.11202">
        <ele>134.2</ele>
        <time>2021-04-04T13:41:27Z</time>
      </trkpt>
      <trkpt lat="48.51517" lon="3.11194">
        <ele>134.1</ele>
        <time>2021-04-04T13:41:32Z</time>
      </trkpt>
      <trkpt lat="48.51516" lon="3.11188">
        <ele>134.3</ele>
        <time>2021-04-04T13:41:37Z</time>
      </trkpt>
      <trkpt lat="48.51515" lon="3.11179">
        <ele>134.5</ele>
        <time>2021-04-04T13:41:42Z</time>
      </trkpt>
      <trkpt lat="48.51514" lon="3.11172">
        <ele>134.8</ele>
        <time>2021-04-04T13:41:46Z</time>
      </trkpt>
      <trkpt lat="48.51513" lon="3.11165">
        <ele>135.3</ele>
        <time>2021-04-04T13:41:50Z</time>
      </trkpt>
      <trkpt lat="48.51514" lon="3.11158">
        <ele>135.7</ele>
        <time>2021-04-04T13:41:54Z</time>
      </trkpt>
      <trkpt lat="48.51514" lon="3.1115">
        <ele>135.8</ele>
        <time>2021-04-04T13:41:58Z</time>
      </trkpt>
      <trkpt lat="48.51514" lon="3.11142">
        <ele>136</ele>
        <time>2021-04-04T13:42:03Z</time>
      </trkpt>
      <trkpt lat="48.51513" lon="3.11134">
        <ele>136.1</ele>
        <time>2021-04-04T13:42:07Z</time>
      </trkpt>
      <trkpt lat="48.51513" lon="3.11125">
        <ele>136.2</ele>
        <time>2021-04-04T13:42:11Z</time>
      </trkpt>
      <trkpt lat="48.51513" lon="3.11118">
        <ele>136.4</ele>
        <time>2021-04-04T13:42:14Z</time>
      </trkpt>
      <trkpt lat="48.51513" lon="3.11111">
        <ele>136.6</ele>
        <time>2021-04-04T13:42:17Z</time>
      </trkpt>
      <trkpt lat="48.51513" lon="3.11102">
        <ele>136.6</ele>
        <time>2021-04-04T13:42:21Z</time>
      </trkpt>
      <trkpt lat="48.51515" lon="3.11095">
        <ele>136.5</ele>
        <time>2021-04-04T13:42:25Z</time>
      </trkpt>
      <trkpt lat="48.51516" lon="3.11087">
        <ele>136.2</ele>
        <time>2021-04-04T13:42:29Z</time>
      </trkpt>
      <trkpt lat="48.51517" lon="3.11079">
        <ele>135.9</ele>
        <time>2021-04-04T13:42:33Z</time>
      </trkpt>
      <trkpt lat="48.5152" lon="3.11072">
        <ele>135.5</ele>
        <time>2021-04-04T13:42:37Z</time>
      </trkpt>
      <trkpt lat="48.51521" lon="3.11064">
        <ele>135.2</ele>
        <time>2021-04-04T13:42:41Z</time>
      </trkpt>
      <trkpt lat="48.51522" lon="3.11057">
        <ele>135.1</ele>
        <time>2021-04-04T13:42:45Z</time>
      </trkpt>
      <trkpt lat="48.51523" lon="3.1105">
        <ele>134.7</ele>
        <time>2021-04-04T13:42:49Z</time>
      </trkpt>
      <trkpt lat="48.51525" lon="3.11043">
        <ele>134.5</ele>
        <time>2021-04-04T13:42:53Z</time>
      </trkpt>
      <trkpt lat="48.51527" lon="3.11037">
        <ele>134.1</ele>
        <time>2021-04-04T13:42:57Z</time>
      </trkpt>
      <trkpt lat="48.51529" lon="3.11029">
        <ele>133.4</ele>
        <time>2021-04-04T13:43:02Z</time>
      </trkpt>
      <trkpt lat="48.5153" lon="3.11022">
        <ele>132.7</ele>
        <time>2021-04-04T13:43:06Z</time>
      </trkpt>
      <trkpt lat="48.5153" lon="3.11014">
        <ele>132.1</ele>
        <time>2021-04-04T13:43:10Z</time>
      </trkpt>
      <trkpt lat="48.51531" lon="3.11006">
        <ele>131.8</ele>
        <time>2021-04-04T13:43:14Z</time>
      </trkpt>
      <trkpt lat="48.51531" lon="3.10999">
        <ele>131.5</ele>
        <time>2021-04-04T13:43:18Z</time>
      </trkpt>
      <trkpt lat="48.51533" lon="3.10992">
        <ele>131.2</ele>
        <time>2021-04-04T13:43:23Z</time>
      </trkpt>
      <trkpt lat="48.51534" lon="3.10983">
        <ele>131</ele>
        <time>2021-04-04T13:43:27Z</time>
      </trkpt>
      <trkpt lat="48.51535" lon="3.10976">
        <ele>130.8</ele>
        <time>2021-04-04T13:43:31Z</time>
      </trkpt>
      <trkpt lat="48.51537" lon="3.10969">
        <ele>130.5</ele>
        <time>2021-04-04T13:43:35Z</time>
      </trkpt>
      <trkpt lat="48.51541" lon="3.10963">
        <ele>130.1</ele>
        <time>2021-04-04T13:43:40Z</time>
      </trkpt>
      <trkpt lat="48.51544" lon="3.10957">
        <ele>129.7</ele>
        <time>2021-04-04T13:43:45Z</time>
      </trkpt>
      <trkpt lat="48.51546" lon="3.10951">
        <ele>129.6</ele>
        <time>2021-04-04T13:43:49Z</time>
      </trkpt>
      <trkpt lat="48.51549" lon="3.10944">
        <ele>129.6</ele>
        <time>2021-04-04T13:43:53Z</time>
      </trkpt>
      <trkpt lat="48.51552" lon="3.10938">
        <ele>129.5</ele>
        <time>2021-04-04T13:43:57Z</time>
      </trkpt>
      <trkpt lat="48.51554" lon="3.10931">
        <ele>129.7</ele>
        <time>2021-04-04T13:44:01Z</time>
      </trkpt>
      <trkpt lat="48.51555" lon="3.10924">
        <ele>130.5</ele>
        <time>2021-04-04T13:44:06Z</time>
      </trkpt>
      <trkpt lat="48.51555" lon="3.10916">
        <ele>130.9</ele>
        <time>2021-04-04T13:44:11Z</time>
      </trkpt>
      <trkpt lat="48.51555" lon="3.10909">
        <ele>131.3</ele>
        <time>2021-04-04T13:44:17Z</time>
      </trkpt>
      <trkpt lat="48.51556" lon="3.10901">
        <ele>131.6</ele>
        <time>2021-04-04T13:44:22Z</time>
      </trkpt>
      <trkpt lat="48.51556" lon="3.10894">
        <ele>131.7</ele>
        <time>2021-04-04T13:44:26Z</time>
      </trkpt>
      <trkpt lat="48.51556" lon="3.10885">
        <ele>131.6</ele>
        <time>2021-04-04T13:44:30Z</time>
      </trkpt>
      <trkpt lat="48.51556" lon="3.10876">
        <ele>131.6</ele>
        <time>2021-04-04T13:44:34Z</time>
      </trkpt>
      <trkpt lat="48.51555" lon="3.10868">
        <ele>131.4</ele>
        <time>2021-04-04T13:44:37Z</time>
      </trkpt>
      <trkpt lat="48.51556" lon="3.10859">
        <ele>131.3</ele>
        <time>2021-04-04T13:44:41Z</time>
      </trkpt>
      <trkpt lat="48.51555" lon="3.10852">
        <ele>131.4</ele>
        <time>2021-04-04T13:44:45Z</time>
      </trkpt>
      <trkpt lat="48.51555" lon="3.10844">
        <ele>131.4</ele>
        <time>2021-04-04T13:44:49Z</time>
      </trkpt>
      <trkpt lat="48.51556" lon="3.10838">
        <ele>131.5</ele>
        <time>2021-04-04T13:44:52Z</time>
      </trkpt>
      <trkpt lat="48.51556" lon="3.1083">
        <ele>131.3</ele>
        <time>2021-04-04T13:44:55Z</time>
      </trkpt>
      <trkpt lat="48.51555" lon="3.10821">
        <ele>131.3</ele>
        <time>2021-04-04T13:44:59Z</time>
      </trkpt>
      <trkpt lat="48.51556" lon="3.10814">
        <ele>131</ele>
        <time>2021-04-04T13:45:03Z</time>
      </trkpt>
      <trkpt lat="48.51557" lon="3.10807">
        <ele>130.3</ele>
        <time>2021-04-04T13:45:07Z</time>
      </trkpt>
      <trkpt lat="48.51558" lon="3.10799">
        <ele>130</ele>
        <time>2021-04-04T13:45:11Z</time>
      </trkpt>
      <trkpt lat="48.5156" lon="3.10791">
        <ele>130</ele>
        <time>2021-04-04T13:45:16Z</time>
      </trkpt>
      <trkpt lat="48.51563" lon="3.10784">
        <ele>129.6</ele>
        <time>2021-04-04T13:45:22Z</time>
      </trkpt>
      <trkpt lat="48.51564" lon="3.10777">
        <ele>129.2</ele>
        <time>2021-04-04T13:45:26Z</time>
      </trkpt>
      <trkpt lat="48.51564" lon="3.1077">
        <ele>129.3</ele>
        <time>2021-04-04T13:45:29Z</time>
      </trkpt>
      <trkpt lat="48.51564" lon="3.10762">
        <ele>129.3</ele>
        <time>2021-04-04T13:45:33Z</time>
      </trkpt>
      <trkpt lat="48.51565" lon="3.10755">
        <ele>129.7</ele>
        <time>2021-04-04T13:45:37Z</time>
      </trkpt>
      <trkpt lat="48.51567" lon="3.10748">
        <ele>130.1</ele>
        <time>2021-04-04T13:45:41Z</time>
      </trkpt>
      <trkpt lat="48.51568" lon="3.10741">
        <ele>130.7</ele>
        <time>2021-04-04T13:45:45Z</time>
      </trkpt>
      <trkpt lat="48.51567" lon="3.10734">
        <ele>131</ele>
        <time>2021-04-04T13:45:48Z</time>
      </trkpt>
      <trkpt lat="48.51567" lon="3.10727">
        <ele>131.4</ele>
        <time>2021-04-04T13:45:52Z</time>
      </trkpt>
      <trkpt lat="48.51569" lon="3.1072">
        <ele>131.6</ele>
        <time>2021-04-04T13:45:56Z</time>
      </trkpt>
      <trkpt lat="48.5157" lon="3.10713">
        <ele>132</ele>
        <time>2021-04-04T13:46:00Z</time>
      </trkpt>
      <trkpt lat="48.51572" lon="3.10706">
        <ele>132.3</ele>
        <time>2021-04-04T13:46:04Z</time>
      </trkpt>
      <trkpt lat="48.51574" lon="3.10699">
        <ele>132.2</ele>
        <time>2021-04-04T13:46:09Z</time>
      </trkpt>
      <trkpt lat="48.51577" lon="3.10691">
        <ele>131.7</ele>
        <time>2021-04-04T13:46:13Z</time>
      </trkpt>
      <trkpt lat="48.51575" lon="3.10684">
        <ele>131.3</ele>
        <time>2021-04-04T13:46:18Z</time>
      </trkpt>
      <trkpt lat="48.51572" lon="3.10677">
        <ele>130.9</ele>
        <time>2021-04-04T13:46:22Z</time>
      </trkpt>
      <trkpt lat="48.51569" lon="3.10672">
        <ele>130.6</ele>
        <time>2021-04-04T13:46:25Z</time>
      </trkpt>
      <trkpt lat="48.51565" lon="3.10667">
        <ele>130.1</ele>
        <time>2021-04-04T13:46:29Z</time>
      </trkpt>
      <trkpt lat="48.51561" lon="3.10662">
        <ele>129.5</ele>
        <time>2021-04-04T13:46:34Z</time>
      </trkpt>
      <trkpt lat="48.51558" lon="3.10656">
        <ele>129.2</ele>
        <time>2021-04-04T13:46:39Z</time>
      </trkpt>
      <trkpt lat="48.51554" lon="3.10651">
        <ele>129.3</ele>
        <time>2021-04-04T13:46:43Z</time>
      </trkpt>
      <trkpt lat="48.51552" lon="3.10643">
        <ele>129.9</ele>
        <time>2021-04-04T13:46:48Z</time>
      </trkpt>
      <trkpt lat="48.51551" lon="3.10636">
        <ele>130.1</ele>
        <time>2021-04-04T13:46:52Z</time>
      </trkpt>
      <trkpt lat="48.5155" lon="3.10629">
        <ele>130.3</ele>
        <time>2021-04-04T13:46:56Z</time>
      </trkpt>
      <trkpt lat="48.51551" lon="3.10621">
        <ele>130.6</ele>
        <time>2021-04-04T13:47:01Z</time>
      </trkpt>
      <trkpt lat="48.51551" lon="3.10614">
        <ele>130.7</ele>
        <time>2021-04-04T13:47:05Z</time>
      </trkpt>
      <trkpt lat="48.5155" lon="3.10607">
        <ele>130.2</ele>
        <time>2021-04-04T13:47:09Z</time>
      </trkpt>
      <trkpt lat="48.51552" lon="3.10599">
        <ele>130</ele>
        <time>2021-04-04T13:47:14Z</time>
      </trkpt>
      <trkpt lat="48.51553" lon="3.10591">
        <ele>129.9</ele>
        <time>2021-04-04T13:47:18Z</time>
      </trkpt>
      <trkpt lat="48.51554" lon="3.10584">
        <ele>129.8</ele>
        <time>2021-04-04T13:47:22Z</time>
      </trkpt>
      <trkpt lat="48.51555" lon="3.10577">
        <ele>129.4</ele>
        <time>2021-04-04T13:47:26Z</time>
      </trkpt>
      <trkpt lat="48.51556" lon="3.1057">
        <ele>128.9</ele>
        <time>2021-04-04T13:47:30Z</time>
      </trkpt>
      <trkpt lat="48.51557" lon="3.10563">
        <ele>128.6</ele>
        <time>2021-04-04T13:47:34Z</time>
      </trkpt>
      <trkpt lat="48.51556" lon="3.10555">
        <ele>128.7</ele>
        <time>2021-04-04T13:47:37Z</time>
      </trkpt>
      <trkpt lat="48.51558" lon="3.10547">
        <ele>129.1</ele>
        <time>2021-04-04T13:47:42Z</time>
      </trkpt>
      <trkpt lat="48.51558" lon="3.1054">
        <ele>129.4</ele>
        <time>2021-04-04T13:47:46Z</time>
      </trkpt>
      <trkpt lat="48.51558" lon="3.10532">
        <ele>129.4</ele>
        <time>2021-04-04T13:47:50Z</time>
      </trkpt>
      <trkpt lat="48.51558" lon="3.10524">
        <ele>128.9</ele>
        <time>2021-04-04T13:47:54Z</time>
      </trkpt>
      <trkpt lat="48.5156" lon="3.10517">
        <ele>128.5</ele>
        <time>2021-04-04T13:47:58Z</time>
      </trkpt>
      <trkpt lat="48.51561" lon="3.10509">
        <ele>128.4</ele>
        <time>2021-04-04T13:48:03Z</time>
      </trkpt>
      <trkpt lat="48.5156" lon="3.105">
        <ele>128.6</ele>
        <time>2021-04-04T13:48:07Z</time>
      </trkpt>
      <trkpt lat="48.51561" lon="3.10493">
        <ele>129.2</ele>
        <time>2021-04-04T13:48:11Z</time>
      </trkpt>
      <trkpt lat="48.51563" lon="3.10487">
        <ele>129.7</ele>
        <time>2021-04-04T13:48:15Z</time>
      </trkpt>
      <trkpt lat="48.51564" lon="3.10478">
        <ele>130.2</ele>
        <time>2021-04-04T13:48:20Z</time>
      </trkpt>
      <trkpt lat="48.51564" lon="3.1047">
        <ele>130.3</ele>
        <time>2021-04-04T13:48:23Z</time>
      </trkpt>
      <trkpt lat="48.51563" lon="3.10463">
        <ele>130.3</ele>
        <time>2021-04-04T13:48:26Z</time>
      </trkpt>
      <trkpt lat="48.51563" lon="3.10455">
        <ele>130.3</ele>
        <time>2021-04-04T13:48:30Z</time>
      </trkpt>
      <trkpt lat="48.51565" lon="3.10448">
        <ele>130.5</ele>
        <time>2021-04-04T13:48:35Z</time>
      </trkpt>
      <trkpt lat="48.51565" lon="3.10441">
        <ele>130.5</ele>
        <time>2021-04-04T13:48:39Z</time>
      </trkpt>
      <trkpt lat="48.51563" lon="3.10433">
        <ele>130.3</ele>
        <time>2021-04-04T13:48:43Z</time>
      </trkpt>
      <trkpt lat="48.51562" lon="3.10424">
        <ele>130.4</ele>
        <time>2021-04-04T13:48:47Z</time>
      </trkpt>
      <trkpt lat="48.51561" lon="3.10417">
        <ele>130.5</ele>
        <time>2021-04-04T13:48:50Z</time>
      </trkpt>
      <trkpt lat="48.5156" lon="3.10409">
        <ele>130.4</ele>
        <time>2021-04-04T13:48:54Z</time>
      </trkpt>
      <trkpt lat="48.51559" lon="3.10402">
        <ele>130.2</ele>
        <time>2021-04-04T13:48:58Z</time>
      </trkpt>
      <trkpt lat="48.51558" lon="3.10394">
        <ele>129.7</ele>
        <time>2021-04-04T13:49:03Z</time>
      </trkpt>
      <trkpt lat="48.51557" lon="3.10386">
        <ele>129</ele>
        <time>2021-04-04T13:49:08Z</time>
      </trkpt>
      <trkpt lat="48.51556" lon="3.10379">
        <ele>128.5</ele>
        <time>2021-04-04T13:49:12Z</time>
      </trkpt>
      <trkpt lat="48.51554" lon="3.10372">
        <ele>128</ele>
        <time>2021-04-04T13:49:16Z</time>
      </trkpt>
      <trkpt lat="48.51552" lon="3.10366">
        <ele>127.6</ele>
        <time>2021-04-04T13:49:20Z</time>
      </trkpt>
      <trkpt lat="48.51549" lon="3.1036">
        <ele>126.9</ele>
        <time>2021-04-04T13:49:24Z</time>
      </trkpt>
      <trkpt lat="48.51546" lon="3.10354">
        <ele>126.1</ele>
        <time>2021-04-04T13:49:28Z</time>
      </trkpt>
      <trkpt lat="48.51542" lon="3.1035">
        <ele>125.2</ele>
        <time>2021-04-04T13:49:32Z</time>
      </trkpt>
      <trkpt lat="48.51537" lon="3.10346">
        <ele>124.1</ele>
        <time>2021-04-04T13:49:37Z</time>
      </trkpt>
      <trkpt lat="48.51532" lon="3.10341">
        <ele>123</ele>
        <time>2021-04-04T13:49:42Z</time>
      </trkpt>
      <trkpt lat="48.51528" lon="3.10337">
        <ele>122.1</ele>
        <time>2021-04-04T13:49:47Z</time>
      </trkpt>
      <trkpt lat="48.51524" lon="3.10333">
        <ele>121.2</ele>
        <time>2021-04-04T13:49:52Z</time>
      </trkpt>
      <trkpt lat="48.51519" lon="3.10332">
        <ele>120.4</ele>
        <time>2021-04-04T13:49:56Z</time>
      </trkpt>
      <trkpt lat="48.51515" lon="3.10331">
        <ele>119.5</ele>
        <time>2021-04-04T13:50:00Z</time>
      </trkpt>
      <trkpt lat="48.51509" lon="3.10331">
        <ele>118.6</ele>
        <time>2021-04-04T13:50:04Z</time>
      </trkpt>
      <trkpt lat="48.51505" lon="3.1033">
        <ele>117.9</ele>
        <time>2021-04-04T13:50:08Z</time>
      </trkpt>
      <trkpt lat="48.51499" lon="3.10328">
        <ele>117</ele>
        <time>2021-04-04T13:50:13Z</time>
      </trkpt>
      <trkpt lat="48.51494" lon="3.10327">
        <ele>116.1</ele>
        <time>2021-04-04T13:50:17Z</time>
      </trkpt>
      <trkpt lat="48.51489" lon="3.10327">
        <ele>115.2</ele>
        <time>2021-04-04T13:50:22Z</time>
      </trkpt>
      <trkpt lat="48.51484" lon="3.10329">
        <ele>114.8</ele>
        <time>2021-04-04T13:50:27Z</time>
      </trkpt>
      <trkpt lat="48.51479" lon="3.10328">
        <ele>114.3</ele>
        <time>2021-04-04T13:50:32Z</time>
      </trkpt>
      <trkpt lat="48.51473" lon="3.10327">
        <ele>113.7</ele>
        <time>2021-04-04T13:50:37Z</time>
      </trkpt>
      <trkpt lat="48.51468" lon="3.10325">
        <ele>113.2</ele>
        <time>2021-04-04T13:50:41Z</time>
      </trkpt>
      <trkpt lat="48.51463" lon="3.10324">
        <ele>112.6</ele>
        <time>2021-04-04T13:50:45Z</time>
      </trkpt>
      <trkpt lat="48.51458" lon="3.10323">
        <ele>112</ele>
        <time>2021-04-04T13:50:50Z</time>
      </trkpt>
      <trkpt lat="48.51453" lon="3.10323">
        <ele>111.7</ele>
        <time>2021-04-04T13:50:53Z</time>
      </trkpt>
      <trkpt lat="48.51448" lon="3.10323">
        <ele>111.5</ele>
        <time>2021-04-04T13:50:57Z</time>
      </trkpt>
      <trkpt lat="48.51443" lon="3.10323">
        <ele>111.4</ele>
        <time>2021-04-04T13:51:01Z</time>
      </trkpt>
      <trkpt lat="48.51438" lon="3.10323">
        <ele>111.3</ele>
        <time>2021-04-04T13:51:06Z</time>
      </trkpt>
      <trkpt lat="48.51433" lon="3.10323">
        <ele>111.6</ele>
        <time>2021-04-04T13:51:11Z</time>
      </trkpt>
      <trkpt lat="48.51428" lon="3.10322">
        <ele>112.2</ele>
        <time>2021-04-04T13:51:16Z</time>
      </trkpt>
      <trkpt lat="48.51423" lon="3.10323">
        <ele>112.5</ele>
        <time>2021-04-04T13:51:21Z</time>
      </trkpt>
      <trkpt lat="48.51418" lon="3.10324">
        <ele>112.5</ele>
        <time>2021-04-04T13:51:26Z</time>
      </trkpt>
      <trkpt lat="48.51412" lon="3.10324">
        <ele>112.7</ele>
        <time>2021-04-04T13:51:31Z</time>
      </trkpt>
      <trkpt lat="48.51407" lon="3.10323">
        <ele>112.6</ele>
        <time>2021-04-04T13:51:36Z</time>
      </trkpt>
      <trkpt lat="48.51402" lon="3.10324">
        <ele>112.3</ele>
        <time>2021-04-04T13:51:40Z</time>
      </trkpt>
      <trkpt lat="48.51396" lon="3.10324">
        <ele>112.1</ele>
        <time>2021-04-04T13:51:44Z</time>
      </trkpt>
      <trkpt lat="48.5139" lon="3.10327">
        <ele>112.2</ele>
        <time>2021-04-04T13:51:48Z</time>
      </trkpt>
      <trkpt lat="48.51386" lon="3.10329">
        <ele>112.1</ele>
        <time>2021-04-04T13:51:51Z</time>
      </trkpt>
      <trkpt lat="48.51382" lon="3.10332">
        <ele>112.2</ele>
        <time>2021-04-04T13:51:54Z</time>
      </trkpt>
      <trkpt lat="48.51377" lon="3.10334">
        <ele>112.9</ele>
        <time>2021-04-04T13:51:58Z</time>
      </trkpt>
      <trkpt lat="48.51372" lon="3.10332">
        <ele>113.9</ele>
        <time>2021-04-04T13:52:03Z</time>
      </trkpt>
      <trkpt lat="48.51368" lon="3.10328">
        <ele>114.5</ele>
        <time>2021-04-04T13:52:07Z</time>
      </trkpt>
      <trkpt lat="48.51363" lon="3.10324">
        <ele>114.9</ele>
        <time>2021-04-04T13:52:11Z</time>
      </trkpt>
      <trkpt lat="48.51359" lon="3.10322">
        <ele>115.2</ele>
        <time>2021-04-04T13:52:15Z</time>
      </trkpt>
      <trkpt lat="48.51354" lon="3.10318">
        <ele>115.2</ele>
        <time>2021-04-04T13:52:19Z</time>
      </trkpt>
      <trkpt lat="48.5135" lon="3.10313">
        <ele>115</ele>
        <time>2021-04-04T13:52:24Z</time>
      </trkpt>
      <trkpt lat="48.51347" lon="3.10308">
        <ele>114.8</ele>
        <time>2021-04-04T13:52:32Z</time>
      </trkpt>
      <trkpt lat="48.51344" lon="3.10304">
        <ele>114.8</ele>
        <time>2021-04-04T13:52:38Z</time>
      </trkpt>
      <trkpt lat="48.51348" lon="3.10309">
        <ele>115.1</ele>
        <time>2021-04-04T13:52:56Z</time>
      </trkpt>
      <trkpt lat="48.51353" lon="3.10309">
        <ele>115.4</ele>
        <time>2021-04-04T13:53:06Z</time>
      </trkpt>
      <trkpt lat="48.51356" lon="3.10314">
        <ele>116.5</ele>
        <time>2021-04-04T13:53:33Z</time>
      </trkpt>
      <trkpt lat="48.5135" lon="3.10315">
        <ele>116.8</ele>
        <time>2021-04-04T13:53:44Z</time>
      </trkpt>
      <trkpt lat="48.51348" lon="3.10309">
        <ele>118.6</ele>
        <time>2021-04-04T13:54:23Z</time>
      </trkpt>
      <trkpt lat="48.51349" lon="3.10316">
        <ele>119</ele>
        <time>2021-04-04T13:54:32Z</time>
      </trkpt>
      <trkpt lat="48.51344" lon="3.10319">
        <ele>119.5</ele>
        <time>2021-04-04T13:54:41Z</time>
      </trkpt>
      <trkpt lat="48.5134" lon="3.10321">
        <ele>119.8</ele>
        <time>2021-04-04T13:54:47Z</time>
      </trkpt>
      <trkpt lat="48.51335" lon="3.10322">
        <ele>120.1</ele>
        <time>2021-04-04T13:54:52Z</time>
      </trkpt>
      <trkpt lat="48.5133" lon="3.10322">
        <ele>120.3</ele>
        <time>2021-04-04T13:54:56Z</time>
      </trkpt>
      <trkpt lat="48.51326" lon="3.10319">
        <ele>120.7</ele>
        <time>2021-04-04T13:55:01Z</time>
      </trkpt>
      <trkpt lat="48.51322" lon="3.10315">
        <ele>121.6</ele>
        <time>2021-04-04T13:55:08Z</time>
      </trkpt>
      <trkpt lat="48.51318" lon="3.10311">
        <ele>122.4</ele>
        <time>2021-04-04T13:55:15Z</time>
      </trkpt>
      <trkpt lat="48.51316" lon="3.10305">
        <ele>122.9</ele>
        <time>2021-04-04T13:55:20Z</time>
      </trkpt>
      <trkpt lat="48.51315" lon="3.10298">
        <ele>123.4</ele>
        <time>2021-04-04T13:55:27Z</time>
      </trkpt>
      <trkpt lat="48.51315" lon="3.10291">
        <ele>123.2</ele>
        <time>2021-04-04T13:55:35Z</time>
      </trkpt>
      <trkpt lat="48.51312" lon="3.10284">
        <ele>123</ele>
        <time>2021-04-04T13:55:40Z</time>
      </trkpt>
      <trkpt lat="48.51309" lon="3.10279">
        <ele>123.1</ele>
        <time>2021-04-04T13:56:19Z</time>
      </trkpt>
      <trkpt lat="48.51304" lon="3.1028">
        <ele>123</ele>
        <time>2021-04-04T13:56:25Z</time>
      </trkpt>
      <trkpt lat="48.513" lon="3.10276">
        <ele>122.5</ele>
        <time>2021-04-04T13:56:32Z</time>
      </trkpt>
      <trkpt lat="48.51297" lon="3.10271">
        <ele>121.7</ele>
        <time>2021-04-04T13:56:39Z</time>
      </trkpt>
      <trkpt lat="48.51296" lon="3.10263">
        <ele>120.9</ele>
        <time>2021-04-04T13:56:44Z</time>
      </trkpt>
      <trkpt lat="48.51295" lon="3.10256">
        <ele>120.3</ele>
        <time>2021-04-04T13:56:48Z</time>
      </trkpt>
      <trkpt lat="48.51295" lon="3.10248">
        <ele>119.6</ele>
        <time>2021-04-04T13:56:52Z</time>
      </trkpt>
      <trkpt lat="48.51296" lon="3.1024">
        <ele>118.8</ele>
        <time>2021-04-04T13:56:57Z</time>
      </trkpt>
      <trkpt lat="48.51296" lon="3.10232">
        <ele>118.4</ele>
        <time>2021-04-04T13:57:01Z</time>
      </trkpt>
      <trkpt lat="48.51297" lon="3.10225">
        <ele>118.2</ele>
        <time>2021-04-04T13:57:05Z</time>
      </trkpt>
      <trkpt lat="48.51298" lon="3.10219">
        <ele>118.1</ele>
        <time>2021-04-04T13:57:15Z</time>
      </trkpt>
      <trkpt lat="48.51298" lon="3.10211">
        <ele>117.8</ele>
        <time>2021-04-04T13:57:20Z</time>
      </trkpt>
      <trkpt lat="48.51297" lon="3.10204">
        <ele>117.8</ele>
        <time>2021-04-04T13:57:24Z</time>
      </trkpt>
      <trkpt lat="48.51299" lon="3.10197">
        <ele>118</ele>
        <time>2021-04-04T13:57:31Z</time>
      </trkpt>
      <trkpt lat="48.51302" lon="3.10193">
        <ele>118.1</ele>
        <time>2021-04-04T13:57:36Z</time>
      </trkpt>
      <trkpt lat="48.51305" lon="3.10187">
        <ele>118.1</ele>
        <time>2021-04-04T13:57:42Z</time>
      </trkpt>
      <trkpt lat="48.51309" lon="3.10186">
        <ele>119.8</ele>
        <time>2021-04-04T13:58:12Z</time>
      </trkpt>
      <trkpt lat="48.51315" lon="3.10189">
        <ele>123.6</ele>
        <time>2021-04-04T14:00:18Z</time>
      </trkpt>
      <trkpt lat="48.5132" lon="3.10192">
        <ele>129.7</ele>
        <time>2021-04-04T14:02:33Z</time>
      </trkpt>
      <trkpt lat="48.51315" lon="3.10192">
        <ele>131</ele>
        <time>2021-04-04T14:03:56Z</time>
      </trkpt>
      <trkpt lat="48.51309" lon="3.10194">
        <ele>130.4</ele>
        <time>2021-04-04T14:04:00Z</time>
      </trkpt>
      <trkpt lat="48.51305" lon="3.10196">
        <ele>129.7</ele>
        <time>2021-04-04T14:04:06Z</time>
      </trkpt>
      <trkpt lat="48.51302" lon="3.10202">
        <ele>129.5</ele>
        <time>2021-04-04T14:04:10Z</time>
      </trkpt>
      <trkpt lat="48.51298" lon="3.10206">
        <ele>129.2</ele>
        <time>2021-04-04T14:04:14Z</time>
      </trkpt>
      <trkpt lat="48.51294" lon="3.1021">
        <ele>129.1</ele>
        <time>2021-04-04T14:04:17Z</time>
      </trkpt>
      <trkpt lat="48.51288" lon="3.10213">
        <ele>129.2</ele>
        <time>2021-04-04T14:04:21Z</time>
      </trkpt>
      <trkpt lat="48.51284" lon="3.10214">
        <ele>129.2</ele>
        <time>2021-04-04T14:04:25Z</time>
      </trkpt>
      <trkpt lat="48.51278" lon="3.10214">
        <ele>129.1</ele>
        <time>2021-04-04T14:04:30Z</time>
      </trkpt>
      <trkpt lat="48.51273" lon="3.10213">
        <ele>129.1</ele>
        <time>2021-04-04T14:04:34Z</time>
      </trkpt>
      <trkpt lat="48.51268" lon="3.10211">
        <ele>129</ele>
        <time>2021-04-04T14:04:38Z</time>
      </trkpt>
      <trkpt lat="48.51262" lon="3.1021">
        <ele>128.7</ele>
        <time>2021-04-04T14:04:43Z</time>
      </trkpt>
      <trkpt lat="48.51257" lon="3.10208">
        <ele>128.3</ele>
        <time>2021-04-04T14:04:47Z</time>
      </trkpt>
      <trkpt lat="48.51252" lon="3.10206">
        <ele>128</ele>
        <time>2021-04-04T14:04:51Z</time>
      </trkpt>
      <trkpt lat="48.51247" lon="3.10204">
        <ele>127.7</ele>
        <time>2021-04-04T14:04:55Z</time>
      </trkpt>
      <trkpt lat="48.51243" lon="3.102">
        <ele>127.2</ele>
        <time>2021-04-04T14:05:00Z</time>
      </trkpt>
      <trkpt lat="48.51238" lon="3.10196">
        <ele>126.9</ele>
        <time>2021-04-04T14:05:04Z</time>
      </trkpt>
      <trkpt lat="48.51233" lon="3.10194">
        <ele>126.4</ele>
        <time>2021-04-04T14:05:08Z</time>
      </trkpt>
      <trkpt lat="48.51228" lon="3.10193">
        <ele>126</ele>
        <time>2021-04-04T14:05:12Z</time>
      </trkpt>
      <trkpt lat="48.51223" lon="3.10192">
        <ele>125.7</ele>
        <time>2021-04-04T14:05:16Z</time>
      </trkpt>
      <trkpt lat="48.51218" lon="3.1019">
        <ele>125.2</ele>
        <time>2021-04-04T14:05:21Z</time>
      </trkpt>
      <trkpt lat="48.51214" lon="3.10185">
        <ele>124.7</ele>
        <time>2021-04-04T14:05:26Z</time>
      </trkpt>
      <trkpt lat="48.5121" lon="3.1018">
        <ele>124.3</ele>
        <time>2021-04-04T14:05:30Z</time>
      </trkpt>
      <trkpt lat="48.51205" lon="3.10177">
        <ele>124</ele>
        <time>2021-04-04T14:05:34Z</time>
      </trkpt>
      <trkpt lat="48.512" lon="3.10174">
        <ele>123.7</ele>
        <time>2021-04-04T14:05:38Z</time>
      </trkpt>
      <trkpt lat="48.51196" lon="3.10171">
        <ele>123.8</ele>
        <time>2021-04-04T14:05:42Z</time>
      </trkpt>
      <trkpt lat="48.51192" lon="3.10166">
        <ele>124</ele>
        <time>2021-04-04T14:05:46Z</time>
      </trkpt>
      <trkpt lat="48.51189" lon="3.10159">
        <ele>124.1</ele>
        <time>2021-04-04T14:05:50Z</time>
      </trkpt>
      <trkpt lat="48.51186" lon="3.10153">
        <ele>124.3</ele>
        <time>2021-04-04T14:05:55Z</time>
      </trkpt>
      <trkpt lat="48.51184" lon="3.10147">
        <ele>124.3</ele>
        <time>2021-04-04T14:05:59Z</time>
      </trkpt>
      <trkpt lat="48.51181" lon="3.10141">
        <ele>124.1</ele>
        <time>2021-04-04T14:06:03Z</time>
      </trkpt>
      <trkpt lat="48.51177" lon="3.10137">
        <ele>123.7</ele>
        <time>2021-04-04T14:06:07Z</time>
      </trkpt>
      <trkpt lat="48.51172" lon="3.10133">
        <ele>123.5</ele>
        <time>2021-04-04T14:06:11Z</time>
      </trkpt>
      <trkpt lat="48.51168" lon="3.10127">
        <ele>123.2</ele>
        <time>2021-04-04T14:06:15Z</time>
      </trkpt>
      <trkpt lat="48.51164" lon="3.10122">
        <ele>123</ele>
        <time>2021-04-04T14:06:19Z</time>
      </trkpt>
      <trkpt lat="48.5116" lon="3.10116">
        <ele>122.8</ele>
        <time>2021-04-04T14:06:24Z</time>
      </trkpt>
      <trkpt lat="48.51156" lon="3.1011">
        <ele>122.7</ele>
        <time>2021-04-04T14:06:29Z</time>
      </trkpt>
      <trkpt lat="48.51151" lon="3.10106">
        <ele>122.5</ele>
        <time>2021-04-04T14:06:34Z</time>
      </trkpt>
      <trkpt lat="48.51147" lon="3.10103">
        <ele>122.1</ele>
        <time>2021-04-04T14:06:37Z</time>
      </trkpt>
      <trkpt lat="48.51144" lon="3.10099">
        <ele>121.7</ele>
        <time>2021-04-04T14:06:41Z</time>
      </trkpt>
      <trkpt lat="48.51139" lon="3.10094">
        <ele>121.5</ele>
        <time>2021-04-04T14:06:47Z</time>
      </trkpt>
      <trkpt lat="48.51135" lon="3.10092">
        <ele>121.6</ele>
        <time>2021-04-04T14:06:50Z</time>
      </trkpt>
      <trkpt lat="48.5113" lon="3.10089">
        <ele>122</ele>
        <time>2021-04-04T14:06:53Z</time>
      </trkpt>
      <trkpt lat="48.51126" lon="3.10086">
        <ele>122.5</ele>
        <time>2021-04-04T14:06:56Z</time>
      </trkpt>
      <trkpt lat="48.51121" lon="3.10081">
        <ele>123</ele>
        <time>2021-04-04T14:07:00Z</time>
      </trkpt>
      <trkpt lat="48.51115" lon="3.10077">
        <ele>123.5</ele>
        <time>2021-04-04T14:07:04Z</time>
      </trkpt>
      <trkpt lat="48.5111" lon="3.10074">
        <ele>123.8</ele>
        <time>2021-04-04T14:07:08Z</time>
      </trkpt>
      <trkpt lat="48.51105" lon="3.10072">
        <ele>123.9</ele>
        <time>2021-04-04T14:07:11Z</time>
      </trkpt>
      <trkpt lat="48.511" lon="3.1007">
        <ele>124.2</ele>
        <time>2021-04-04T14:07:15Z</time>
      </trkpt>
      <trkpt lat="48.51096" lon="3.10066">
        <ele>124.5</ele>
        <time>2021-04-04T14:07:19Z</time>
      </trkpt>
      <trkpt lat="48.51092" lon="3.1006">
        <ele>124.8</ele>
        <time>2021-04-04T14:07:24Z</time>
      </trkpt>
      <trkpt lat="48.51088" lon="3.10056">
        <ele>125.5</ele>
        <time>2021-04-04T14:07:28Z</time>
      </trkpt>
      <trkpt lat="48.51084" lon="3.10051">
        <ele>126.5</ele>
        <time>2021-04-04T14:07:33Z</time>
      </trkpt>
      <trkpt lat="48.51094" lon="3.1004">
        <ele>130.4</ele>
        <time>2021-04-04T14:08:44Z</time>
      </trkpt>
      <trkpt lat="48.51097" lon="3.10033">
        <ele>125.3</ele>
        <time>2021-04-04T14:08:47Z</time>
      </trkpt>
      <trkpt lat="48.51094" lon="3.10039">
        <ele>125.7</ele>
        <time>2021-04-04T14:08:52Z</time>
      </trkpt>
      <trkpt lat="48.51092" lon="3.10047">
        <ele>125.8</ele>
        <time>2021-04-04T14:08:55Z</time>
      </trkpt>
      <trkpt lat="48.51091" lon="3.10039">
        <ele>124.5</ele>
        <time>2021-04-04T14:09:09Z</time>
      </trkpt>
      <trkpt lat="48.51088" lon="3.10033">
        <ele>122.9</ele>
        <time>2021-04-04T14:09:14Z</time>
      </trkpt>
      <trkpt lat="48.51084" lon="3.1003">
        <ele>121.3</ele>
        <time>2021-04-04T14:09:28Z</time>
      </trkpt>
      <trkpt lat="48.51079" lon="3.10028">
        <ele>118.9</ele>
        <time>2021-04-04T14:10:52Z</time>
      </trkpt>
      <trkpt lat="48.51079" lon="3.1002">
        <ele>117.3</ele>
        <time>2021-04-04T14:11:12Z</time>
      </trkpt>
      <trkpt lat="48.51085" lon="3.10023">
        <ele>117.1</ele>
        <time>2021-04-04T14:11:27Z</time>
      </trkpt>
      <trkpt lat="48.51089" lon="3.10027">
        <ele>117</ele>
        <time>2021-04-04T14:11:30Z</time>
      </trkpt>
      <trkpt lat="48.51091" lon="3.10033">
        <ele>119.3</ele>
        <time>2021-04-04T14:11:44Z</time>
      </trkpt>
      <trkpt lat="48.51086" lon="3.1003">
        <ele>121.4</ele>
        <time>2021-04-04T14:12:12Z</time>
      </trkpt>
      <trkpt lat="48.51082" lon="3.10027">
        <ele>121.4</ele>
        <time>2021-04-04T14:12:16Z</time>
      </trkpt>
      <trkpt lat="48.51087" lon="3.10028">
        <ele>121.4</ele>
        <time>2021-04-04T14:12:26Z</time>
      </trkpt>
      <trkpt lat="48.51093" lon="3.10028">
        <ele>121</ele>
        <time>2021-04-04T14:12:35Z</time>
      </trkpt>
      <trkpt lat="48.51098" lon="3.10026">
        <ele>120.5</ele>
        <time>2021-04-04T14:12:39Z</time>
      </trkpt>
      <trkpt lat="48.51094" lon="3.10022">
        <ele>119.8</ele>
        <time>2021-04-04T14:12:50Z</time>
      </trkpt>
    </trkseg>
  </trk>
</gpx>